<?xml version='1.0' encoding='UTF-8'?><gpx version="1.1" creator="JPX - https://github.com/jenetics/jpx" xmlns="http://www.topografix.com/GPX/1/1"><trk><trkseg><trkpt lat="44.27347692129603" lon="9.452625326282371"><ele>27.0</ele><time>2026-05-02T09:34:16Z</time></trkpt><trkpt lat="44.273518740278945" lon="9.452554084256688"><ele>27.0</ele><time>2026-05-02T09:34:26Z</time></trkpt><trkpt lat="44.27350812890505" lon="9.452442012273094"><ele>27.0</ele><time>2026-05-02T09:34:29Z</time></trkpt><trkpt lat="44.273534917362" lon="9.452355187046008"><ele>27.0</ele><time>2026-05-02T09:34:34Z</time></trkpt><trkpt lat="44.27359819803049" lon="9.452361104063268"><ele>27.0</ele><time>2026-05-02T09:34:37Z</time></trkpt><trkpt lat="44.27365442081097" lon="9.452424292267718"><ele>27.0</ele><time>2026-05-02T09:34:39Z</time></trkpt><trkpt lat="44.27371826917458" lon="9.452440665981664"><ele>27.0</ele><time>2026-05-02T09:37:16.999Z</time></trkpt><trkpt lat="44.27379419643764" lon="9.452482110508061"><ele>27.0</ele><time>2026-05-02T09:37:27Z</time></trkpt><trkpt lat="44.2738646303987" lon="9.452550891127578"><ele>27.0</ele><time>2026-05-02T09:37:30Z</time></trkpt><trkpt lat="44.273909552189316" lon="9.452615639511667"><ele>27.0</ele><time>2026-05-02T09:37:32Z</time></trkpt><trkpt lat="44.27398717704786" lon="9.452634966889581"><ele>27.0</ele><time>2026-05-02T09:37:34Z</time></trkpt><trkpt lat="44.274055430787016" lon="9.452602220909547"><ele>27.0</ele><time>2026-05-02T09:37:36Z</time></trkpt><trkpt lat="44.274128935766235" lon="9.452589042203476"><ele>27.0</ele><time>2026-05-02T09:37:38Z</time></trkpt><trkpt lat="44.27420315170943" lon="9.452599715810585"><ele>27.8</ele><time>2026-05-02T09:37:40Z</time></trkpt><trkpt lat="44.27430269136625" lon="9.452548426242753"><ele>28.6</ele><time>2026-05-02T09:38:38Z</time></trkpt><trkpt lat="44.27438249339098" lon="9.452544107298685"><ele>29.400000000000002</ele><time>2026-05-02T09:38:39Z</time></trkpt><trkpt lat="44.27446870654421" lon="9.452541982825384"><ele>30.200000000000003</ele><time>2026-05-02T09:38:40Z</time></trkpt><trkpt lat="44.27456442622003" lon="9.452585454556292"><ele>31.0</ele><time>2026-05-02T09:38:41Z</time></trkpt><trkpt lat="44.274663860685784" lon="9.45256900081387"><ele>31.0</ele><time>2026-05-02T09:38:42Z</time></trkpt><trkpt lat="44.27475882325794" lon="9.452570064920481"><ele>31.0</ele><time>2026-05-02T09:38:43Z</time></trkpt><trkpt lat="44.27486325979889" lon="9.45256166233877"><ele>31.0</ele><time>2026-05-02T09:38:44Z</time></trkpt><trkpt lat="44.274956333078116" lon="9.452571893502649"><ele>31.0</ele><time>2026-05-02T09:38:45Z</time></trkpt><trkpt lat="44.27504997486484" lon="9.452593732622555"><ele>31.0</ele><time>2026-05-02T09:38:46Z</time></trkpt><trkpt lat="44.275130375150844" lon="9.452723800089405"><ele>31.5</ele><time>2026-05-02T09:38:47Z</time></trkpt><trkpt lat="44.2752452804576" lon="9.452791595794602"><ele>32.0</ele><time>2026-05-02T09:38:48Z</time></trkpt><trkpt lat="44.2753705053088" lon="9.45286633423638"><ele>32.5</ele><time>2026-05-02T09:38:49Z</time></trkpt><trkpt lat="44.275495557049325" lon="9.452915866731965"><ele>33.0</ele><time>2026-05-02T09:38:50Z</time></trkpt><trkpt lat="44.27560062353099" lon="9.452988625188869"><ele>32.5</ele><time>2026-05-02T09:38:51Z</time></trkpt><trkpt lat="44.27571089105278" lon="9.453040788295077"><ele>32.0</ele><time>2026-05-02T09:38:52Z</time></trkpt><trkpt lat="44.27582137530345" lon="9.45309245431317"><ele>31.5</ele><time>2026-05-02T09:38:53Z</time></trkpt><trkpt lat="44.27593882939107" lon="9.453131571339524"><ele>31.0</ele><time>2026-05-02T09:38:54Z</time></trkpt><trkpt lat="44.27603188127231" lon="9.453221944861877"><ele>31.0</ele><time>2026-05-02T09:38:55Z</time></trkpt><trkpt lat="44.27612513386472" lon="9.453337729932954"><ele>31.0</ele><time>2026-05-02T09:38:56Z</time></trkpt><trkpt lat="44.27623703707523" lon="9.45339820570353"><ele>31.0</ele><time>2026-05-02T09:38:57Z</time></trkpt><trkpt lat="44.27634672822037" lon="9.453458413413394"><ele>31.0</ele><time>2026-05-02T09:38:58Z</time></trkpt><trkpt lat="44.27648631010488" lon="9.453516729419277"><ele>32.333333333333336</ele><time>2026-05-02T09:38:58.999Z</time></trkpt><trkpt lat="44.2766273165186" lon="9.45357408363071"><ele>33.666666666666664</ele><time>2026-05-02T09:38:59.999Z</time></trkpt><trkpt lat="44.27677975997171" lon="9.453653427665891"><ele>35.0</ele><time>2026-05-02T09:39:00.999Z</time></trkpt><trkpt lat="44.2769247874642" lon="9.453699414753943"><ele>35.0</ele><time>2026-05-02T09:39:01.999Z</time></trkpt><trkpt lat="44.27705971156473" lon="9.453756822905989"><ele>35.0</ele><time>2026-05-02T09:39:02.999Z</time></trkpt><trkpt lat="44.2771991880478" lon="9.453803967683644"><ele>35.0</ele><time>2026-05-02T09:39:03.999Z</time></trkpt><trkpt lat="44.27734481938308" lon="9.453858945814074"><ele>35.0</ele><time>2026-05-02T09:39:04.999Z</time></trkpt><trkpt lat="44.27749272185734" lon="9.453911906818332"><ele>34.5</ele><time>2026-05-02T09:39:05.999Z</time></trkpt><trkpt lat="44.27764481370109" lon="9.453961807895283"><ele>34.0</ele><time>2026-05-02T09:39:06.999Z</time></trkpt><trkpt lat="44.277784644561685" lon="9.453997063267478"><ele>33.5</ele><time>2026-05-02T09:39:07.999Z</time></trkpt><trkpt lat="44.27791481086881" lon="9.454016730400959"><ele>33.0</ele><time>2026-05-02T09:39:08.999Z</time></trkpt><trkpt lat="44.27803671330554" lon="9.454023841200954"><ele>34.0</ele><time>2026-05-02T09:39:09.999Z</time></trkpt><trkpt lat="44.27815164722624" lon="9.454045249867118"><ele>35.0</ele><time>2026-05-02T09:39:10.999Z</time></trkpt><trkpt lat="44.27826757626324" lon="9.4541146463557"><ele>36.0</ele><time>2026-05-02T09:39:11.999Z</time></trkpt><trkpt lat="44.278393107104975" lon="9.454180088597036"><ele>37.0</ele><time>2026-05-02T09:39:12.999Z</time></trkpt><trkpt lat="44.27852706176403" lon="9.454236534370839"><ele>37.0</ele><time>2026-05-02T09:39:13.999Z</time></trkpt><trkpt lat="44.278667898894106" lon="9.45433120975545"><ele>37.0</ele><time>2026-05-02T09:39:14.999Z</time></trkpt><trkpt lat="44.27881520078675" lon="9.454429056014904"><ele>37.0</ele><time>2026-05-02T09:39:15.999Z</time></trkpt><trkpt lat="44.27896500517605" lon="9.454529366274631"><ele>37.333333333333336</ele><time>2026-05-02T09:39:16.999Z</time></trkpt><trkpt lat="44.2791126117466" lon="9.45461193681431"><ele>37.666666666666664</ele><time>2026-05-02T09:39:17.999Z</time></trkpt><trkpt lat="44.279277363566266" lon="9.454688010713026"><ele>38.0</ele><time>2026-05-02T09:39:18.999Z</time></trkpt><trkpt lat="44.279439939148126" lon="9.45475089386294"><ele>38.0</ele><time>2026-05-02T09:39:19.999Z</time></trkpt><trkpt lat="44.27960165702317" lon="9.454819086463354"><ele>38.0</ele><time>2026-05-02T09:39:20.999Z</time></trkpt><trkpt lat="44.279758633236526" lon="9.454894033437554"><ele>38.0</ele><time>2026-05-02T09:39:21.999Z</time></trkpt><trkpt lat="44.27990643310025" lon="9.454984395619453"><ele>39.0</ele><time>2026-05-02T09:39:22.999Z</time></trkpt><trkpt lat="44.28005044394808" lon="9.455051567461238"><ele>40.0</ele><time>2026-05-02T09:39:23.999Z</time></trkpt><trkpt lat="44.28019332673375" lon="9.455116971736528"><ele>41.0</ele><time>2026-05-02T09:39:24.999Z</time></trkpt><trkpt lat="44.280338923948605" lon="9.455159039151553"><ele>41.0</ele><time>2026-05-02T09:39:25.999Z</time></trkpt><trkpt lat="44.28047688270293" lon="9.455210396069685"><ele>41.0</ele><time>2026-05-02T09:39:26.999Z</time></trkpt><trkpt lat="44.280623347493766" lon="9.455225271947775"><ele>41.0</ele><time>2026-05-02T09:39:27.999Z</time></trkpt><trkpt lat="44.28077496359603" lon="9.455212664882024"><ele>41.0</ele><time>2026-05-02T09:39:28.999Z</time></trkpt><trkpt lat="44.280925955227175" lon="9.455181947280352"><ele>43.25</ele><time>2026-05-02T09:39:29.999Z</time></trkpt><trkpt lat="44.2810736927654" lon="9.45516959142765"><ele>45.5</ele><time>2026-05-02T09:39:30.999Z</time></trkpt><trkpt lat="44.281212472660364" lon="9.455120943838573"><ele>47.75</ele><time>2026-05-02T09:39:31.999Z</time></trkpt><trkpt lat="44.28134456780798" lon="9.45510248741025"><ele>50.0</ele><time>2026-05-02T09:39:33Z</time></trkpt><trkpt lat="44.28146447577596" lon="9.45514927271868"><ele>49.0</ele><time>2026-05-02T09:39:34Z</time></trkpt><trkpt lat="44.28157435948549" lon="9.455224252417095"><ele>48.0</ele><time>2026-05-02T09:39:35Z</time></trkpt><trkpt lat="44.281668465517164" lon="9.45534697850559"><ele>47.0</ele><time>2026-05-02T09:39:36Z</time></trkpt><trkpt lat="44.28176931058361" lon="9.455467077462371"><ele>46.0</ele><time>2026-05-02T09:39:37Z</time></trkpt><trkpt lat="44.28186419074188" lon="9.455549163620294"><ele>46.0</ele><time>2026-05-02T09:39:38Z</time></trkpt><trkpt lat="44.28197890041789" lon="9.455618761331944"><ele>46.0</ele><time>2026-05-02T09:39:39Z</time></trkpt><trkpt lat="44.28210858930936" lon="9.455637327662302"><ele>46.0</ele><time>2026-05-02T09:39:40Z</time></trkpt><trkpt lat="44.28223775695872" lon="9.455632775080966"><ele>46.0</ele><time>2026-05-02T09:39:41Z</time></trkpt><trkpt lat="44.28236168525254" lon="9.455626413614302"><ele>48.5</ele><time>2026-05-02T09:39:42Z</time></trkpt><trkpt lat="44.282494782776794" lon="9.455580856479811"><ele>51.0</ele><time>2026-05-02T09:39:43Z</time></trkpt><trkpt lat="44.28262997243913" lon="9.45552708830891"><ele>53.5</ele><time>2026-05-02T09:39:44Z</time></trkpt><trkpt lat="44.28277046725401" lon="9.455529815248966"><ele>56.0</ele><time>2026-05-02T09:39:45Z</time></trkpt><trkpt lat="44.28289700633906" lon="9.455535472777685"><ele>56.0</ele><time>2026-05-02T09:39:46Z</time></trkpt><trkpt lat="44.2830117854806" lon="9.455499302448475"><ele>55.99999999999999</ele><time>2026-05-02T09:39:47Z</time></trkpt><trkpt lat="44.283114258155265" lon="9.455454721224243"><ele>55.99999999999999</ele><time>2026-05-02T09:39:48Z</time></trkpt><trkpt lat="44.283212148612726" lon="9.45542017184565"><ele>56.0</ele><time>2026-05-02T09:39:49Z</time></trkpt><trkpt lat="44.28331003956589" lon="9.455414216791809"><ele>56.0</ele><time>2026-05-02T09:39:50Z</time></trkpt><trkpt lat="44.28340184124807" lon="9.455456823337196"><ele>55.599999999999994</ele><time>2026-05-02T09:39:51Z</time></trkpt><trkpt lat="44.283469646151794" lon="9.455581094660529"><ele>55.199999999999996</ele><time>2026-05-02T09:39:52Z</time></trkpt><trkpt lat="44.28355659668038" lon="9.455688608003024"><ele>54.800000000000004</ele><time>2026-05-02T09:39:53Z</time></trkpt><trkpt lat="44.28364466000177" lon="9.45576454573289"><ele>54.400000000000006</ele><time>2026-05-02T09:39:54Z</time></trkpt><trkpt lat="44.28375434162555" lon="9.455784388923915"><ele>54.0</ele><time>2026-05-02T09:39:55Z</time></trkpt><trkpt lat="44.28387643111589" lon="9.45575960102062"><ele>55.75</ele><time>2026-05-02T09:39:56Z</time></trkpt><trkpt lat="44.28399825074066" lon="9.455721876070882"><ele>57.5</ele><time>2026-05-02T09:39:57Z</time></trkpt><trkpt lat="44.28410969065124" lon="9.455674282735213"><ele>59.25</ele><time>2026-05-02T09:39:58Z</time></trkpt><trkpt lat="44.28421172062387" lon="9.45559544637411"><ele>61.0</ele><time>2026-05-02T09:39:59Z</time></trkpt><trkpt lat="44.28430370025089" lon="9.455494443716866"><ele>64.2</ele><time>2026-05-02T09:40:00Z</time></trkpt><trkpt lat="44.284382209373845" lon="9.45539190088178"><ele>67.39999999999999</ele><time>2026-05-02T09:40:01Z</time></trkpt><trkpt lat="44.284457076763374" lon="9.45530161438986"><ele>70.6</ele><time>2026-05-02T09:40:02Z</time></trkpt><trkpt lat="44.28453454006959" lon="9.455227901766465"><ele>73.8</ele><time>2026-05-02T09:40:03Z</time></trkpt><trkpt lat="44.28463064873058" lon="9.455214640211135"><ele>77.0</ele><time>2026-05-02T09:40:04Z</time></trkpt><trkpt lat="44.284712304184545" lon="9.455224645032544"><ele>76.2</ele><time>2026-05-02T09:40:05Z</time></trkpt><trkpt lat="44.284785827231254" lon="9.45529076428304"><ele>75.4</ele><time>2026-05-02T09:40:06Z</time></trkpt><trkpt lat="44.28483495792325" lon="9.455401355016015"><ele>74.6</ele><time>2026-05-02T09:40:07Z</time></trkpt><trkpt lat="44.28488279661598" lon="9.45552301246897"><ele>73.8</ele><time>2026-05-02T09:40:08Z</time></trkpt><trkpt lat="44.284844284030406" lon="9.45567591761978"><ele>73.0</ele><time>2026-05-02T09:40:09Z</time></trkpt><trkpt lat="44.28480252121366" lon="9.455834514096525"><ele>70.0</ele><time>2026-05-02T09:40:10Z</time></trkpt><trkpt lat="44.28475018799215" lon="9.456009248615324"><ele>67.0</ele><time>2026-05-02T09:40:11Z</time></trkpt><trkpt lat="44.284686270167356" lon="9.456182130494353"><ele>64.0</ele><time>2026-05-02T09:40:12Z</time></trkpt><trkpt lat="44.28461451908845" lon="9.45633930277038"><ele>61.0</ele><time>2026-05-02T09:40:13Z</time></trkpt><trkpt lat="44.284564763594" lon="9.456490048069805"><ele>59.8</ele><time>2026-05-02T09:40:14Z</time></trkpt><trkpt lat="44.284528032926055" lon="9.456623550636355"><ele>58.599999999999994</ele><time>2026-05-02T09:40:15Z</time></trkpt><trkpt lat="44.28454467906931" lon="9.456752130495794"><ele>57.4</ele><time>2026-05-02T09:40:16Z</time></trkpt><trkpt lat="44.284606622754225" lon="9.456855431140003"><ele>56.2</ele><time>2026-05-02T09:40:17Z</time></trkpt><trkpt lat="44.284699947996984" lon="9.456928352615765"><ele>55.0</ele><time>2026-05-02T09:40:18Z</time></trkpt><trkpt lat="44.284810322454184" lon="9.456986851854213"><ele>57.5</ele><time>2026-05-02T09:40:19Z</time></trkpt><trkpt lat="44.284917727258396" lon="9.457066800848828"><ele>60.0</ele><time>2026-05-02T09:40:20Z</time></trkpt><trkpt lat="44.28504414216587" lon="9.457158571426488"><ele>62.5</ele><time>2026-05-02T09:40:21Z</time></trkpt><trkpt lat="44.28518303189294" lon="9.457244174320673"><ele>65.0</ele><time>2026-05-02T09:40:22Z</time></trkpt><trkpt lat="44.28532750080399" lon="9.45732040578778"><ele>65.0</ele><time>2026-05-02T09:40:23Z</time></trkpt><trkpt lat="44.28547370433775" lon="9.457393924807718"><ele>65.0</ele><time>2026-05-02T09:40:24Z</time></trkpt><trkpt lat="44.285614765245334" lon="9.457446507666248"><ele>65.0</ele><time>2026-05-02T09:40:25Z</time></trkpt><trkpt lat="44.2857436851923" lon="9.457480086073174"><ele>65.0</ele><time>2026-05-02T09:40:26Z</time></trkpt><trkpt lat="44.285860153044496" lon="9.457505331389918"><ele>68.33333333333334</ele><time>2026-05-02T09:40:27Z</time></trkpt><trkpt lat="44.285961853242874" lon="9.457509405586984"><ele>71.66666666666667</ele><time>2026-05-02T09:40:28Z</time></trkpt><trkpt lat="44.28603139491464" lon="9.457452663376475"><ele>75.0</ele><time>2026-05-02T09:40:29Z</time></trkpt><trkpt lat="44.28605894873261" lon="9.457355393577876"><ele>78.33333333333333</ele><time>2026-05-02T09:40:30Z</time></trkpt><trkpt lat="44.28603513417417" lon="9.45724816223298"><ele>81.66666666666666</ele><time>2026-05-02T09:40:31Z</time></trkpt><trkpt lat="44.28597008111213" lon="9.457163626967503"><ele>85.0</ele><time>2026-05-02T09:40:32Z</time></trkpt><trkpt lat="44.28587386873251" lon="9.457124706126846"><ele>82.25</ele><time>2026-05-02T09:40:33Z</time></trkpt><trkpt lat="44.2857539472818" lon="9.457117403272163"><ele>79.5</ele><time>2026-05-02T09:40:34Z</time></trkpt><trkpt lat="44.28561697265705" lon="9.457078117219593"><ele>76.75</ele><time>2026-05-02T09:40:35Z</time></trkpt><trkpt lat="44.28547772760473" lon="9.45699367179113"><ele>74.0</ele><time>2026-05-02T09:40:36Z</time></trkpt><trkpt lat="44.28535548712163" lon="9.456899581919675"><ele>74.0</ele><time>2026-05-02T09:40:37Z</time></trkpt><trkpt lat="44.285265712378596" lon="9.456814334317302"><ele>74.0</ele><time>2026-05-02T09:40:38Z</time></trkpt><trkpt lat="44.285190453028925" lon="9.456736920253148"><ele>74.0</ele><time>2026-05-02T09:40:39Z</time></trkpt><trkpt lat="44.285173836496796" lon="9.456622386741898"><ele>74.0</ele><time>2026-05-02T09:40:40Z</time></trkpt><trkpt lat="44.28521985710729" lon="9.456512165677132"><ele>74.0</ele><time>2026-05-02T09:40:41Z</time></trkpt><trkpt lat="44.28531637115156" lon="9.456432704278445"><ele>74.0</ele><time>2026-05-02T09:40:42Z</time></trkpt><trkpt lat="44.28539963569981" lon="9.456327025571085"><ele>74.0</ele><time>2026-05-02T09:40:43Z</time></trkpt><trkpt lat="44.28547706710582" lon="9.45625164843534"><ele>74.0</ele><time>2026-05-02T09:40:44Z</time></trkpt><trkpt lat="44.28554465986111" lon="9.4562127032819"><ele>74.0</ele><time>2026-05-02T09:40:45Z</time></trkpt><trkpt lat="44.28559492055603" lon="9.456313771447816"><ele>74.0</ele><time>2026-05-02T09:40:47Z</time></trkpt><trkpt lat="44.28552142580868" lon="9.456451710426347"><ele>74.0</ele><time>2026-05-02T09:40:49Z</time></trkpt><trkpt lat="44.28548573181318" lon="9.456573838506435"><ele>74.0</ele><time>2026-05-02T09:40:50Z</time></trkpt><trkpt lat="44.2854878652439" lon="9.456678119419399"><ele>74.0</ele><time>2026-05-02T09:40:51Z</time></trkpt><trkpt lat="44.285548131533325" lon="9.456773296270173"><ele>74.0</ele><time>2026-05-02T09:40:52Z</time></trkpt><trkpt lat="44.28564165844819" lon="9.456795482732254"><ele>74.0</ele><time>2026-05-02T09:40:53Z</time></trkpt><trkpt lat="44.2857476327975" lon="9.456755926247974"><ele>80.0</ele><time>2026-05-02T09:40:54Z</time></trkpt><trkpt lat="44.28588177940218" lon="9.456714458998652"><ele>86.0</ele><time>2026-05-02T09:40:55Z</time></trkpt><trkpt lat="44.286016099762264" lon="9.456721086601135"><ele>92.0</ele><time>2026-05-02T09:40:56Z</time></trkpt><trkpt lat="44.28617227321259" lon="9.456764425749117"><ele>98.0</ele><time>2026-05-02T09:40:57Z</time></trkpt><trkpt lat="44.28635595160113" lon="9.456807550250533"><ele>103.66666666666666</ele><time>2026-05-02T09:40:58Z</time></trkpt><trkpt lat="44.286531431651056" lon="9.456888400444871"><ele>109.33333333333334</ele><time>2026-05-02T09:40:59Z</time></trkpt><trkpt lat="44.286682961914074" lon="9.456952849327173"><ele>115.0</ele><time>2026-05-02T09:41:00Z</time></trkpt><trkpt lat="44.286811770664436" lon="9.457001228009197"><ele>115.0</ele><time>2026-05-02T09:41:01Z</time></trkpt><trkpt lat="44.28694177472554" lon="9.457039649413366"><ele>115.0</ele><time>2026-05-02T09:41:02Z</time></trkpt><trkpt lat="44.287064581194436" lon="9.457075357823378"><ele>115.0</ele><time>2026-05-02T09:41:03Z</time></trkpt><trkpt lat="44.28718318834298" lon="9.457069102375993"><ele>115.0</ele><time>2026-05-02T09:41:04Z</time></trkpt><trkpt lat="44.28729691650885" lon="9.457001570375292"><ele>114.0</ele><time>2026-05-02T09:41:04.999Z</time></trkpt><trkpt lat="44.28739302913594" lon="9.456881972417142"><ele>113.0</ele><time>2026-05-02T09:41:05.999Z</time></trkpt><trkpt lat="44.287461511577604" lon="9.456732838876139"><ele>112.0</ele><time>2026-05-02T09:41:06.999Z</time></trkpt><trkpt lat="44.28749196981548" lon="9.45658065351791"><ele>111.0</ele><time>2026-05-02T09:41:07.999Z</time></trkpt><trkpt lat="44.2874707245037" lon="9.456440217717008"><ele>111.0</ele><time>2026-05-02T09:41:08.999Z</time></trkpt><trkpt lat="44.28740202495033" lon="9.456316368287396"><ele>111.0</ele><time>2026-05-02T09:41:09.999Z</time></trkpt><trkpt lat="44.28730465974614" lon="9.456220351437175"><ele>111.0</ele><time>2026-05-02T09:41:10.999Z</time></trkpt><trkpt lat="44.28726069976898" lon="9.45610707712958"><ele>111.0</ele><time>2026-05-02T09:41:11.999Z</time></trkpt><trkpt lat="44.28724297568499" lon="9.456015282898282"><ele>111.0</ele><time>2026-05-02T09:41:12.999Z</time></trkpt><trkpt lat="44.28725019027301" lon="9.455920603164621"><ele>114.25</ele><time>2026-05-02T09:41:13.999Z</time></trkpt><trkpt lat="44.28732850346461" lon="9.455832516933016"><ele>117.5</ele><time>2026-05-02T09:41:14.999Z</time></trkpt><trkpt lat="44.28740716094352" lon="9.455717799390923"><ele>120.75</ele><time>2026-05-02T09:41:15.999Z</time></trkpt><trkpt lat="44.2874941289284" lon="9.45556468385662"><ele>124.0</ele><time>2026-05-02T09:41:16.999Z</time></trkpt><trkpt lat="44.28759268616764" lon="9.45540165975481"><ele>128.75</ele><time>2026-05-02T09:41:17.999Z</time></trkpt><trkpt lat="44.28768394944797" lon="9.455253206590507"><ele>133.5</ele><time>2026-05-02T09:41:18.999Z</time></trkpt><trkpt lat="44.28775897716375" lon="9.455135734174632"><ele>138.25</ele><time>2026-05-02T09:41:19.999Z</time></trkpt><trkpt lat="44.28785222737641" lon="9.455087134696125"><ele>143.0</ele><time>2026-05-02T09:41:20.999Z</time></trkpt><trkpt lat="44.287958237277316" lon="9.455083906252542"><ele>143.0</ele><time>2026-05-02T09:41:21.999Z</time></trkpt><trkpt lat="44.288087554997084" lon="9.455074749182923"><ele>143.0</ele><time>2026-05-02T09:41:22.999Z</time></trkpt><trkpt lat="44.28821818033075" lon="9.45505537080124"><ele>143.0</ele><time>2026-05-02T09:41:23.999Z</time></trkpt><trkpt lat="44.28834966432744" lon="9.45498026356199"><ele>143.0</ele><time>2026-05-02T09:41:24.999Z</time></trkpt><trkpt lat="44.28847311621646" lon="9.454853222538995"><ele>141.25</ele><time>2026-05-02T09:41:25.999Z</time></trkpt><trkpt lat="44.28858860939794" lon="9.454703271735434"><ele>139.5</ele><time>2026-05-02T09:41:26.999Z</time></trkpt><trkpt lat="44.28871041544147" lon="9.454573276894195"><ele>137.75</ele><time>2026-05-02T09:41:27.999Z</time></trkpt><trkpt lat="44.28880487091912" lon="9.454464177055586"><ele>136.0</ele><time>2026-05-02T09:41:28.999Z</time></trkpt><trkpt lat="44.28889336197751" lon="9.454386105863453"><ele>138.2</ele><time>2026-05-02T09:41:29.999Z</time></trkpt><trkpt lat="44.28897445362851" lon="9.454317897262506"><ele>140.39999999999998</ele><time>2026-05-02T09:41:30.999Z</time></trkpt><trkpt lat="44.28903492581866" lon="9.454253610979624"><ele>142.6</ele><time>2026-05-02T09:41:31.999Z</time></trkpt><trkpt lat="44.289138326013216" lon="9.454200302603535"><ele>144.79999999999998</ele><time>2026-05-02T09:41:33.999Z</time></trkpt><trkpt lat="44.28923001901182" lon="9.454062088942178"><ele>147.0</ele><time>2026-05-02T09:41:36Z</time></trkpt><trkpt lat="44.28928001535984" lon="9.453955947039177"><ele>147.0</ele><time>2026-05-02T09:41:37Z</time></trkpt><trkpt lat="44.28931396047085" lon="9.453843970209764"><ele>147.0</ele><time>2026-05-02T09:41:38Z</time></trkpt><trkpt lat="44.28933743303813" lon="9.453731496212596"><ele>147.0</ele><time>2026-05-02T09:41:39Z</time></trkpt><trkpt lat="44.28937870925035" lon="9.453632534109847"><ele>147.0</ele><time>2026-05-02T09:41:40Z</time></trkpt><trkpt lat="44.28941894930461" lon="9.453532917173302"><ele>147.0</ele><time>2026-05-02T09:41:41Z</time></trkpt><trkpt lat="44.28948837255627" lon="9.453428174017754"><ele>147.0</ele><time>2026-05-02T09:41:42Z</time></trkpt><trkpt lat="44.28957460972866" lon="9.453290172753498"><ele>147.0</ele><time>2026-05-02T09:41:43Z</time></trkpt><trkpt lat="44.28967498437873" lon="9.453137138510144"><ele>147.0</ele><time>2026-05-02T09:41:44Z</time></trkpt><trkpt lat="44.28977692728661" lon="9.452992716496523"><ele>147.0</ele><time>2026-05-02T09:41:45Z</time></trkpt><trkpt lat="44.2898711589668" lon="9.452818919160466"><ele>151.0</ele><time>2026-05-02T09:41:46Z</time></trkpt><trkpt lat="44.28996083389777" lon="9.452682260184869"><ele>155.0</ele><time>2026-05-02T09:41:47Z</time></trkpt><trkpt lat="44.29002075036412" lon="9.45255213431464"><ele>159.0</ele><time>2026-05-02T09:41:48Z</time></trkpt><trkpt lat="44.290091032634265" lon="9.452451200135812"><ele>163.0</ele><time>2026-05-02T09:41:49Z</time></trkpt><trkpt lat="44.29016553478437" lon="9.452388911764016"><ele>167.0</ele><time>2026-05-02T09:41:50Z</time></trkpt><trkpt lat="44.29022256720145" lon="9.452334103744228"><ele>167.0</ele><time>2026-05-02T09:41:51Z</time></trkpt><trkpt lat="44.290267007646506" lon="9.45216667579826"><ele>167.0</ele><time>2026-05-02T09:41:53Z</time></trkpt><trkpt lat="44.290193114622696" lon="9.4520742810744"><ele>167.0</ele><time>2026-05-02T09:41:54Z</time></trkpt><trkpt lat="44.29009948555774" lon="9.45208612376806"><ele>167.0</ele><time>2026-05-02T09:41:55Z</time></trkpt><trkpt lat="44.29002315088047" lon="9.45220377476061"><ele>167.0</ele><time>2026-05-02T09:41:56Z</time></trkpt><trkpt lat="44.28995258645395" lon="9.452325854146663"><ele>167.0</ele><time>2026-05-02T09:41:57Z</time></trkpt><trkpt lat="44.289843220880336" lon="9.452480200551648"><ele>167.0</ele><time>2026-05-02T09:41:58Z</time></trkpt><trkpt lat="44.289697622775634" lon="9.452643645099851"><ele>167.0</ele><time>2026-05-02T09:41:59Z</time></trkpt><trkpt lat="44.28954555657354" lon="9.452789734287009"><ele>168.0</ele><time>2026-05-02T09:42:00Z</time></trkpt><trkpt lat="44.28940671888421" lon="9.452925680991655"><ele>169.0</ele><time>2026-05-02T09:42:01Z</time></trkpt><trkpt lat="44.289291163479476" lon="9.452992118263317"><ele>170.0</ele><time>2026-05-02T09:42:02Z</time></trkpt><trkpt lat="44.289180907776064" lon="9.453056976807938"><ele>171.0</ele><time>2026-05-02T09:42:03Z</time></trkpt><trkpt lat="44.289099136573775" lon="9.453179902048262"><ele>171.0</ele><time>2026-05-02T09:42:04Z</time></trkpt><trkpt lat="44.28901734904522" lon="9.45334862425847"><ele>171.0</ele><time>2026-05-02T09:42:05Z</time></trkpt><trkpt lat="44.28891434441538" lon="9.453498787657809"><ele>171.0</ele><time>2026-05-02T09:42:06Z</time></trkpt><trkpt lat="44.288806168942735" lon="9.453566330602927"><ele>171.0</ele><time>2026-05-02T09:42:07Z</time></trkpt><trkpt lat="44.28869196327664" lon="9.453619027610912"><ele>174.0</ele><time>2026-05-02T09:42:08Z</time></trkpt><trkpt lat="44.28856243153714" lon="9.453649388896231"><ele>177.0</ele><time>2026-05-02T09:42:09Z</time></trkpt><trkpt lat="44.28843258362854" lon="9.453683235067823"><ele>180.0</ele><time>2026-05-02T09:42:10Z</time></trkpt><trkpt lat="44.28832614021864" lon="9.45366573552671"><ele>183.0</ele><time>2026-05-02T09:42:11Z</time></trkpt><trkpt lat="44.28824161021247" lon="9.453643890333671"><ele>183.0</ele><time>2026-05-02T09:42:12Z</time></trkpt><trkpt lat="44.28817282171617" lon="9.453611197732146"><ele>183.0</ele><time>2026-05-02T09:42:13Z</time></trkpt><trkpt lat="44.28820817960526" lon="9.453477757245139"><ele>183.0</ele><time>2026-05-02T09:42:15Z</time></trkpt><trkpt lat="44.28834288176934" lon="9.453512889761562"><ele>183.0</ele><time>2026-05-02T09:42:17Z</time></trkpt><trkpt lat="44.2884436308987" lon="9.453513300475484"><ele>183.0</ele><time>2026-05-02T09:42:18Z</time></trkpt><trkpt lat="44.288555809722126" lon="9.453511534490055"><ele>183.0</ele><time>2026-05-02T09:42:19Z</time></trkpt><trkpt lat="44.28866452536075" lon="9.453448115892705"><ele>183.0</ele><time>2026-05-02T09:42:20Z</time></trkpt><trkpt lat="44.288755592265254" lon="9.453347867131704"><ele>183.0</ele><time>2026-05-02T09:42:21Z</time></trkpt><trkpt lat="44.288831420088314" lon="9.453223802290315"><ele>183.0</ele><time>2026-05-02T09:42:22Z</time></trkpt><trkpt lat="44.28886422013" lon="9.453081717185153"><ele>182.75</ele><time>2026-05-02T09:42:23Z</time></trkpt><trkpt lat="44.28887373170521" lon="9.452924753777342"><ele>182.5</ele><time>2026-05-02T09:42:24Z</time></trkpt><trkpt lat="44.28892556498644" lon="9.452788359073057"><ele>182.25</ele><time>2026-05-02T09:42:25Z</time></trkpt><trkpt lat="44.289008549832516" lon="9.452689219286777"><ele>182.0</ele><time>2026-05-02T09:42:26Z</time></trkpt><trkpt lat="44.289117497649244" lon="9.452597366895846"><ele>184.75</ele><time>2026-05-02T09:42:27Z</time></trkpt><trkpt lat="44.28920841378246" lon="9.452478447497638"><ele>187.5</ele><time>2026-05-02T09:42:28Z</time></trkpt><trkpt lat="44.289262099547486" lon="9.452353423914925"><ele>190.25</ele><time>2026-05-02T09:42:29Z</time></trkpt><trkpt lat="44.289285203537325" lon="9.452187737250892"><ele>193.0</ele><time>2026-05-02T09:42:30Z</time></trkpt><trkpt lat="44.28930308765594" lon="9.451995540006203"><ele>196.25</ele><time>2026-05-02T09:42:31Z</time></trkpt><trkpt lat="44.289409978057606" lon="9.451843011910439"><ele>199.5</ele><time>2026-05-02T09:42:32Z</time></trkpt><trkpt lat="44.289481340998066" lon="9.451681134121841"><ele>202.75</ele><time>2026-05-02T09:42:33Z</time></trkpt><trkpt lat="44.2895394665062" lon="9.451561636489423"><ele>206.0</ele><time>2026-05-02T09:42:34Z</time></trkpt><trkpt lat="44.28959446178281" lon="9.451461838348008"><ele>206.0</ele><time>2026-05-02T09:42:35Z</time></trkpt><trkpt lat="44.28966110739906" lon="9.451397196292827"><ele>206.0</ele><time>2026-05-02T09:42:36Z</time></trkpt><trkpt lat="44.28977027312025" lon="9.4514110034422"><ele>206.0</ele><time>2026-05-02T09:42:37Z</time></trkpt><trkpt lat="44.28988212550693" lon="9.451364643995477"><ele>206.0</ele><time>2026-05-02T09:42:38Z</time></trkpt><trkpt lat="44.28997473567835" lon="9.451304981264023"><ele>206.0</ele><time>2026-05-02T09:42:39Z</time></trkpt><trkpt lat="44.29004926546527" lon="9.45115408293513"><ele>209.0</ele><time>2026-05-02T09:42:40Z</time></trkpt><trkpt lat="44.29014037304908" lon="9.450982064182572"><ele>212.0</ele><time>2026-05-02T09:42:41Z</time></trkpt><trkpt lat="44.29025207259006" lon="9.450890259005849"><ele>215.0</ele><time>2026-05-02T09:42:42Z</time></trkpt><trkpt lat="44.290332543970464" lon="9.450793843580565"><ele>218.0</ele><time>2026-05-02T09:42:43Z</time></trkpt><trkpt lat="44.29040321232957" lon="9.450705638135275"><ele>218.0</ele><time>2026-05-02T09:42:44Z</time></trkpt><trkpt lat="44.29048983824928" lon="9.450686280942922"><ele>218.0</ele><time>2026-05-02T09:42:45Z</time></trkpt><trkpt lat="44.29057127937712" lon="9.450722123297815"><ele>218.0</ele><time>2026-05-02T09:42:46Z</time></trkpt><trkpt lat="44.29065233797528" lon="9.450826874747968"><ele>218.0</ele><time>2026-05-02T09:42:47Z</time></trkpt><trkpt lat="44.29073482317902" lon="9.45093104454449"><ele>218.0</ele><time>2026-05-02T09:42:48Z</time></trkpt><trkpt lat="44.2908177689302" lon="9.450970347792934"><ele>216.5</ele><time>2026-05-02T09:42:49Z</time></trkpt><trkpt lat="44.2909165916068" lon="9.450941080356742"><ele>215.0</ele><time>2026-05-02T09:42:50Z</time></trkpt><trkpt lat="44.29100427898865" lon="9.450838261831985"><ele>213.5</ele><time>2026-05-02T09:42:51Z</time></trkpt><trkpt lat="44.29112094134864" lon="9.450723995172702"><ele>212.0</ele><time>2026-05-02T09:42:52Z</time></trkpt><trkpt lat="44.29122078511271" lon="9.450624721200784"><ele>212.0</ele><time>2026-05-02T09:42:53Z</time></trkpt><trkpt lat="44.291319624612086" lon="9.450540380934317"><ele>212.0</ele><time>2026-05-02T09:42:54Z</time></trkpt><trkpt lat="44.29141263732652" lon="9.450451515484332"><ele>212.0</ele><time>2026-05-02T09:42:55Z</time></trkpt><trkpt lat="44.291531038781244" lon="9.450424253750914"><ele>212.0</ele><time>2026-05-02T09:42:56Z</time></trkpt><trkpt lat="44.29163889424167" lon="9.450401971300098"><ele>216.0</ele><time>2026-05-02T09:42:57Z</time></trkpt><trkpt lat="44.29174338723019" lon="9.4503828217475"><ele>220.0</ele><time>2026-05-02T09:42:58Z</time></trkpt><trkpt lat="44.2918313307988" lon="9.450363899236834"><ele>224.0</ele><time>2026-05-02T09:42:59Z</time></trkpt><trkpt lat="44.29190958995131" lon="9.450347060516732"><ele>228.0</ele><time>2026-05-02T09:43:00.001Z</time></trkpt><trkpt lat="44.29199517013761" lon="9.45031498383402"><ele>232.0</ele><time>2026-05-02T09:43:01.001Z</time></trkpt><trkpt lat="44.29208676543247" lon="9.450275048711642"><ele>232.0</ele><time>2026-05-02T09:43:02.001Z</time></trkpt><trkpt lat="44.292180386910324" lon="9.45022063241315"><ele>232.0</ele><time>2026-05-02T09:43:03.001Z</time></trkpt><trkpt lat="44.29225955237625" lon="9.450111606285923"><ele>232.0</ele><time>2026-05-02T09:43:04.001Z</time></trkpt><trkpt lat="44.292350998316905" lon="9.450047407716532"><ele>232.0</ele><time>2026-05-02T09:43:05.001Z</time></trkpt><trkpt lat="44.29242228473451" lon="9.44999421317496"><ele>232.0</ele><time>2026-05-02T09:43:06.001Z</time></trkpt><trkpt lat="44.29249662203487" lon="9.449994192395666"><ele>232.0</ele><time>2026-05-02T09:43:07.001Z</time></trkpt><trkpt lat="44.29256913957777" lon="9.45004450593608"><ele>232.0</ele><time>2026-05-02T09:43:08.001Z</time></trkpt><trkpt lat="44.292633286049636" lon="9.450140021559159"><ele>232.0</ele><time>2026-05-02T09:43:09.001Z</time></trkpt><trkpt lat="44.29267061238355" lon="9.45028639262451"><ele>232.0</ele><time>2026-05-02T09:43:10.001Z</time></trkpt><trkpt lat="44.29269268647363" lon="9.450457112468854"><ele>232.0</ele><time>2026-05-02T09:43:10.999Z</time></trkpt><trkpt lat="44.29272760043987" lon="9.450648023475944"><ele>227.5</ele><time>2026-05-02T09:43:11.999Z</time></trkpt><trkpt lat="44.29279776095711" lon="9.450802134086258"><ele>223.0</ele><time>2026-05-02T09:43:12.999Z</time></trkpt><trkpt lat="44.292881490257024" lon="9.450937750161854"><ele>218.5</ele><time>2026-05-02T09:43:13.999Z</time></trkpt><trkpt lat="44.29296934032962" lon="9.451056044103812"><ele>214.0</ele><time>2026-05-02T09:43:14.999Z</time></trkpt><trkpt lat="44.29300689255488" lon="9.45120020111928"><ele>213.0</ele><time>2026-05-02T09:43:15.999Z</time></trkpt><trkpt lat="44.29306667809891" lon="9.451337672172366"><ele>212.0</ele><time>2026-05-02T09:43:16.999Z</time></trkpt><trkpt lat="44.293102206634956" lon="9.451490218012578"><ele>211.0</ele><time>2026-05-02T09:43:17.999Z</time></trkpt><trkpt lat="44.29310111527609" lon="9.451650296644903"><ele>210.0</ele><time>2026-05-02T09:43:18.999Z</time></trkpt><trkpt lat="44.2930942866058" lon="9.451814338768436"><ele>210.0</ele><time>2026-05-02T09:43:19.999Z</time></trkpt><trkpt lat="44.29308576583811" lon="9.451955962829391"><ele>210.0</ele><time>2026-05-02T09:43:20.999Z</time></trkpt><trkpt lat="44.293076945490355" lon="9.452080749099991"><ele>210.0</ele><time>2026-05-02T09:43:21.999Z</time></trkpt><trkpt lat="44.29306856659487" lon="9.452218979644623"><ele>210.0</ele><time>2026-05-02T09:43:22.999Z</time></trkpt><trkpt lat="44.29306378993875" lon="9.452363977987968"><ele>210.0</ele><time>2026-05-02T09:43:23.999Z</time></trkpt><trkpt lat="44.29308748331569" lon="9.452488972661156"><ele>214.33333333333334</ele><time>2026-05-02T09:43:25Z</time></trkpt><trkpt lat="44.29313563131177" lon="9.452596904554529"><ele>218.66666666666669</ele><time>2026-05-02T09:43:26Z</time></trkpt><trkpt lat="44.29320670628374" lon="9.452688345156814"><ele>223.0</ele><time>2026-05-02T09:43:27Z</time></trkpt><trkpt lat="44.293274604058176" lon="9.452758619031467"><ele>227.33333333333334</ele><time>2026-05-02T09:43:28Z</time></trkpt><trkpt lat="44.29335316789795" lon="9.452807974721777"><ele>231.66666666666669</ele><time>2026-05-02T09:43:29Z</time></trkpt><trkpt lat="44.293437976239794" lon="9.45280631109029"><ele>236.0</ele><time>2026-05-02T09:43:30Z</time></trkpt><trkpt lat="44.29351769440145" lon="9.452757791337032"><ele>236.0</ele><time>2026-05-02T09:43:31Z</time></trkpt><trkpt lat="44.293587905892664" lon="9.452674664931964"><ele>236.00000000000003</ele><time>2026-05-02T09:43:32Z</time></trkpt><trkpt lat="44.29367333240953" lon="9.452611180267683"><ele>236.00000000000003</ele><time>2026-05-02T09:43:33Z</time></trkpt><trkpt lat="44.29375512926782" lon="9.452531713662031"><ele>236.0</ele><time>2026-05-02T09:43:34Z</time></trkpt><trkpt lat="44.29383392102194" lon="9.452458028175707"><ele>236.0</ele><time>2026-05-02T09:43:35Z</time></trkpt><trkpt lat="44.293903418971745" lon="9.452393034195278"><ele>235.0</ele><time>2026-05-02T09:43:36Z</time></trkpt><trkpt lat="44.293970899366336" lon="9.452331118885544"><ele>234.00000000000003</ele><time>2026-05-02T09:43:37Z</time></trkpt><trkpt lat="44.294043379921604" lon="9.452269414321782"><ele>233.00000000000003</ele><time>2026-05-02T09:43:38Z</time></trkpt><trkpt lat="44.29412294956391" lon="9.452205751917193"><ele>232.0</ele><time>2026-05-02T09:43:39Z</time></trkpt><trkpt lat="44.29420995289049" lon="9.452137899786093"><ele>231.0</ele><time>2026-05-02T09:43:40Z</time></trkpt><trkpt lat="44.29430965071633" lon="9.452080952016482"><ele>234.75</ele><time>2026-05-02T09:43:41Z</time></trkpt><trkpt lat="44.2944154193803" lon="9.452020945395084"><ele>238.5</ele><time>2026-05-02T09:43:42Z</time></trkpt><trkpt lat="44.29452595764608" lon="9.451963367335736"><ele>242.25</ele><time>2026-05-02T09:43:43Z</time></trkpt><trkpt lat="44.29464185617911" lon="9.451895177749106"><ele>246.0</ele><time>2026-05-02T09:43:44Z</time></trkpt><trkpt lat="44.29475634362584" lon="9.451832332018036"><ele>246.0</ele><time>2026-05-02T09:43:45Z</time></trkpt><trkpt lat="44.29485321240279" lon="9.451774262539088"><ele>246.0</ele><time>2026-05-02T09:43:46Z</time></trkpt><trkpt lat="44.294914943990996" lon="9.451689932778464"><ele>246.0</ele><time>2026-05-02T09:43:47Z</time></trkpt><trkpt lat="44.29496648370247" lon="9.451614621559301"><ele>246.0</ele><time>2026-05-02T09:43:48Z</time></trkpt><trkpt lat="44.29495294597497" lon="9.4514764239577"><ele>246.0</ele><time>2026-05-02T09:43:50Z</time></trkpt><trkpt lat="44.29488696327807" lon="9.45146415606525"><ele>246.0</ele><time>2026-05-02T09:43:51Z</time></trkpt><trkpt lat="44.29481367378584" lon="9.451502865766724"><ele>246.8</ele><time>2026-05-02T09:43:52Z</time></trkpt><trkpt lat="44.29474951031215" lon="9.451571246829587"><ele>247.60000000000002</ele><time>2026-05-02T09:43:53Z</time></trkpt><trkpt lat="44.294669615852825" lon="9.451657438129288"><ele>248.4</ele><time>2026-05-02T09:43:54Z</time></trkpt><trkpt lat="44.29455387361688" lon="9.451705907315755"><ele>249.2</ele><time>2026-05-02T09:43:55Z</time></trkpt><trkpt lat="44.29443239162566" lon="9.451737111653797"><ele>250.0</ele><time>2026-05-02T09:43:56Z</time></trkpt><trkpt lat="44.29431167454682" lon="9.45172533012293"><ele>250.0</ele><time>2026-05-02T09:43:57Z</time></trkpt><trkpt lat="44.294195087500064" lon="9.451717911956738"><ele>250.0</ele><time>2026-05-02T09:43:58Z</time></trkpt><trkpt lat="44.294094471681305" lon="9.451711510002964"><ele>250.0</ele><time>2026-05-02T09:43:59Z</time></trkpt><trkpt lat="44.2940091442231" lon="9.451702003994688"><ele>250.0</ele><time>2026-05-02T09:44:00Z</time></trkpt><trkpt lat="44.29393745097255" lon="9.451681368740756"><ele>250.0</ele><time>2026-05-02T09:44:01Z</time></trkpt><trkpt lat="44.29387059309733" lon="9.451634740521484"><ele>248.4</ele><time>2026-05-02T09:44:02Z</time></trkpt><trkpt lat="44.293824073689585" lon="9.451538326417717"><ele>246.8</ele><time>2026-05-02T09:44:03Z</time></trkpt><trkpt lat="44.29378506242814" lon="9.45140516677456"><ele>245.2</ele><time>2026-05-02T09:44:04Z</time></trkpt><trkpt lat="44.29373070963945" lon="9.451256471386804"><ele>243.6</ele><time>2026-05-02T09:44:05Z</time></trkpt><trkpt lat="44.293688450293295" lon="9.451129498168791"><ele>242.0</ele><time>2026-05-02T09:44:06Z</time></trkpt><trkpt lat="44.29368058056085" lon="9.451014197229123"><ele>242.0</ele><time>2026-05-02T09:44:07Z</time></trkpt><trkpt lat="44.29369922593873" lon="9.450892720406967"><ele>242.0</ele><time>2026-05-02T09:44:08Z</time></trkpt><trkpt lat="44.29368078330222" lon="9.45072526530607"><ele>242.0</ele><time>2026-05-02T09:44:09Z</time></trkpt><trkpt lat="44.29365566025257" lon="9.450554278033618"><ele>242.0</ele><time>2026-05-02T09:44:10Z</time></trkpt><trkpt lat="44.29362198268731" lon="9.450380144116524"><ele>244.6</ele><time>2026-05-02T09:44:11Z</time></trkpt><trkpt lat="44.29354938454668" lon="9.45023600111151"><ele>247.2</ele><time>2026-05-02T09:44:12Z</time></trkpt><trkpt lat="44.29349234236323" lon="9.450106027931316"><ele>249.8</ele><time>2026-05-02T09:44:13Z</time></trkpt><trkpt lat="44.293445002606" lon="9.449993244905274"><ele>252.4</ele><time>2026-05-02T09:44:14Z</time></trkpt><trkpt lat="44.29341842951419" lon="9.449880053382198"><ele>255.0</ele><time>2026-05-02T09:44:15Z</time></trkpt><trkpt lat="44.293443582298934" lon="9.44974375138037"><ele>258.2</ele><time>2026-05-02T09:44:16Z</time></trkpt><trkpt lat="44.29345363956491" lon="9.449601195020481"><ele>261.4</ele><time>2026-05-02T09:44:17Z</time></trkpt><trkpt lat="44.29345744827036" lon="9.449456689584963"><ele>264.6</ele><time>2026-05-02T09:44:18Z</time></trkpt><trkpt lat="44.293430652234804" lon="9.44932679901221"><ele>267.8</ele><time>2026-05-02T09:44:19Z</time></trkpt><trkpt lat="44.29334817295442" lon="9.44922661353862"><ele>271.0</ele><time>2026-05-02T09:44:20Z</time></trkpt><trkpt lat="44.293302991737924" lon="9.449105199811424"><ele>271.0</ele><time>2026-05-02T09:44:21Z</time></trkpt><trkpt lat="44.29327499366969" lon="9.448971016072639"><ele>271.0</ele><time>2026-05-02T09:44:22Z</time></trkpt><trkpt lat="44.293277144896756" lon="9.448813628429324"><ele>271.0</ele><time>2026-05-02T09:44:23Z</time></trkpt><trkpt lat="44.29324797544556" lon="9.448661522311902"><ele>271.0</ele><time>2026-05-02T09:44:24Z</time></trkpt><trkpt lat="44.293221093953356" lon="9.448519792655087"><ele>271.0</ele><time>2026-05-02T09:44:25Z</time></trkpt><trkpt lat="44.29315937956334" lon="9.448393724558274"><ele>272.0</ele><time>2026-05-02T09:44:26Z</time></trkpt><trkpt lat="44.29308052564607" lon="9.448273955916008"><ele>273.0</ele><time>2026-05-02T09:44:27Z</time></trkpt><trkpt lat="44.29301544395385" lon="9.44813630056734"><ele>274.0</ele><time>2026-05-02T09:44:28Z</time></trkpt><trkpt lat="44.29296212919139" lon="9.447986563008236"><ele>275.0</ele><time>2026-05-02T09:44:29Z</time></trkpt><trkpt lat="44.29288938369094" lon="9.44786148614872"><ele>280.2</ele><time>2026-05-02T09:44:30Z</time></trkpt><trkpt lat="44.29283912410664" lon="9.447741160962075"><ele>285.4</ele><time>2026-05-02T09:44:31Z</time></trkpt><trkpt lat="44.29278111124033" lon="9.447652173496586"><ele>290.6</ele><time>2026-05-02T09:44:32Z</time></trkpt><trkpt lat="44.29272472182361" lon="9.44758428905512"><ele>295.8</ele><time>2026-05-02T09:44:33.001Z</time></trkpt><trkpt lat="44.292659469776396" lon="9.44748216410364"><ele>301.0</ele><time>2026-05-02T09:44:35.001Z</time></trkpt><trkpt lat="44.292752990257064" lon="9.447407126196065"><ele>301.0</ele><time>2026-05-02T09:44:37.001Z</time></trkpt><trkpt lat="44.29281507730782" lon="9.447435013689818"><ele>301.0</ele><time>2026-05-02T09:44:38.001Z</time></trkpt><trkpt lat="44.29285957347979" lon="9.447526020424956"><ele>301.0</ele><time>2026-05-02T09:44:39.001Z</time></trkpt><trkpt lat="44.292925223462326" lon="9.447616124573702"><ele>301.0</ele><time>2026-05-02T09:44:40.001Z</time></trkpt><trkpt lat="44.29299588795912" lon="9.447745592093296"><ele>301.0</ele><time>2026-05-02T09:44:41.001Z</time></trkpt><trkpt lat="44.29307987967685" lon="9.447875021082393"><ele>297.25</ele><time>2026-05-02T09:44:42.001Z</time></trkpt><trkpt lat="44.29317365959501" lon="9.447985516133576"><ele>293.5</ele><time>2026-05-02T09:44:43.001Z</time></trkpt><trkpt lat="44.293296534674234" lon="9.448085743380366"><ele>289.75</ele><time>2026-05-02T09:44:44.001Z</time></trkpt><trkpt lat="44.29343684434156" lon="9.448157696121964"><ele>286.0</ele><time>2026-05-02T09:44:45.001Z</time></trkpt><trkpt lat="44.29355996574255" lon="9.44822203421996"><ele>286.0</ele><time>2026-05-02T09:44:46.001Z</time></trkpt><trkpt lat="44.29363097899462" lon="9.448358310586672"><ele>286.0</ele><time>2026-05-02T09:44:47.001Z</time></trkpt><trkpt lat="44.29366428710483" lon="9.448524113919127"><ele>286.0</ele><time>2026-05-02T09:44:48.001Z</time></trkpt><trkpt lat="44.293728045656636" lon="9.448666868653845"><ele>286.0</ele><time>2026-05-02T09:44:49.001Z</time></trkpt><trkpt lat="44.29379188375348" lon="9.448795266179333"><ele>282.25</ele><time>2026-05-02T09:44:50.001Z</time></trkpt><trkpt lat="44.29390226848517" lon="9.44887039017851"><ele>278.5</ele><time>2026-05-02T09:44:51.001Z</time></trkpt><trkpt lat="44.29401181044509" lon="9.44894102812358"><ele>274.75</ele><time>2026-05-02T09:44:52.001Z</time></trkpt><trkpt lat="44.29406706870978" lon="9.449052764967822"><ele>271.0</ele><time>2026-05-02T09:44:53.001Z</time></trkpt><trkpt lat="44.294032313675736" lon="9.449198251927575"><ele>274.8</ele><time>2026-05-02T09:44:54.001Z</time></trkpt><trkpt lat="44.29403387996461" lon="9.449356016928359"><ele>278.6</ele><time>2026-05-02T09:44:55.001Z</time></trkpt><trkpt lat="44.29405659135125" lon="9.449504940905085"><ele>282.4</ele><time>2026-05-02T09:44:56.001Z</time></trkpt><trkpt lat="44.29410017797575" lon="9.44964698694288"><ele>286.2</ele><time>2026-05-02T09:44:57.001Z</time></trkpt><trkpt lat="44.294187187261144" lon="9.449755188280443"><ele>290.0</ele><time>2026-05-02T09:44:58.001Z</time></trkpt><trkpt lat="44.294302214134525" lon="9.449794021319828"><ele>290.0</ele><time>2026-05-02T09:44:59.001Z</time></trkpt><trkpt lat="44.294421050796245" lon="9.449770601305724"><ele>290.0</ele><time>2026-05-02T09:45:00.001Z</time></trkpt><trkpt lat="44.29454509342878" lon="9.44969396705549"><ele>290.0</ele><time>2026-05-02T09:45:01.001Z</time></trkpt><trkpt lat="44.29468140615009" lon="9.449583246770732"><ele>290.0</ele><time>2026-05-02T09:45:02.001Z</time></trkpt><trkpt lat="44.294818855821966" lon="9.449478282089615"><ele>298.0</ele><time>2026-05-02T09:45:03.001Z</time></trkpt><trkpt lat="44.294951451363225" lon="9.449468719628879"><ele>306.0</ele><time>2026-05-02T09:45:04.001Z</time></trkpt><trkpt lat="44.295074269858674" lon="9.449475179050575"><ele>314.0</ele><time>2026-05-02T09:45:05.001Z</time></trkpt><trkpt lat="44.29520099090095" lon="9.449468573063376"><ele>322.0</ele><time>2026-05-02T09:45:06.001Z</time></trkpt><trkpt lat="44.295320005376325" lon="9.449438550704171"><ele>322.0</ele><time>2026-05-02T09:45:07.001Z</time></trkpt><trkpt lat="44.295431219260244" lon="9.449432120532025"><ele>322.0</ele><time>2026-05-02T09:45:08.001Z</time></trkpt><trkpt lat="44.29552182899858" lon="9.44941241211633"><ele>322.0</ele><time>2026-05-02T09:45:09.001Z</time></trkpt><trkpt lat="44.29560262482335" lon="9.44938004825439"><ele>322.0</ele><time>2026-05-02T09:45:10.001Z</time></trkpt><trkpt lat="44.2956798427517" lon="9.449317612699682"><ele>322.0</ele><time>2026-05-02T09:45:11.001Z</time></trkpt><trkpt lat="44.29574885311853" lon="9.449225374845986"><ele>322.3333333333333</ele><time>2026-05-02T09:45:12.001Z</time></trkpt><trkpt lat="44.29580713759726" lon="9.449112882974694"><ele>322.66666666666663</ele><time>2026-05-02T09:45:13.001Z</time></trkpt><trkpt lat="44.29585024505469" lon="9.44900485812184"><ele>323.0</ele><time>2026-05-02T09:45:14.001Z</time></trkpt><trkpt lat="44.29587042489721" lon="9.448899774305929"><ele>323.3333333333333</ele><time>2026-05-02T09:45:15.001Z</time></trkpt><trkpt lat="44.295871302105944" lon="9.448780463626578"><ele>323.6666666666667</ele><time>2026-05-02T09:45:16.001Z</time></trkpt><trkpt lat="44.29586833803599" lon="9.448646321920894"><ele>324.0</ele><time>2026-05-02T09:45:17Z</time></trkpt><trkpt lat="44.29579589399631" lon="9.448529030431835"><ele>324.4</ele><time>2026-05-02T09:45:18Z</time></trkpt><trkpt lat="44.29572396326341" lon="9.448444833629422"><ele>324.79999999999995</ele><time>2026-05-02T09:45:19Z</time></trkpt><trkpt lat="44.29563625374159" lon="9.448399391023797"><ele>325.20000000000005</ele><time>2026-05-02T09:45:20Z</time></trkpt><trkpt lat="44.29553834248644" lon="9.448333626561972"><ele>325.6</ele><time>2026-05-02T09:45:21Z</time></trkpt><trkpt lat="44.29542837439908" lon="9.44827242888705"><ele>326.0</ele><time>2026-05-02T09:45:22Z</time></trkpt><trkpt lat="44.29532078143527" lon="9.448213268844938"><ele>326.0</ele><time>2026-05-02T09:45:23Z</time></trkpt><trkpt lat="44.29522503356881" lon="9.448163440540151"><ele>326.0</ele><time>2026-05-02T09:45:24Z</time></trkpt><trkpt lat="44.295148617672666" lon="9.448109770337258"><ele>326.0</ele><time>2026-05-02T09:45:25Z</time></trkpt><trkpt lat="44.29511926936077" lon="9.447982758066908"><ele>326.0</ele><time>2026-05-02T09:45:27Z</time></trkpt><trkpt lat="44.29517834651808" lon="9.447929846479798"><ele>326.0</ele><time>2026-05-02T09:45:28Z</time></trkpt><trkpt lat="44.29525861056552" lon="9.447921509069094"><ele>326.0</ele><time>2026-05-02T09:45:29Z</time></trkpt><trkpt lat="44.29535265995963" lon="9.447958950085086"><ele>326.0</ele><time>2026-05-02T09:45:30Z</time></trkpt><trkpt lat="44.29545576610488" lon="9.448041716548456"><ele>326.0</ele><time>2026-05-02T09:45:31Z</time></trkpt><trkpt lat="44.29556685113457" lon="9.44805413393548"><ele>326.0</ele><time>2026-05-02T09:45:32Z</time></trkpt><trkpt lat="44.29567299292052" lon="9.448060943967144"><ele>326.0</ele><time>2026-05-02T09:45:33Z</time></trkpt><trkpt lat="44.29577487678578" lon="9.448074013176344"><ele>326.0</ele><time>2026-05-02T09:45:34Z</time></trkpt><trkpt lat="44.29586989038606" lon="9.448141599376788"><ele>323.75</ele><time>2026-05-02T09:45:35Z</time></trkpt><trkpt lat="44.29596304124402" lon="9.448267240042684"><ele>321.5</ele><time>2026-05-02T09:45:36Z</time></trkpt><trkpt lat="44.29605306816195" lon="9.448400109177499"><ele>319.25</ele><time>2026-05-02T09:45:37Z</time></trkpt><trkpt lat="44.29615125147658" lon="9.448532926537933"><ele>317.0</ele><time>2026-05-02T09:45:38Z</time></trkpt><trkpt lat="44.2962472800301" lon="9.448646788649627"><ele>317.0</ele><time>2026-05-02T09:45:39Z</time></trkpt><trkpt lat="44.29634946519919" lon="9.448743481123632"><ele>317.0</ele><time>2026-05-02T09:45:40Z</time></trkpt><trkpt lat="44.29645942877857" lon="9.44882410201811"><ele>317.0</ele><time>2026-05-02T09:45:41Z</time></trkpt><trkpt lat="44.29658074145124" lon="9.44889661626685"><ele>317.0</ele><time>2026-05-02T09:45:42Z</time></trkpt><trkpt lat="44.29670826530471" lon="9.448975164333444"><ele>315.0</ele><time>2026-05-02T09:45:43Z</time></trkpt><trkpt lat="44.296842104675335" lon="9.449063786971008"><ele>313.0</ele><time>2026-05-02T09:45:44Z</time></trkpt><trkpt lat="44.29695810224176" lon="9.449185772576428"><ele>311.0</ele><time>2026-05-02T09:45:45Z</time></trkpt><trkpt lat="44.29707028195776" lon="9.449315849204764"><ele>309.0</ele><time>2026-05-02T09:45:46Z</time></trkpt><trkpt lat="44.29718725414322" lon="9.449412448876533"><ele>304.5</ele><time>2026-05-02T09:45:47Z</time></trkpt><trkpt lat="44.29729400698866" lon="9.449510912841056"><ele>300.0</ele><time>2026-05-02T09:45:48Z</time></trkpt><trkpt lat="44.29741323965443" lon="9.449556791095638"><ele>295.5</ele><time>2026-05-02T09:45:49Z</time></trkpt><trkpt lat="44.29752078031754" lon="9.449559132799616"><ele>291.0</ele><time>2026-05-02T09:45:50Z</time></trkpt><trkpt lat="44.29761866097974" lon="9.449561212417512"><ele>291.0</ele><time>2026-05-02T09:45:51Z</time></trkpt><trkpt lat="44.29769749821061" lon="9.449602509683748"><ele>291.0</ele><time>2026-05-02T09:45:52Z</time></trkpt><trkpt lat="44.29773425321012" lon="9.449734700946502"><ele>291.0</ele><time>2026-05-02T09:45:53Z</time></trkpt><trkpt lat="44.297808723004565" lon="9.449863698874694"><ele>291.0</ele><time>2026-05-02T09:45:54Z</time></trkpt><trkpt lat="44.29789424110243" lon="9.44996809733919"><ele>291.0</ele><time>2026-05-02T09:45:55Z</time></trkpt><trkpt lat="44.297971413004845" lon="9.450069369762234"><ele>290.0</ele><time>2026-05-02T09:45:56Z</time></trkpt><trkpt lat="44.298068507181725" lon="9.4501275160795"><ele>289.0</ele><time>2026-05-02T09:45:57Z</time></trkpt><trkpt lat="44.298198680062605" lon="9.450137446723224"><ele>288.0</ele><time>2026-05-02T09:45:58Z</time></trkpt><trkpt lat="44.29834446894523" lon="9.450140837914988"><ele>287.0</ele><time>2026-05-02T09:45:59Z</time></trkpt><trkpt lat="44.29848184121982" lon="9.450157251749097"><ele>287.0</ele><time>2026-05-02T09:46:00Z</time></trkpt><trkpt lat="44.29860699325985" lon="9.450185783852024"><ele>287.0</ele><time>2026-05-02T09:46:01Z</time></trkpt><trkpt lat="44.298727452636946" lon="9.450217096089741"><ele>287.0</ele><time>2026-05-02T09:46:02Z</time></trkpt><trkpt lat="44.29884668770696" lon="9.450237700383738"><ele>287.0</ele><time>2026-05-02T09:46:03Z</time></trkpt><trkpt lat="44.29895702826043" lon="9.450257431532746"><ele>286.6</ele><time>2026-05-02T09:46:04Z</time></trkpt><trkpt lat="44.29906590991081" lon="9.450281077563073"><ele>286.2</ele><time>2026-05-02T09:46:05Z</time></trkpt><trkpt lat="44.29917308010403" lon="9.450283820010153"><ele>285.8</ele><time>2026-05-02T09:46:06Z</time></trkpt><trkpt lat="44.29926819409559" lon="9.45024071692456"><ele>285.4</ele><time>2026-05-02T09:46:07Z</time></trkpt><trkpt lat="44.299348367834554" lon="9.45015137958686"><ele>285.0</ele><time>2026-05-02T09:46:08Z</time></trkpt><trkpt lat="44.299422598433914" lon="9.450017150292393"><ele>285.0</ele><time>2026-05-02T09:46:09Z</time></trkpt><trkpt lat="44.299498971991156" lon="9.449837500564987"><ele>285.0</ele><time>2026-05-02T09:46:10Z</time></trkpt><trkpt lat="44.299592101807306" lon="9.449682066609034"><ele>285.0</ele><time>2026-05-02T09:46:11Z</time></trkpt><trkpt lat="44.29968840925778" lon="9.449566553684164"><ele>285.0</ele><time>2026-05-02T09:46:12Z</time></trkpt><trkpt lat="44.29978635546867" lon="9.449467664875048"><ele>284.2</ele><time>2026-05-02T09:46:13Z</time></trkpt><trkpt lat="44.29987477898786" lon="9.449364182966374"><ele>283.4</ele><time>2026-05-02T09:46:14Z</time></trkpt><trkpt lat="44.29993883280137" lon="9.449244429327297"><ele>282.6</ele><time>2026-05-02T09:46:15Z</time></trkpt><trkpt lat="44.29997459484383" lon="9.449098926926329"><ele>281.8</ele><time>2026-05-02T09:46:16Z</time></trkpt><trkpt lat="44.299986436389666" lon="9.4489492502113"><ele>281.0</ele><time>2026-05-02T09:46:17Z</time></trkpt><trkpt lat="44.30003867986173" lon="9.448830690589771"><ele>277.6</ele><time>2026-05-02T09:46:18Z</time></trkpt><trkpt lat="44.30012113125074" lon="9.448748282418588"><ele>274.20000000000005</ele><time>2026-05-02T09:46:19Z</time></trkpt><trkpt lat="44.300211029594514" lon="9.448693854834325"><ele>270.79999999999995</ele><time>2026-05-02T09:46:20Z</time></trkpt><trkpt lat="44.30030543235574" lon="9.448678624736953"><ele>267.4</ele><time>2026-05-02T09:46:21Z</time></trkpt><trkpt lat="44.300391409230556" lon="9.448655187299051"><ele>264.0</ele><time>2026-05-02T09:46:22Z</time></trkpt><trkpt lat="44.300462100591545" lon="9.448760227221642"><ele>264.0</ele><time>2026-05-02T09:46:23Z</time></trkpt><trkpt lat="44.300571050426974" lon="9.448761717100208"><ele>264.0</ele><time>2026-05-02T09:46:25.001Z</time></trkpt><trkpt lat="44.300588212178056" lon="9.448627126902045"><ele>264.0</ele><time>2026-05-02T09:46:27.001Z</time></trkpt><trkpt lat="44.30057609584519" lon="9.448514542645926"><ele>264.0</ele><time>2026-05-02T09:46:34.001Z</time></trkpt><trkpt lat="44.30067459534262" lon="9.448454152036247"><ele>264.0</ele><time>2026-05-02T09:46:39.001Z</time></trkpt><trkpt lat="44.30070574301244" lon="9.448374976927369"><ele>265.1428571428571</ele><time>2026-05-02T09:46:40.001Z</time></trkpt><trkpt lat="44.300738902819546" lon="9.448282934556095"><ele>266.2857142857143</ele><time>2026-05-02T09:46:41.001Z</time></trkpt><trkpt lat="44.3007525173885" lon="9.448178689242036"><ele>267.42857142857144</ele><time>2026-05-02T09:46:42.001Z</time></trkpt><trkpt lat="44.300789537172186" lon="9.44809716154214"><ele>268.57142857142856</ele><time>2026-05-02T09:46:43.001Z</time></trkpt><trkpt lat="44.30086076787201" lon="9.448058489287991"><ele>269.7142857142857</ele><time>2026-05-02T09:46:44.001Z</time></trkpt><trkpt lat="44.300905476162924" lon="9.447985684264397"><ele>270.85714285714283</ele><time>2026-05-02T09:46:45.001Z</time></trkpt><trkpt lat="44.30095399881396" lon="9.447926314639366"><ele>272.0</ele><time>2026-05-02T09:46:46.001Z</time></trkpt><trkpt lat="44.30097178640288" lon="9.44783886079886"><ele>272.0</ele><time>2026-05-02T09:46:47.001Z</time></trkpt><trkpt lat="44.300969686158275" lon="9.447730680347973"><ele>272.0</ele><time>2026-05-02T09:46:48.001Z</time></trkpt><trkpt lat="44.30095575155925" lon="9.447620351612077"><ele>272.0</ele><time>2026-05-02T09:46:49.001Z</time></trkpt><trkpt lat="44.30093602203665" lon="9.447516810745737"><ele>272.0</ele><time>2026-05-02T09:46:50.001Z</time></trkpt><trkpt lat="44.300939499204766" lon="9.447393765445087"><ele>272.0</ele><time>2026-05-02T09:46:51.001Z</time></trkpt><trkpt lat="44.30093864822852" lon="9.447282184902111"><ele>272.0</ele><time>2026-05-02T09:46:52.001Z</time></trkpt><trkpt lat="44.30095420199591" lon="9.447196769951313"><ele>270.6666666666667</ele><time>2026-05-02T09:46:53.001Z</time></trkpt><trkpt lat="44.30100185305317" lon="9.447030397959796"><ele>269.33333333333337</ele><time>2026-05-02T09:46:55.001Z</time></trkpt><trkpt lat="44.30104082258444" lon="9.446925322292179"><ele>268.0</ele><time>2026-05-02T09:46:56.001Z</time></trkpt><trkpt lat="44.30107303765503" lon="9.446835199772611"><ele>266.6666666666667</ele><time>2026-05-02T09:46:57.001Z</time></trkpt><trkpt lat="44.30109236859631" lon="9.446730670009044"><ele>265.3333333333333</ele><time>2026-05-02T09:46:58.001Z</time></trkpt><trkpt lat="44.30112155093995" lon="9.446641576360616"><ele>264.0</ele><time>2026-05-02T09:46:59.001Z</time></trkpt><trkpt lat="44.30114457541545" lon="9.446540831155815"><ele>264.0</ele><time>2026-05-02T09:47:00.001Z</time></trkpt><trkpt lat="44.3011723892779" lon="9.446441235100941"><ele>264.0</ele><time>2026-05-02T09:47:01.001Z</time></trkpt><trkpt lat="44.30120767211811" lon="9.446354811578528"><ele>264.0</ele><time>2026-05-02T09:47:02.001Z</time></trkpt><trkpt lat="44.30123239526224" lon="9.446244787948642"><ele>264.0</ele><time>2026-05-02T09:47:03.001Z</time></trkpt><trkpt lat="44.30125858204281" lon="9.446128251715942"><ele>264.0</ele><time>2026-05-02T09:47:04.001Z</time></trkpt><trkpt lat="44.30126244305914" lon="9.445994728324678"><ele>264.0</ele><time>2026-05-02T09:47:05.001Z</time></trkpt><trkpt lat="44.30127353578138" lon="9.44587640595678"><ele>263.0</ele><time>2026-05-02T09:47:06.001Z</time></trkpt><trkpt lat="44.30128653488777" lon="9.445751109999367"><ele>262.0</ele><time>2026-05-02T09:47:07.001Z</time></trkpt><trkpt lat="44.30129782661628" lon="9.445643089809082"><ele>261.0</ele><time>2026-05-02T09:47:08.001Z</time></trkpt><trkpt lat="44.301312829519205" lon="9.44553745411409"><ele>260.0</ele><time>2026-05-02T09:47:09.001Z</time></trkpt><trkpt lat="44.30136066996494" lon="9.44538490392597"><ele>259.0</ele><time>2026-05-02T09:47:11.001Z</time></trkpt><trkpt lat="44.30141575637413" lon="9.445308238880257"><ele>258.0</ele><time>2026-05-02T09:47:12.001Z</time></trkpt><trkpt lat="44.301470365600366" lon="9.445248195310786"><ele>262.5</ele><time>2026-05-02T09:47:13.001Z</time></trkpt><trkpt lat="44.3015404329513" lon="9.445193337981532"><ele>267.0</ele><time>2026-05-02T09:47:14.001Z</time></trkpt><trkpt lat="44.30160548447762" lon="9.445130461223812"><ele>271.5</ele><time>2026-05-02T09:47:15.001Z</time></trkpt><trkpt lat="44.30164977661424" lon="9.44503134509228"><ele>276.0</ele><time>2026-05-02T09:47:16.001Z</time></trkpt><trkpt lat="44.30170480926005" lon="9.444954309713536"><ele>280.5</ele><time>2026-05-02T09:47:17.001Z</time></trkpt><trkpt lat="44.3017573607817" lon="9.444868282025308"><ele>285.0</ele><time>2026-05-02T09:47:18.001Z</time></trkpt><trkpt lat="44.30181395147333" lon="9.444802727204785"><ele>285.0</ele><time>2026-05-02T09:47:19.001Z</time></trkpt><trkpt lat="44.30186318424318" lon="9.44474362236397"><ele>285.0</ele><time>2026-05-02T09:47:20.001Z</time></trkpt><trkpt lat="44.30196022236341" lon="9.444819709313665"><ele>285.0</ele><time>2026-05-02T09:47:22.001Z</time></trkpt><trkpt lat="44.30197703564587" lon="9.44492501721862"><ele>285.0</ele><time>2026-05-02T09:47:23Z</time></trkpt><trkpt lat="44.301969650495" lon="9.445045593479103"><ele>285.0</ele><time>2026-05-02T09:47:24Z</time></trkpt><trkpt lat="44.30198205341849" lon="9.44515477111766"><ele>285.0</ele><time>2026-05-02T09:47:25Z</time></trkpt><trkpt lat="44.30207390463167" lon="9.445237969024504"><ele>285.0</ele><time>2026-05-02T09:47:27Z</time></trkpt><trkpt lat="44.302145116274474" lon="9.445211147543715"><ele>285.0</ele><time>2026-05-02T09:47:29Z</time></trkpt><trkpt lat="44.30216020728202" lon="9.445095622717531"><ele>285.0</ele><time>2026-05-02T09:47:31Z</time></trkpt><trkpt lat="44.30215430337687" lon="9.444933401994945"><ele>285.0</ele><time>2026-05-02T09:47:33Z</time></trkpt><trkpt lat="44.30215922363584" lon="9.444842928591322"><ele>285.0</ele><time>2026-05-02T09:47:34Z</time></trkpt><trkpt lat="44.30220020689509" lon="9.444724614459508"><ele>285.0</ele><time>2026-05-02T09:47:36Z</time></trkpt><trkpt lat="44.30226942976342" lon="9.444697879027723"><ele>291.0</ele><time>2026-05-02T09:47:38Z</time></trkpt><trkpt lat="44.302374704701556" lon="9.444717546895713"><ele>297.0</ele><time>2026-05-02T09:47:40Z</time></trkpt><trkpt lat="44.30242762400219" lon="9.444837549928753"><ele>303.0</ele><time>2026-05-02T09:47:42Z</time></trkpt><trkpt lat="44.30240898234105" lon="9.445024460189002"><ele>309.0</ele><time>2026-05-02T09:47:44Z</time></trkpt><trkpt lat="44.30238595825446" lon="9.445138404118767"><ele>315.0</ele><time>2026-05-02T09:47:45Z</time></trkpt><trkpt lat="44.302377139856155" lon="9.445239726126967"><ele>315.0</ele><time>2026-05-02T09:47:46Z</time></trkpt><trkpt lat="44.30238571721373" lon="9.445349662947306"><ele>315.0</ele><time>2026-05-02T09:47:47Z</time></trkpt><trkpt lat="44.30239683051802" lon="9.44543640402767"><ele>315.0</ele><time>2026-05-02T09:47:48Z</time></trkpt><trkpt lat="44.30242186738391" lon="9.445534510460108"><ele>315.0</ele><time>2026-05-02T09:47:49Z</time></trkpt><trkpt lat="44.30243121692732" lon="9.44562624850597"><ele>315.0</ele><time>2026-05-02T09:47:50Z</time></trkpt><trkpt lat="44.30243942280818" lon="9.445720279648338"><ele>315.0</ele><time>2026-05-02T09:47:51Z</time></trkpt><trkpt lat="44.30244798544448" lon="9.445846041443955"><ele>315.0</ele><time>2026-05-02T09:47:52Z</time></trkpt><trkpt lat="44.30245027135483" lon="9.445975196976086"><ele>315.6666666666667</ele><time>2026-05-02T09:47:53Z</time></trkpt><trkpt lat="44.30245190474779" lon="9.44610252732293"><ele>316.3333333333333</ele><time>2026-05-02T09:47:54Z</time></trkpt><trkpt lat="44.30246322866535" lon="9.446218692233188"><ele>317.0</ele><time>2026-05-02T09:47:55Z</time></trkpt><trkpt lat="44.30249677587334" lon="9.446329190600666"><ele>317.66666666666663</ele><time>2026-05-02T09:47:56Z</time></trkpt><trkpt lat="44.30251233327805" lon="9.446427359999353"><ele>318.3333333333333</ele><time>2026-05-02T09:47:57Z</time></trkpt><trkpt lat="44.30250921761649" lon="9.446524763639482"><ele>319.0</ele><time>2026-05-02T09:47:58Z</time></trkpt><trkpt lat="44.302518969067776" lon="9.446620488944541"><ele>320.5</ele><time>2026-05-02T09:47:59Z</time></trkpt><trkpt lat="44.30252701359791" lon="9.446722093162265"><ele>322.0</ele><time>2026-05-02T09:48:00Z</time></trkpt><trkpt lat="44.30252210469924" lon="9.446826629190635"><ele>323.5</ele><time>2026-05-02T09:48:01Z</time></trkpt><trkpt lat="44.30250005479587" lon="9.446995760245871"><ele>325.0</ele><time>2026-05-02T09:48:03Z</time></trkpt><trkpt lat="44.302486678365675" lon="9.447134842958027"><ele>326.5</ele><time>2026-05-02T09:48:05Z</time></trkpt><trkpt lat="44.302486540874035" lon="9.447231361570426"><ele>328.0</ele><time>2026-05-02T09:48:07Z</time></trkpt><trkpt lat="44.30247577099446" lon="9.447337014571119"><ele>330.66666666666663</ele><time>2026-05-02T09:48:13Z</time></trkpt><trkpt lat="44.30247582719497" lon="9.447434919734263"><ele>333.3333333333333</ele><time>2026-05-02T09:48:15Z</time></trkpt><trkpt lat="44.302449989793956" lon="9.447533257518863"><ele>336.0</ele><time>2026-05-02T09:48:17Z</time></trkpt><trkpt lat="44.302271235736775" lon="9.447972458020075"><ele>338.0</ele><time>2026-05-02T09:48:19.001Z</time></trkpt><trkpt lat="44.302299211936436" lon="9.448079800704425"><ele>340.0</ele><time>2026-05-02T09:48:21.001Z</time></trkpt><trkpt lat="44.30234314454077" lon="9.448195050679681"><ele>342.0</ele><time>2026-05-02T09:48:23.001Z</time></trkpt><trkpt lat="44.30240866970395" lon="9.448316424319751"><ele>344.0</ele><time>2026-05-02T09:48:25.001Z</time></trkpt><trkpt lat="44.30298713679751" lon="9.448092447777219"><ele>341.4</ele><time>2026-05-02T09:48:26.001Z</time></trkpt><trkpt lat="44.30308718463258" lon="9.448115318812057"><ele>338.79999999999995</ele><time>2026-05-02T09:48:28.001Z</time></trkpt><trkpt lat="44.303181411539406" lon="9.448082147229714"><ele>336.20000000000005</ele><time>2026-05-02T09:48:30.001Z</time></trkpt><trkpt lat="44.30327282775984" lon="9.44806730912591"><ele>333.6</ele><time>2026-05-02T09:48:32.001Z</time></trkpt><trkpt lat="44.303356259770275" lon="9.448068632397318"><ele>331.0</ele><time>2026-05-02T09:48:34.001Z</time></trkpt><trkpt lat="44.30344068547065" lon="9.448090684419014"><ele>331.0</ele><time>2026-05-02T09:48:36.001Z</time></trkpt><trkpt lat="44.30352326227068" lon="9.448099276053478"><ele>331.0</ele><time>2026-05-02T09:48:38.001Z</time></trkpt><trkpt lat="44.30360386915387" lon="9.448116780850333"><ele>331.0</ele><time>2026-05-02T09:48:41.001Z</time></trkpt><trkpt lat="44.30366741302447" lon="9.448093617406494"><ele>331.0</ele><time>2026-05-02T09:48:44.001Z</time></trkpt><trkpt lat="44.303751658995004" lon="9.44801738519669"><ele>331.0</ele><time>2026-05-02T09:48:47.001Z</time></trkpt><trkpt lat="44.30382298549275" lon="9.447960120110963"><ele>331.0</ele><time>2026-05-02T09:48:49.001Z</time></trkpt><trkpt lat="44.303871539333784" lon="9.447858260759531"><ele>332.0</ele><time>2026-05-02T09:48:52.001Z</time></trkpt><trkpt lat="44.303874734261115" lon="9.447756785361197"><ele>333.0</ele><time>2026-05-02T09:48:54.001Z</time></trkpt><trkpt lat="44.303901160505404" lon="9.447639465268729"><ele>334.0</ele><time>2026-05-02T09:48:57.001Z</time></trkpt><trkpt lat="44.303921600750506" lon="9.447531543682924"><ele>335.0</ele><time>2026-05-02T09:49:00.001Z</time></trkpt><trkpt lat="44.30390895896861" lon="9.447418880236361"><ele>336.0</ele><time>2026-05-02T09:49:03.001Z</time></trkpt><trkpt lat="44.30391342755944" lon="9.447319513041933"><ele>337.0</ele><time>2026-05-02T09:49:06.001Z</time></trkpt><trkpt lat="44.30393036197409" lon="9.4472261685036"><ele>337.40000000000003</ele><time>2026-05-02T09:49:23.001Z</time></trkpt><trkpt lat="44.30397677394013" lon="9.447138675894221"><ele>337.8</ele><time>2026-05-02T09:49:27.001Z</time></trkpt><trkpt lat="44.30401406764463" lon="9.447003570114493"><ele>338.2</ele><time>2026-05-02T09:49:29Z</time></trkpt><trkpt lat="44.304015587527296" lon="9.446839888952049"><ele>338.6</ele><time>2026-05-02T09:49:31Z</time></trkpt><trkpt lat="44.30396807990871" lon="9.446696792580676"><ele>339.0</ele><time>2026-05-02T09:49:33Z</time></trkpt><trkpt lat="44.30389036383655" lon="9.446637279616631"><ele>339.0</ele><time>2026-05-02T09:49:35Z</time></trkpt><trkpt lat="44.30381944241791" lon="9.446626500695595"><ele>339.0</ele><time>2026-05-02T09:49:37Z</time></trkpt><trkpt lat="44.30388689080475" lon="9.446666924870026"><ele>339.0</ele><time>2026-05-02T09:49:51Z</time></trkpt><trkpt lat="44.30396305987033" lon="9.446759705232177"><ele>339.0</ele><time>2026-05-02T09:49:54Z</time></trkpt><trkpt lat="44.30400789077214" lon="9.446886862903543"><ele>339.0</ele><time>2026-05-02T09:49:56Z</time></trkpt><trkpt lat="44.304023338528154" lon="9.446985467319962"><ele>339.0</ele><time>2026-05-02T09:49:58Z</time></trkpt><trkpt lat="44.3039792817057" lon="9.447110594359883"><ele>338.6666666666667</ele><time>2026-05-02T09:50:00Z</time></trkpt><trkpt lat="44.303954973258215" lon="9.447200897721297"><ele>338.3333333333333</ele><time>2026-05-02T09:50:02Z</time></trkpt><trkpt lat="44.30392102857419" lon="9.447295081830909"><ele>338.0</ele><time>2026-05-02T09:50:05Z</time></trkpt><trkpt lat="44.303944772062415" lon="9.447396915924424"><ele>337.66666666666663</ele><time>2026-05-02T09:50:34.001Z</time></trkpt><trkpt lat="44.30392800918769" lon="9.447543822462519"><ele>337.3333333333333</ele><time>2026-05-02T09:50:36.001Z</time></trkpt><trkpt lat="44.30392301874084" lon="9.447691131767751"><ele>337.0</ele><time>2026-05-02T09:50:38.001Z</time></trkpt><trkpt lat="44.303879656723566" lon="9.447773300755566"><ele>337.0</ele><time>2026-05-02T09:50:40.001Z</time></trkpt><trkpt lat="44.30380567820911" lon="9.447794742142769"><ele>337.0</ele><time>2026-05-02T09:50:42.001Z</time></trkpt><trkpt lat="44.30369396447047" lon="9.447808115181514"><ele>337.0</ele><time>2026-05-02T09:50:44.001Z</time></trkpt><trkpt lat="44.30358976193065" lon="9.447825840028402"><ele>337.0</ele><time>2026-05-02T09:50:46.001Z</time></trkpt><trkpt lat="44.30351906412768" lon="9.447838210249765"><ele>337.0</ele><time>2026-05-02T09:50:49.001Z</time></trkpt><trkpt lat="44.303462105593425" lon="9.44788366294071"><ele>337.0</ele><time>2026-05-02T09:50:58.001Z</time></trkpt><trkpt lat="44.30347094981857" lon="9.447976559483493"><ele>336.0</ele><time>2026-05-02T09:51:06.001Z</time></trkpt><trkpt lat="44.30342282842971" lon="9.448036276727652"><ele>335.0</ele><time>2026-05-02T09:51:09.001Z</time></trkpt><trkpt lat="44.30332672989043" lon="9.448104200242108"><ele>334.0</ele><time>2026-05-02T09:51:12.001Z</time></trkpt><trkpt lat="44.30326171391651" lon="9.44807191057387"><ele>333.0</ele><time>2026-05-02T09:51:14.001Z</time></trkpt><trkpt lat="44.30317376401373" lon="9.448084279738637"><ele>332.0</ele><time>2026-05-02T09:51:17.001Z</time></trkpt><trkpt lat="44.30311058462592" lon="9.448122094371213"><ele>331.0</ele><time>2026-05-02T09:51:19.001Z</time></trkpt><trkpt lat="44.3030309959122" lon="9.448107387506504"><ele>331.8333333333333</ele><time>2026-05-02T09:51:21.001Z</time></trkpt><trkpt lat="44.30295979802305" lon="9.448078292924771"><ele>332.66666666666663</ele><time>2026-05-02T09:51:23.001Z</time></trkpt><trkpt lat="44.30289493189117" lon="9.448031157420273"><ele>333.5</ele><time>2026-05-02T09:51:25.001Z</time></trkpt><trkpt lat="44.30281986910893" lon="9.447953497874291"><ele>334.3333333333333</ele><time>2026-05-02T09:51:27.001Z</time></trkpt><trkpt lat="44.30275322809763" lon="9.44785581035974"><ele>335.1666666666667</ele><time>2026-05-02T09:51:29.001Z</time></trkpt><trkpt lat="44.302689352720705" lon="9.447792078558804"><ele>336.0</ele><time>2026-05-02T09:51:32.001Z</time></trkpt><trkpt lat="44.30265166393861" lon="9.447685254642911"><ele>336.0</ele><time>2026-05-02T09:52:21Z</time></trkpt><trkpt lat="44.30256794186741" lon="9.447504835852778"><ele>336.0</ele><time>2026-05-02T09:52:24Z</time></trkpt><trkpt lat="44.30253884930039" lon="9.447401775155367"><ele>336.0</ele><time>2026-05-02T09:52:26Z</time></trkpt><trkpt lat="44.302474580817794" lon="9.447370389870768"><ele>336.0</ele><time>2026-05-02T09:52:31Z</time></trkpt><trkpt lat="44.3024273025912" lon="9.447474160906705"><ele>336.0</ele><time>2026-05-02T09:52:33Z</time></trkpt><trkpt lat="44.30234766586283" lon="9.447608753731409"><ele>336.0</ele><time>2026-05-02T09:52:35.001Z</time></trkpt><trkpt lat="44.302281126956146" lon="9.447652522226543"><ele>336.0</ele><time>2026-05-02T09:52:36.001Z</time></trkpt><trkpt lat="44.30223675647683" lon="9.44771802060423"><ele>336.0</ele><time>2026-05-02T09:52:37.001Z</time></trkpt><trkpt lat="44.302241921517265" lon="9.447880471576653"><ele>336.0</ele><time>2026-05-02T09:52:39.001Z</time></trkpt><trkpt lat="44.30226982138488" lon="9.447961929029544"><ele>336.0</ele><time>2026-05-02T09:52:40.001Z</time></trkpt><trkpt lat="44.302300546830914" lon="9.448044349888018"><ele>336.0</ele><time>2026-05-02T09:52:41.001Z</time></trkpt><trkpt lat="44.30232581134485" lon="9.448160343074061"><ele>337.3333333333333</ele><time>2026-05-02T09:52:42.001Z</time></trkpt><trkpt lat="44.3023380203456" lon="9.448265556080566"><ele>338.6666666666667</ele><time>2026-05-02T09:52:43.001Z</time></trkpt><trkpt lat="44.30234399598192" lon="9.448378084150443"><ele>340.0</ele><time>2026-05-02T09:52:44.001Z</time></trkpt><trkpt lat="44.30231320987172" lon="9.448484124344253"><ele>341.33333333333337</ele><time>2026-05-02T09:52:45.001Z</time></trkpt><trkpt lat="44.30229407222109" lon="9.448571837278363"><ele>342.6666666666667</ele><time>2026-05-02T09:52:46.001Z</time></trkpt><trkpt lat="44.30230573642698" lon="9.448725230330709"><ele>344.0</ele><time>2026-05-02T09:52:48.001Z</time></trkpt><trkpt lat="44.302338193932634" lon="9.448861244764302"><ele>345.79999999999995</ele><time>2026-05-02T09:52:50.001Z</time></trkpt><trkpt lat="44.302337282609024" lon="9.449017481804947"><ele>347.59999999999997</ele><time>2026-05-02T09:52:52.001Z</time></trkpt><trkpt lat="44.30234465386895" lon="9.449172805033504"><ele>349.4</ele><time>2026-05-02T09:52:54.001Z</time></trkpt><trkpt lat="44.302373480833936" lon="9.449308913817067"><ele>351.2</ele><time>2026-05-02T09:52:56.001Z</time></trkpt><trkpt lat="44.30243570210649" lon="9.449449259654392"><ele>353.0</ele><time>2026-05-02T09:52:58.001Z</time></trkpt><trkpt lat="44.30246928089364" lon="9.449524509651766"><ele>354.79999999999995</ele><time>2026-05-02T09:52:59.001Z</time></trkpt><trkpt lat="44.30253191765602" lon="9.44968801175274"><ele>356.6</ele><time>2026-05-02T09:53:01.001Z</time></trkpt><trkpt lat="44.30254199887317" lon="9.44978458116167"><ele>358.4</ele><time>2026-05-02T09:53:02.001Z</time></trkpt><trkpt lat="44.30259090083573" lon="9.44994204455345"><ele>360.20000000000005</ele><time>2026-05-02T09:53:04.001Z</time></trkpt><trkpt lat="44.302606040417224" lon="9.450032622700954"><ele>362.0</ele><time>2026-05-02T09:53:05.001Z</time></trkpt><trkpt lat="44.30262730957786" lon="9.450123859614925"><ele>362.0</ele><time>2026-05-02T09:53:06.001Z</time></trkpt><trkpt lat="44.30268369531646" lon="9.450275170151315"><ele>362.0</ele><time>2026-05-02T09:53:08.001Z</time></trkpt><trkpt lat="44.30272362067747" lon="9.45034354385034"><ele>362.0</ele><time>2026-05-02T09:53:09.001Z</time></trkpt><trkpt lat="44.30281479083333" lon="9.45045698013401"><ele>362.0</ele><time>2026-05-02T09:53:11.001Z</time></trkpt><trkpt lat="44.30288496046984" lon="9.450566168821231"><ele>362.0</ele><time>2026-05-02T09:53:13.001Z</time></trkpt><trkpt lat="44.302937458408785" lon="9.450641307084934"><ele>364.83333333333337</ele><time>2026-05-02T09:53:27.001Z</time></trkpt><trkpt lat="44.302991593305926" lon="9.450745513405524"><ele>367.6666666666667</ele><time>2026-05-02T09:53:43Z</time></trkpt><trkpt lat="44.3030339766362" lon="9.450833138473218"><ele>370.5</ele><time>2026-05-02T09:53:45Z</time></trkpt><trkpt lat="44.30303809486624" lon="9.45096383193543"><ele>373.3333333333333</ele><time>2026-05-02T09:53:47Z</time></trkpt><trkpt lat="44.303054201594136" lon="9.45111567720347"><ele>376.16666666666663</ele><time>2026-05-02T09:53:49Z</time></trkpt><trkpt lat="44.30305323632344" lon="9.451205308808374"><ele>379.0</ele><time>2026-05-02T09:53:50Z</time></trkpt><trkpt lat="44.3030612201597" lon="9.451301468143841"><ele>380.3333333333333</ele><time>2026-05-02T09:53:51Z</time></trkpt><trkpt lat="44.30302470032528" lon="9.451378603431397"><ele>381.66666666666663</ele><time>2026-05-02T09:53:52Z</time></trkpt><trkpt lat="44.30298972306409" lon="9.45145912157819"><ele>383.0</ele><time>2026-05-02T09:53:53Z</time></trkpt><trkpt lat="44.302954511339685" lon="9.451550576886556"><ele>384.3333333333333</ele><time>2026-05-02T09:53:54Z</time></trkpt><trkpt lat="44.30293008650761" lon="9.451637077173165"><ele>385.6666666666667</ele><time>2026-05-02T09:53:55Z</time></trkpt><trkpt lat="44.30289495315072" lon="9.451796134634918"><ele>387.0</ele><time>2026-05-02T09:53:57Z</time></trkpt><trkpt lat="44.302911518521306" lon="9.451942024373375"><ele>387.0</ele><time>2026-05-02T09:53:59Z</time></trkpt><trkpt lat="44.30295030302385" lon="9.452058804754708"><ele>387.0</ele><time>2026-05-02T09:54:01Z</time></trkpt><trkpt lat="44.302983730529945" lon="9.452199961991703"><ele>387.0</ele><time>2026-05-02T09:54:03Z</time></trkpt><trkpt lat="44.30303054090606" lon="9.452260598363708"><ele>387.0</ele><time>2026-05-02T09:54:04Z</time></trkpt><trkpt lat="44.30308197394122" lon="9.452416874831478"><ele>387.0</ele><time>2026-05-02T09:54:06Z</time></trkpt><trkpt lat="44.30309623430498" lon="9.452517960257703"><ele>381.8333333333333</ele><time>2026-05-02T09:54:07Z</time></trkpt><trkpt lat="44.30310366806482" lon="9.45262754318149"><ele>376.6666666666667</ele><time>2026-05-02T09:54:08Z</time></trkpt><trkpt lat="44.30310527354479" lon="9.452750992221961"><ele>371.5</ele><time>2026-05-02T09:54:09Z</time></trkpt><trkpt lat="44.303113126607144" lon="9.45286745771504"><ele>366.33333333333337</ele><time>2026-05-02T09:54:10Z</time></trkpt><trkpt lat="44.30313006695512" lon="9.452996374172221"><ele>361.1666666666667</ele><time>2026-05-02T09:54:11Z</time></trkpt><trkpt lat="44.30311926783781" lon="9.453133010062135"><ele>356.0</ele><time>2026-05-02T09:54:12Z</time></trkpt><trkpt lat="44.30313857657552" lon="9.453236110953046"><ele>356.0</ele><time>2026-05-02T09:54:13Z</time></trkpt><trkpt lat="44.303144366895694" lon="9.453348624950765"><ele>356.0</ele><time>2026-05-02T09:54:14Z</time></trkpt><trkpt lat="44.30316451891804" lon="9.453445865292249"><ele>356.0</ele><time>2026-05-02T09:54:15Z</time></trkpt><trkpt lat="44.303207874538046" lon="9.45353400425585"><ele>356.0</ele><time>2026-05-02T09:54:16Z</time></trkpt><trkpt lat="44.30327747417486" lon="9.453619914069918"><ele>356.0</ele><time>2026-05-02T09:54:17Z</time></trkpt><trkpt lat="44.3033435593658" lon="9.453703719311806"><ele>356.0</ele><time>2026-05-02T09:54:18Z</time></trkpt><trkpt lat="44.30338646922456" lon="9.453812238908267"><ele>359.6666666666667</ele><time>2026-05-02T09:54:19Z</time></trkpt><trkpt lat="44.30344251935429" lon="9.453917986390891"><ele>363.33333333333337</ele><time>2026-05-02T09:54:20Z</time></trkpt><trkpt lat="44.30349117604393" lon="9.454006135255852"><ele>367.0</ele><time>2026-05-02T09:54:21Z</time></trkpt><trkpt lat="44.303549170746" lon="9.454071862637225"><ele>370.6666666666667</ele><time>2026-05-02T09:54:22Z</time></trkpt><trkpt lat="44.303657127767764" lon="9.454157537488316"><ele>374.3333333333333</ele><time>2026-05-02T09:54:24Z</time></trkpt><trkpt lat="44.303732301228145" lon="9.454171192873185"><ele>378.0</ele><time>2026-05-02T09:54:25Z</time></trkpt><trkpt lat="44.303815788571264" lon="9.454156940346861"><ele>378.0</ele><time>2026-05-02T09:54:26Z</time></trkpt><trkpt lat="44.30391081727891" lon="9.454103131822977"><ele>378.0</ele><time>2026-05-02T09:54:27Z</time></trkpt><trkpt lat="44.30401332432864" lon="9.454055037057708"><ele>378.0</ele><time>2026-05-02T09:54:28Z</time></trkpt><trkpt lat="44.30409469806973" lon="9.454094375879542"><ele>378.0</ele><time>2026-05-02T09:54:29Z</time></trkpt><trkpt lat="44.30415271607816" lon="9.454148364868116"><ele>378.0</ele><time>2026-05-02T09:54:30Z</time></trkpt><trkpt lat="44.30420918669806" lon="9.45420823465058"><ele>378.0</ele><time>2026-05-02T09:54:31Z</time></trkpt><trkpt lat="44.30427214549012" lon="9.454288116244442"><ele>375.3333333333333</ele><time>2026-05-02T09:54:32Z</time></trkpt><trkpt lat="44.304333132183345" lon="9.454341243519476"><ele>372.6666666666667</ele><time>2026-05-02T09:54:33Z</time></trkpt><trkpt lat="44.30441288582047" lon="9.454379810009973"><ele>370.0</ele><time>2026-05-02T09:54:35Z</time></trkpt><trkpt lat="44.30446796790982" lon="9.454264207911045"><ele>367.33333333333337</ele><time>2026-05-02T09:54:37Z</time></trkpt><trkpt lat="44.30450561644192" lon="9.454115323208224"><ele>364.6666666666667</ele><time>2026-05-02T09:54:39.001Z</time></trkpt><trkpt lat="44.30452878315537" lon="9.454025901408095"><ele>362.0</ele><time>2026-05-02T09:54:40.001Z</time></trkpt><trkpt lat="44.30456211797087" lon="9.453950707777212"><ele>362.0</ele><time>2026-05-02T09:54:41.001Z</time></trkpt><trkpt lat="44.304618335606136" lon="9.453874933556298"><ele>362.0</ele><time>2026-05-02T09:54:42.001Z</time></trkpt><trkpt lat="44.30468747195151" lon="9.453780016786268"><ele>362.0</ele><time>2026-05-02T09:54:43.001Z</time></trkpt><trkpt lat="44.30479253883426" lon="9.453746511000666"><ele>362.0</ele><time>2026-05-02T09:54:44.001Z</time></trkpt><trkpt lat="44.30488795202604" lon="9.453667074054529"><ele>362.0</ele><time>2026-05-02T09:54:45.001Z</time></trkpt><trkpt lat="44.30499342012351" lon="9.453602307690334"><ele>360.40000000000003</ele><time>2026-05-02T09:54:46.001Z</time></trkpt><trkpt lat="44.305080660604816" lon="9.453526292050467"><ele>358.8</ele><time>2026-05-02T09:54:47.001Z</time></trkpt><trkpt lat="44.30515307338577" lon="9.453438128225114"><ele>357.2</ele><time>2026-05-02T09:54:48.001Z</time></trkpt><trkpt lat="44.30522792766024" lon="9.453357032288668"><ele>355.6</ele><time>2026-05-02T09:54:49.001Z</time></trkpt><trkpt lat="44.30529493735096" lon="9.45330016152801"><ele>354.0</ele><time>2026-05-02T09:54:50.001Z</time></trkpt><trkpt lat="44.305365720327565" lon="9.453237889819862"><ele>354.0</ele><time>2026-05-02T09:54:51.001Z</time></trkpt><trkpt lat="44.30545088187864" lon="9.453190425442118"><ele>354.0</ele><time>2026-05-02T09:54:52.001Z</time></trkpt><trkpt lat="44.305535611232365" lon="9.453129972614962"><ele>354.0</ele><time>2026-05-02T09:54:53.001Z</time></trkpt><trkpt lat="44.305618962546305" lon="9.453049593482751"><ele>354.0</ele><time>2026-05-02T09:54:54.001Z</time></trkpt><trkpt lat="44.30571194476899" lon="9.452998657550197"><ele>354.0</ele><time>2026-05-02T09:54:55.001Z</time></trkpt><trkpt lat="44.30580059447059" lon="9.452923155908556"><ele>353.2</ele><time>2026-05-02T09:54:56.001Z</time></trkpt><trkpt lat="44.30589319190248" lon="9.452848635980224"><ele>352.4</ele><time>2026-05-02T09:54:57.001Z</time></trkpt><trkpt lat="44.30597201278793" lon="9.452756984761502"><ele>351.6</ele><time>2026-05-02T09:54:58.001Z</time></trkpt><trkpt lat="44.30606080557208" lon="9.45267300483052"><ele>350.8</ele><time>2026-05-02T09:54:59.001Z</time></trkpt><trkpt lat="44.306138954488056" lon="9.452579884539023"><ele>350.0</ele><time>2026-05-02T09:55:00.001Z</time></trkpt><trkpt lat="44.30621370268945" lon="9.452458895725357"><ele>350.0</ele><time>2026-05-02T09:55:01.001Z</time></trkpt><trkpt lat="44.30631141399509" lon="9.452359368949264"><ele>350.0</ele><time>2026-05-02T09:55:02.001Z</time></trkpt><trkpt lat="44.30640690525988" lon="9.452250668396497"><ele>350.0</ele><time>2026-05-02T09:55:03.001Z</time></trkpt><trkpt lat="44.30650754858026" lon="9.45213722658483"><ele>350.0</ele><time>2026-05-02T09:55:04.001Z</time></trkpt><trkpt lat="44.30660911959514" lon="9.452047156160633"><ele>349.1666666666667</ele><time>2026-05-02T09:55:05.001Z</time></trkpt><trkpt lat="44.30668026650082" lon="9.451945034440397"><ele>348.33333333333337</ele><time>2026-05-02T09:55:06.001Z</time></trkpt><trkpt lat="44.30675302403229" lon="9.451879591131359"><ele>347.5</ele><time>2026-05-02T09:55:07.001Z</time></trkpt><trkpt lat="44.30682056927486" lon="9.451817208297339"><ele>346.6666666666667</ele><time>2026-05-02T09:55:08.001Z</time></trkpt><trkpt lat="44.306890970472004" lon="9.45179212039294"><ele>345.8333333333333</ele><time>2026-05-02T09:55:09.001Z</time></trkpt><trkpt lat="44.30698057445779" lon="9.451832299572137"><ele>345.0</ele><time>2026-05-02T09:55:10.001Z</time></trkpt><trkpt lat="44.30707251716478" lon="9.451833050208068"><ele>345.0</ele><time>2026-05-02T09:55:11.001Z</time></trkpt><trkpt lat="44.30717894075333" lon="9.451842061577098"><ele>345.0</ele><time>2026-05-02T09:55:12.001Z</time></trkpt><trkpt lat="44.30726988899733" lon="9.451822598194537"><ele>345.0</ele><time>2026-05-02T09:55:13.001Z</time></trkpt><trkpt lat="44.30735784277871" lon="9.451762997401026"><ele>345.0</ele><time>2026-05-02T09:55:14.001Z</time></trkpt><trkpt lat="44.30745428137627" lon="9.451685330738224"><ele>345.0</ele><time>2026-05-02T09:55:15.001Z</time></trkpt><trkpt lat="44.30755918566701" lon="9.451611573809334"><ele>347.4</ele><time>2026-05-02T09:55:16.001Z</time></trkpt><trkpt lat="44.3076758257513" lon="9.451589537669285"><ele>349.8</ele><time>2026-05-02T09:55:17.001Z</time></trkpt><trkpt lat="44.30778128061995" lon="9.45155299725489"><ele>352.20000000000005</ele><time>2026-05-02T09:55:18.001Z</time></trkpt><trkpt lat="44.30787175140572" lon="9.451529143204782"><ele>354.6</ele><time>2026-05-02T09:55:19.001Z</time></trkpt><trkpt lat="44.30795388406896" lon="9.451519329127738"><ele>357.0</ele><time>2026-05-02T09:55:20.001Z</time></trkpt><trkpt lat="44.30803715303611" lon="9.45150147780761"><ele>357.20000000000005</ele><time>2026-05-02T09:55:21.001Z</time></trkpt><trkpt lat="44.308126346096714" lon="9.451529408766453"><ele>357.4</ele><time>2026-05-02T09:55:22.001Z</time></trkpt><trkpt lat="44.30820110676722" lon="9.451595071922254"><ele>357.6</ele><time>2026-05-02T09:55:23.001Z</time></trkpt><trkpt lat="44.308279274156355" lon="9.451669300419825"><ele>357.79999999999995</ele><time>2026-05-02T09:55:24.001Z</time></trkpt><trkpt lat="44.30836614698891" lon="9.451736723317575"><ele>358.0</ele><time>2026-05-02T09:55:25.001Z</time></trkpt><trkpt lat="44.30844217485709" lon="9.451771290337927"><ele>358.0</ele><time>2026-05-02T09:55:26.001Z</time></trkpt><trkpt lat="44.30849370511249" lon="9.451836335000557"><ele>358.0</ele><time>2026-05-02T09:55:27.001Z</time></trkpt><trkpt lat="44.30858450179581" lon="9.451931933428778"><ele>358.0</ele><time>2026-05-02T09:55:29.001Z</time></trkpt><trkpt lat="44.3085539723697" lon="9.452074410752592"><ele>358.0</ele><time>2026-05-02T09:55:31.001Z</time></trkpt><trkpt lat="44.308536152005736" lon="9.45226054258517"><ele>358.0</ele><time>2026-05-02T09:55:33.001Z</time></trkpt><trkpt lat="44.30855783915566" lon="9.452365907636532"><ele>361.79999999999995</ele><time>2026-05-02T09:55:34.001Z</time></trkpt><trkpt lat="44.308605778413146" lon="9.452463293491682"><ele>365.6</ele><time>2026-05-02T09:55:35.001Z</time></trkpt><trkpt lat="44.30863903466096" lon="9.452555946700185"><ele>369.4</ele><time>2026-05-02T09:55:36.001Z</time></trkpt><trkpt lat="44.30870110153435" lon="9.452687323433793"><ele>373.20000000000005</ele><time>2026-05-02T09:55:38.001Z</time></trkpt><trkpt lat="44.308692822425044" lon="9.452836174564826"><ele>377.0</ele><time>2026-05-02T09:55:40.001Z</time></trkpt><trkpt lat="44.30872189233073" lon="9.452932400317495"><ele>378.6</ele><time>2026-05-02T09:55:42.001Z</time></trkpt><trkpt lat="44.30876830690951" lon="9.453042141787478"><ele>380.20000000000005</ele><time>2026-05-02T09:55:45.001Z</time></trkpt><trkpt lat="44.30877176387232" lon="9.453199447876804"><ele>381.8</ele><time>2026-05-02T09:55:47Z</time></trkpt><trkpt lat="44.30876175586521" lon="9.453342854106921"><ele>383.4</ele><time>2026-05-02T09:55:49Z</time></trkpt><trkpt lat="44.308738030152966" lon="9.453498989538224"><ele>385.0</ele><time>2026-05-02T09:55:51Z</time></trkpt><trkpt lat="44.308693399224786" lon="9.453570606614926"><ele>385.0</ele><time>2026-05-02T09:55:52Z</time></trkpt><trkpt lat="44.3086593812739" lon="9.453646213758404"><ele>385.0</ele><time>2026-05-02T09:55:53Z</time></trkpt><trkpt lat="44.308622791942405" lon="9.453728171829113"><ele>385.0</ele><time>2026-05-02T09:55:54Z</time></trkpt><trkpt lat="44.30858455483889" lon="9.45380712313898"><ele>385.0</ele><time>2026-05-02T09:55:55Z</time></trkpt><trkpt lat="44.308546667806" lon="9.453881739793454"><ele>385.0</ele><time>2026-05-02T09:55:56Z</time></trkpt><trkpt lat="44.30850915856275" lon="9.453956813073056"><ele>385.0</ele><time>2026-05-02T09:55:57Z</time></trkpt><trkpt lat="44.308462304673235" lon="9.454061271958883"><ele>385.0</ele><time>2026-05-02T09:55:58Z</time></trkpt><trkpt lat="44.308415783724655" lon="9.454182650172076"><ele>383.6</ele><time>2026-05-02T09:55:59Z</time></trkpt><trkpt lat="44.30837525197934" lon="9.454318466770363"><ele>382.2</ele><time>2026-05-02T09:56:00Z</time></trkpt><trkpt lat="44.30834478795748" lon="9.454471467458186"><ele>380.79999999999995</ele><time>2026-05-02T09:56:01Z</time></trkpt><trkpt lat="44.30834039311447" lon="9.454621522433094"><ele>379.4</ele><time>2026-05-02T09:56:02Z</time></trkpt><trkpt lat="44.308321451509734" lon="9.454764324403369"><ele>378.0</ele><time>2026-05-02T09:56:03Z</time></trkpt><trkpt lat="44.30831262735792" lon="9.454903475726336"><ele>375.7142857142857</ele><time>2026-05-02T09:56:04Z</time></trkpt><trkpt lat="44.30831315983962" lon="9.45501167129003"><ele>373.42857142857144</ele><time>2026-05-02T09:56:05Z</time></trkpt><trkpt lat="44.3083076844613" lon="9.455109043784683"><ele>371.1428571428571</ele><time>2026-05-02T09:56:06Z</time></trkpt><trkpt lat="44.30828597904092" lon="9.455204039560158"><ele>368.8571428571429</ele><time>2026-05-02T09:56:07Z</time></trkpt><trkpt lat="44.30826219751001" lon="9.455290641752224"><ele>366.57142857142856</ele><time>2026-05-02T09:56:08Z</time></trkpt><trkpt lat="44.30822726805395" lon="9.455369478723204"><ele>364.2857142857143</ele><time>2026-05-02T09:56:09Z</time></trkpt><trkpt lat="44.30817700108433" lon="9.455467899128651"><ele>362.0</ele><time>2026-05-02T09:56:10Z</time></trkpt><trkpt lat="44.30813400659862" lon="9.455589661694749"><ele>359.1666666666667</ele><time>2026-05-02T09:56:11Z</time></trkpt><trkpt lat="44.308128738896684" lon="9.455698074539493"><ele>356.33333333333337</ele><time>2026-05-02T09:56:12Z</time></trkpt><trkpt lat="44.30810714891387" lon="9.45578654843566"><ele>353.5</ele><time>2026-05-02T09:56:13Z</time></trkpt><trkpt lat="44.30801642899482" lon="9.455815905842273"><ele>350.6666666666667</ele><time>2026-05-02T09:56:14Z</time></trkpt><trkpt lat="44.307976016370006" lon="9.455900525176062"><ele>347.8333333333333</ele><time>2026-05-02T09:56:15Z</time></trkpt><trkpt lat="44.30795252262442" lon="9.456000041253635"><ele>345.0</ele><time>2026-05-02T09:56:16Z</time></trkpt><trkpt lat="44.30792329064993" lon="9.456091145413883"><ele>349.8571428571429</ele><time>2026-05-02T09:56:17Z</time></trkpt><trkpt lat="44.307866802081286" lon="9.456154704997585"><ele>354.7142857142857</ele><time>2026-05-02T09:56:18Z</time></trkpt><trkpt lat="44.307818240003144" lon="9.456219665844282"><ele>359.57142857142856</ele><time>2026-05-02T09:56:19Z</time></trkpt><trkpt lat="44.30775426630828" lon="9.456261873577823"><ele>364.42857142857144</ele><time>2026-05-02T09:56:20Z</time></trkpt><trkpt lat="44.307688317708276" lon="9.4563126089432"><ele>369.2857142857143</ele><time>2026-05-02T09:56:21Z</time></trkpt><trkpt lat="44.30762017654716" lon="9.45636249727133"><ele>374.14285714285717</ele><time>2026-05-02T09:56:22Z</time></trkpt><trkpt lat="44.30756232803466" lon="9.45640873895508"><ele>379.0</ele><time>2026-05-02T09:56:23Z</time></trkpt><trkpt lat="44.30750770355055" lon="9.456467114559237"><ele>379.0</ele><time>2026-05-02T09:56:24Z</time></trkpt><trkpt lat="44.30747634922471" lon="9.456552819851787"><ele>379.0</ele><time>2026-05-02T09:56:25Z</time></trkpt><trkpt lat="44.307403384626845" lon="9.456647026175585"><ele>379.0</ele><time>2026-05-02T09:56:27Z</time></trkpt><trkpt lat="44.30747768086156" lon="9.45675552282243"><ele>379.0</ele><time>2026-05-02T09:56:29Z</time></trkpt><trkpt lat="44.30757141796573" lon="9.456735711994261"><ele>379.0</ele><time>2026-05-02T09:56:31Z</time></trkpt><trkpt lat="44.30766678346755" lon="9.456741771706143"><ele>379.0</ele><time>2026-05-02T09:56:33Z</time></trkpt><trkpt lat="44.307734646190404" lon="9.456797751593488"><ele>379.0</ele><time>2026-05-02T09:56:35Z</time></trkpt><trkpt lat="44.307793639105334" lon="9.456907326771903"><ele>379.0</ele><time>2026-05-02T09:56:37Z</time></trkpt><trkpt lat="44.3078393619317" lon="9.457019431338969"><ele>379.0</ele><time>2026-05-02T09:56:39Z</time></trkpt><trkpt lat="44.30788781504652" lon="9.45712380546426"><ele>379.0</ele><time>2026-05-02T09:56:41Z</time></trkpt><trkpt lat="44.3079580833488" lon="9.45725917093699"><ele>376.8333333333333</ele><time>2026-05-02T09:56:43Z</time></trkpt><trkpt lat="44.308006235213924" lon="9.457325380371794"><ele>374.66666666666663</ele><time>2026-05-02T09:56:44.001Z</time></trkpt><trkpt lat="44.30806333593313" lon="9.457384786130914"><ele>372.5</ele><time>2026-05-02T09:56:45.001Z</time></trkpt><trkpt lat="44.30818038359379" lon="9.457477672581168"><ele>370.3333333333333</ele><time>2026-05-02T09:56:47.001Z</time></trkpt><trkpt lat="44.308247811652215" lon="9.457521565583678"><ele>368.1666666666667</ele><time>2026-05-02T09:56:48.001Z</time></trkpt><trkpt lat="44.308316361887094" lon="9.45756268698216"><ele>366.0</ele><time>2026-05-02T09:56:49.001Z</time></trkpt><trkpt lat="44.308384747337136" lon="9.457599064577337"><ele>366.0</ele><time>2026-05-02T09:56:50.001Z</time></trkpt><trkpt lat="44.308457790019794" lon="9.457626001316005"><ele>366.0</ele><time>2026-05-02T09:56:51.001Z</time></trkpt><trkpt lat="44.30853120935803" lon="9.457641286163494"><ele>366.0</ele><time>2026-05-02T09:56:52.001Z</time></trkpt><trkpt lat="44.30860346227774" lon="9.457643941130236"><ele>366.0</ele><time>2026-05-02T09:56:53.001Z</time></trkpt><trkpt lat="44.30867241689049" lon="9.457659003209157"><ele>366.0</ele><time>2026-05-02T09:56:54.001Z</time></trkpt><trkpt lat="44.30878458268927" lon="9.457728470024477"><ele>366.0</ele><time>2026-05-02T09:56:56.001Z</time></trkpt><trkpt lat="44.30884034328381" lon="9.457780953988621"><ele>366.0</ele><time>2026-05-02T09:56:57.001Z</time></trkpt><trkpt lat="44.30889371184611" lon="9.457833114174099"><ele>366.0</ele><time>2026-05-02T09:56:58.001Z</time></trkpt><trkpt lat="44.30889176220181" lon="9.4579334624248"><ele>366.0</ele><time>2026-05-02T09:56:59.001Z</time></trkpt><trkpt lat="44.30887627785659" lon="9.45803035179263"><ele>366.0</ele><time>2026-05-02T09:57:00.001Z</time></trkpt><trkpt lat="44.30885502743688" lon="9.458117257369276"><ele>366.0</ele><time>2026-05-02T09:57:01.001Z</time></trkpt><trkpt lat="44.30881214237309" lon="9.458210064769315"><ele>366.0</ele><time>2026-05-02T09:57:02.001Z</time></trkpt><trkpt lat="44.308783713867825" lon="9.45831091005869"><ele>366.0</ele><time>2026-05-02T09:57:03.001Z</time></trkpt><trkpt lat="44.308779704563996" lon="9.458433974706667"><ele>363.5</ele><time>2026-05-02T09:57:04.001Z</time></trkpt><trkpt lat="44.30879968235124" lon="9.45853970678331"><ele>361.0</ele><time>2026-05-02T09:57:05.001Z</time></trkpt><trkpt lat="44.308818692537045" lon="9.458639376404923"><ele>358.5</ele><time>2026-05-02T09:57:06.001Z</time></trkpt><trkpt lat="44.30885060036792" lon="9.458739531497159"><ele>356.0</ele><time>2026-05-02T09:57:07.001Z</time></trkpt><trkpt lat="44.30888188622325" lon="9.45883219195348"><ele>353.5</ele><time>2026-05-02T09:57:08.001Z</time></trkpt><trkpt lat="44.30891022764777" lon="9.458940217347381"><ele>351.0</ele><time>2026-05-02T09:57:09.001Z</time></trkpt><trkpt lat="44.308931996633035" lon="9.459044239990527"><ele>351.0</ele><time>2026-05-02T09:57:10.001Z</time></trkpt><trkpt lat="44.30893407709365" lon="9.459165059599183"><ele>351.0</ele><time>2026-05-02T09:57:11.001Z</time></trkpt><trkpt lat="44.30892967157208" lon="9.4592776452981"><ele>351.0</ele><time>2026-05-02T09:57:12.001Z</time></trkpt><trkpt lat="44.30889186012443" lon="9.459354246485523"><ele>351.0</ele><time>2026-05-02T09:57:13.001Z</time></trkpt><trkpt lat="44.30880377000782" lon="9.4595009572763"><ele>351.0</ele><time>2026-05-02T09:57:15.001Z</time></trkpt><trkpt lat="44.30874784324935" lon="9.459563671481122"><ele>351.0</ele><time>2026-05-02T09:57:16.001Z</time></trkpt><trkpt lat="44.30868640840985" lon="9.459629255015729"><ele>358.8333333333333</ele><time>2026-05-02T09:57:17.001Z</time></trkpt><trkpt lat="44.308643891206316" lon="9.459708909461813"><ele>366.66666666666663</ele><time>2026-05-02T09:57:18.001Z</time></trkpt><trkpt lat="44.30860149749296" lon="9.45979511567416"><ele>374.5</ele><time>2026-05-02T09:57:19.001Z</time></trkpt><trkpt lat="44.30856661021528" lon="9.459900853918327"><ele>382.3333333333333</ele><time>2026-05-02T09:57:21.001Z</time></trkpt><trkpt lat="44.308578452019866" lon="9.459999032142624"><ele>390.16666666666663</ele><time>2026-05-02T09:57:23.001Z</time></trkpt><trkpt lat="44.30862672870619" lon="9.460091863498622"><ele>398.0</ele><time>2026-05-02T09:57:25.001Z</time></trkpt><trkpt lat="44.30870274662601" lon="9.460159304317843"><ele>397.99999999999994</ele><time>2026-05-02T09:57:36.001Z</time></trkpt><trkpt lat="44.30879201383993" lon="9.460277518185118"><ele>398.0</ele><time>2026-05-02T09:57:38.001Z</time></trkpt><trkpt lat="44.30883908548063" lon="9.46033834681293"><ele>398.0</ele><time>2026-05-02T09:57:39.001Z</time></trkpt><trkpt lat="44.30888919731778" lon="9.460394970133278"><ele>398.0</ele><time>2026-05-02T09:57:40.001Z</time></trkpt><trkpt lat="44.30896328536328" lon="9.46047136577148"><ele>397.99999999999994</ele><time>2026-05-02T09:57:42.001Z</time></trkpt><trkpt lat="44.309021457120686" lon="9.460523298567304"><ele>398.0</ele><time>2026-05-02T09:57:53Z</time></trkpt><trkpt lat="44.30907637133182" lon="9.460568343592717"><ele>395.2</ele><time>2026-05-02T09:59:15.001Z</time></trkpt><trkpt lat="44.309149060088" lon="9.460621804087003"><ele>392.4</ele><time>2026-05-02T09:59:17.001Z</time></trkpt><trkpt lat="44.30925933254263" lon="9.460686600061363"><ele>389.59999999999997</ele><time>2026-05-02T09:59:19.001Z</time></trkpt><trkpt lat="44.30932066356781" lon="9.460712663090288"><ele>386.79999999999995</ele><time>2026-05-02T09:59:20.001Z</time></trkpt><trkpt lat="44.3094079225783" lon="9.460703899580862"><ele>384.0</ele><time>2026-05-02T09:59:21.001Z</time></trkpt><trkpt lat="44.309512045865574" lon="9.460724670815386"><ele>384.0</ele><time>2026-05-02T09:59:23.001Z</time></trkpt><trkpt lat="44.30957634854094" lon="9.460741889507656"><ele>384.0</ele><time>2026-05-02T09:59:25.001Z</time></trkpt><trkpt lat="44.309647610471174" lon="9.46076987096713"><ele>384.0</ele><time>2026-05-02T09:59:28.001Z</time></trkpt><trkpt lat="44.309692224250604" lon="9.460832483733938"><ele>384.0</ele><time>2026-05-02T10:00:01.001Z</time></trkpt><trkpt lat="44.3097225820237" lon="9.460983045091867"><ele>384.0</ele><time>2026-05-02T10:00:03.001Z</time></trkpt><trkpt lat="44.30978850070741" lon="9.461137239551713"><ele>384.0</ele><time>2026-05-02T10:00:05.001Z</time></trkpt><trkpt lat="44.30980411117622" lon="9.461231113238954"><ele>381.5</ele><time>2026-05-02T10:00:06.001Z</time></trkpt><trkpt lat="44.30983719906111" lon="9.461318854669996"><ele>379.0</ele><time>2026-05-02T10:00:07.001Z</time></trkpt><trkpt lat="44.30987112832285" lon="9.461405671698081"><ele>376.5</ele><time>2026-05-02T10:00:08.001Z</time></trkpt><trkpt lat="44.30992705018271" lon="9.461482092177192"><ele>374.0</ele><time>2026-05-02T10:00:09.001Z</time></trkpt><trkpt lat="44.30996011742527" lon="9.461563904831436"><ele>371.5</ele><time>2026-05-02T10:00:10.001Z</time></trkpt><trkpt lat="44.30998969666671" lon="9.461642778243952"><ele>369.0</ele><time>2026-05-02T10:00:11Z</time></trkpt><trkpt lat="44.30997689257628" lon="9.461786542015519"><ele>369.0</ele><time>2026-05-02T10:00:13Z</time></trkpt><trkpt lat="44.309971859175036" lon="9.461920173073759"><ele>369.0</ele><time>2026-05-02T10:00:15Z</time></trkpt><trkpt lat="44.31000417296661" lon="9.462050487963296"><ele>369.0</ele><time>2026-05-02T10:00:17Z</time></trkpt><trkpt lat="44.310094704941" lon="9.462106617467335"><ele>369.0</ele><time>2026-05-02T10:00:19Z</time></trkpt><trkpt lat="44.310161733773484" lon="9.462109432160364"><ele>369.0</ele><time>2026-05-02T10:00:20.001Z</time></trkpt><trkpt lat="44.31022542184292" lon="9.462112324484345"><ele>369.0</ele><time>2026-05-02T10:00:21.001Z</time></trkpt><trkpt lat="44.310260271288854" lon="9.462187928550833"><ele>366.3333333333333</ele><time>2026-05-02T10:00:22.001Z</time></trkpt><trkpt lat="44.3103436305603" lon="9.46228532735516"><ele>363.6666666666667</ele><time>2026-05-02T10:00:24.001Z</time></trkpt><trkpt lat="44.31039260856474" lon="9.46234581984846"><ele>361.0</ele><time>2026-05-02T10:00:25.001Z</time></trkpt><trkpt lat="44.310456669951016" lon="9.46240890410635"><ele>358.33333333333337</ele><time>2026-05-02T10:00:26.001Z</time></trkpt><trkpt lat="44.310497906690244" lon="9.462515155320968"><ele>355.6666666666667</ele><time>2026-05-02T10:00:27.001Z</time></trkpt><trkpt lat="44.31054659779977" lon="9.462598075706612"><ele>353.0</ele><time>2026-05-02T10:00:28.001Z</time></trkpt><trkpt lat="44.31060327673762" lon="9.462664124796804"><ele>353.0</ele><time>2026-05-02T10:00:29.001Z</time></trkpt><trkpt lat="44.31067362512254" lon="9.462720877992902"><ele>353.0</ele><time>2026-05-02T10:00:30.001Z</time></trkpt><trkpt lat="44.31072144928786" lon="9.462816773022343"><ele>353.0</ele><time>2026-05-02T10:00:31.001Z</time></trkpt><trkpt lat="44.31077733949335" lon="9.462898234863017"><ele>353.0</ele><time>2026-05-02T10:00:32.001Z</time></trkpt><trkpt lat="44.31082438368497" lon="9.462973261280922"><ele>353.0</ele><time>2026-05-02T10:00:33.001Z</time></trkpt><trkpt lat="44.310866014133055" lon="9.463051949083523"><ele>353.0</ele><time>2026-05-02T10:00:34.001Z</time></trkpt><trkpt lat="44.31092497817723" lon="9.463219889715543"><ele>356.5</ele><time>2026-05-02T10:00:36.001Z</time></trkpt><trkpt lat="44.31096518351854" lon="9.463321022086326"><ele>360.0</ele><time>2026-05-02T10:00:37.001Z</time></trkpt><trkpt lat="44.31098056536894" lon="9.46342985027897"><ele>363.5</ele><time>2026-05-02T10:00:38.001Z</time></trkpt><trkpt lat="44.31097286885586" lon="9.463528956961191"><ele>367.0</ele><time>2026-05-02T10:00:39.001Z</time></trkpt><trkpt lat="44.31095696878673" lon="9.463691344534308"><ele>370.5</ele><time>2026-05-02T10:00:41.001Z</time></trkpt><trkpt lat="44.31094339106496" lon="9.463815614729679"><ele>374.0</ele><time>2026-05-02T10:00:43.001Z</time></trkpt><trkpt lat="44.3109062108504" lon="9.463921051469253"><ele>376.79999999999995</ele><time>2026-05-02T10:01:11.001Z</time></trkpt><trkpt lat="44.3108904456828" lon="9.464090656689612"><ele>379.59999999999997</ele><time>2026-05-02T10:01:13.001Z</time></trkpt><trkpt lat="44.310896029843725" lon="9.464185059294838"><ele>382.4</ele><time>2026-05-02T10:01:14.001Z</time></trkpt><trkpt lat="44.31093344645032" lon="9.46434019886438"><ele>385.2</ele><time>2026-05-02T10:01:16.001Z</time></trkpt><trkpt lat="44.31098015011416" lon="9.464443049377307"><ele>388.0</ele><time>2026-05-02T10:01:18.001Z</time></trkpt><trkpt lat="44.31107839726965" lon="9.464522902545148"><ele>388.0</ele><time>2026-05-02T10:01:20.001Z</time></trkpt><trkpt lat="44.3111705524322" lon="9.464533584622197"><ele>388.0</ele><time>2026-05-02T10:01:21.001Z</time></trkpt><trkpt lat="44.31125861702275" lon="9.464505423876068"><ele>388.0</ele><time>2026-05-02T10:01:22.001Z</time></trkpt><trkpt lat="44.31132938855896" lon="9.464422423173783"><ele>388.0</ele><time>2026-05-02T10:01:23.001Z</time></trkpt><trkpt lat="44.31141820281672" lon="9.464377416271782"><ele>388.0</ele><time>2026-05-02T10:01:24.001Z</time></trkpt><trkpt lat="44.3114973187088" lon="9.464341390947432"><ele>383.0</ele><time>2026-05-02T10:01:25.001Z</time></trkpt><trkpt lat="44.31157961589194" lon="9.464339084618636"><ele>378.0</ele><time>2026-05-02T10:01:26.001Z</time></trkpt><trkpt lat="44.311652541404165" lon="9.464364140836055"><ele>373.0</ele><time>2026-05-02T10:01:27.001Z</time></trkpt><trkpt lat="44.31172119663904" lon="9.46439362045963"><ele>368.0</ele><time>2026-05-02T10:01:28.001Z</time></trkpt><trkpt lat="44.31183927794228" lon="9.464508055060703"><ele>363.0</ele><time>2026-05-02T10:01:30.001Z</time></trkpt><trkpt lat="44.3118999226265" lon="9.464589410359418"><ele>368.8333333333333</ele><time>2026-05-02T10:01:31.001Z</time></trkpt><trkpt lat="44.311953917399485" lon="9.464674922056352"><ele>374.66666666666663</ele><time>2026-05-02T10:01:32.001Z</time></trkpt><trkpt lat="44.31200352782326" lon="9.46476183596922"><ele>380.5</ele><time>2026-05-02T10:01:33.001Z</time></trkpt><trkpt lat="44.312050847112836" lon="9.464842647614622"><ele>386.3333333333333</ele><time>2026-05-02T10:01:34.001Z</time></trkpt><trkpt lat="44.31208385537751" lon="9.464966011034337"><ele>392.16666666666663</ele><time>2026-05-02T10:01:35.001Z</time></trkpt><trkpt lat="44.31212432603765" lon="9.465063223967102"><ele>398.0</ele><time>2026-05-02T10:01:36.001Z</time></trkpt><trkpt lat="44.312142943383144" lon="9.4651769059051"><ele>397.99999999999994</ele><time>2026-05-02T10:01:37.001Z</time></trkpt><trkpt lat="44.31217711762027" lon="9.465318520721729"><ele>398.0</ele><time>2026-05-02T10:01:39.001Z</time></trkpt><trkpt lat="44.31220098586056" lon="9.46543233157714"><ele>398.0</ele><time>2026-05-02T10:01:40.001Z</time></trkpt><trkpt lat="44.31224613610343" lon="9.465548618953921"><ele>398.0</ele><time>2026-05-02T10:01:41.001Z</time></trkpt><trkpt lat="44.312302831982976" lon="9.465625268344942"><ele>397.99999999999994</ele><time>2026-05-02T10:01:42.001Z</time></trkpt><trkpt lat="44.31236510373488" lon="9.465680200608684"><ele>398.0</ele><time>2026-05-02T10:01:43.001Z</time></trkpt><trkpt lat="44.312419858324986" lon="9.465737734238733"><ele>397.4285714285714</ele><time>2026-05-02T10:01:44.001Z</time></trkpt><trkpt lat="44.312469360240144" lon="9.465794556053511"><ele>396.85714285714283</ele><time>2026-05-02T10:01:45.001Z</time></trkpt><trkpt lat="44.31252653551381" lon="9.465842001498316"><ele>396.2857142857143</ele><time>2026-05-02T10:01:46.001Z</time></trkpt><trkpt lat="44.31257203175506" lon="9.465914788650817"><ele>395.71428571428567</ele><time>2026-05-02T10:01:47.001Z</time></trkpt><trkpt lat="44.31264083362811" lon="9.465973087219469"><ele>395.14285714285717</ele><time>2026-05-02T10:01:48.001Z</time></trkpt><trkpt lat="44.31269301018896" lon="9.466070068311629"><ele>394.57142857142856</ele><time>2026-05-02T10:01:49.001Z</time></trkpt><trkpt lat="44.312742126997065" lon="9.46613923398696"><ele>394.0</ele><time>2026-05-02T10:01:50.001Z</time></trkpt><trkpt lat="44.31278469535796" lon="9.466210388004582"><ele>394.0</ele><time>2026-05-02T10:01:51.001Z</time></trkpt><trkpt lat="44.31283904337629" lon="9.466262630919191"><ele>394.0</ele><time>2026-05-02T10:01:52.001Z</time></trkpt><trkpt lat="44.31287483656392" lon="9.466372338094564"><ele>394.0</ele><time>2026-05-02T10:01:53.001Z</time></trkpt><trkpt lat="44.312961389244215" lon="9.46642593961994"><ele>394.0</ele><time>2026-05-02T10:01:55.002Z</time></trkpt><trkpt lat="44.313079816889356" lon="9.466451022888092"><ele>394.0</ele><time>2026-05-02T10:01:57.002Z</time></trkpt><trkpt lat="44.31314648774793" lon="9.466527218425595"><ele>396.4</ele><time>2026-05-02T10:01:59.002Z</time></trkpt><trkpt lat="44.31312227391819" lon="9.466641115023336"><ele>398.79999999999995</ele><time>2026-05-02T10:02:00.002Z</time></trkpt><trkpt lat="44.31313812405551" lon="9.46673006927383"><ele>401.20000000000005</ele><time>2026-05-02T10:02:01.002Z</time></trkpt><trkpt lat="44.3132341080314" lon="9.466806675894697"><ele>403.6</ele><time>2026-05-02T10:02:03.002Z</time></trkpt><trkpt lat="44.31328756674092" lon="9.46669435950736"><ele>406.0</ele><time>2026-05-02T10:02:04.002Z</time></trkpt><trkpt lat="44.31334774811235" lon="9.466561388421926"><ele>406.0</ele><time>2026-05-02T10:02:06.001Z</time></trkpt><trkpt lat="44.313405456362304" lon="9.46665806071203"><ele>406.0</ele><time>2026-05-02T10:02:08.001Z</time></trkpt><trkpt lat="44.31335245351731" lon="9.466804099043824"><ele>406.0</ele><time>2026-05-02T10:02:10.001Z</time></trkpt><trkpt lat="44.31337228122817" lon="9.466951068991548"><ele>406.0</ele><time>2026-05-02T10:02:12.001Z</time></trkpt><trkpt lat="44.31346664925106" lon="9.467041931568291"><ele>406.0</ele><time>2026-05-02T10:02:14.001Z</time></trkpt><trkpt lat="44.313531762825384" lon="9.46717370901875"><ele>407.83333333333337</ele><time>2026-05-02T10:02:16Z</time></trkpt><trkpt lat="44.313510442698636" lon="9.46727454385642"><ele>409.6666666666667</ele><time>2026-05-02T10:02:17Z</time></trkpt><trkpt lat="44.31346914441011" lon="9.46736956985171"><ele>411.5</ele><time>2026-05-02T10:02:18Z</time></trkpt><trkpt lat="44.31346230645166" lon="9.467520211774087"><ele>413.33333333333337</ele><time>2026-05-02T10:02:20Z</time></trkpt><trkpt lat="44.31350478273803" lon="9.467599043599556"><ele>415.1666666666667</ele><time>2026-05-02T10:02:21Z</time></trkpt><trkpt lat="44.31353125703363" lon="9.467682305347699"><ele>417.0</ele><time>2026-05-02T10:02:22Z</time></trkpt><trkpt lat="44.31355903919955" lon="9.467773410341492"><ele>417.0</ele><time>2026-05-02T10:02:23Z</time></trkpt><trkpt lat="44.3135681521869" lon="9.46793444149495"><ele>417.0</ele><time>2026-05-02T10:02:25Z</time></trkpt><trkpt lat="44.31354469362643" lon="9.46807562936952"><ele>417.0</ele><time>2026-05-02T10:02:27Z</time></trkpt><trkpt lat="44.313514889640764" lon="9.468176304636769"><ele>417.0</ele><time>2026-05-02T10:02:28Z</time></trkpt><trkpt lat="44.313473722384" lon="9.468286508456137"><ele>417.0</ele><time>2026-05-02T10:02:29Z</time></trkpt><trkpt lat="44.313417960997555" lon="9.468404784191568"><ele>419.6</ele><time>2026-05-02T10:02:30Z</time></trkpt><trkpt lat="44.31336728494609" lon="9.468495109785206"><ele>422.20000000000005</ele><time>2026-05-02T10:02:31Z</time></trkpt><trkpt lat="44.313310224517934" lon="9.468590493702925"><ele>424.8</ele><time>2026-05-02T10:02:32Z</time></trkpt><trkpt lat="44.31325611408088" lon="9.468686222868351"><ele>427.4</ele><time>2026-05-02T10:02:33.001Z</time></trkpt><trkpt lat="44.31320001419972" lon="9.468729855229244"><ele>430.0</ele><time>2026-05-02T10:02:34.001Z</time></trkpt><trkpt lat="44.31291107607162" lon="9.469009498988319"><ele>430.0</ele><time>2026-05-02T10:02:37.001Z</time></trkpt><trkpt lat="44.31313254111041" lon="9.468746833396859"><ele>430.0</ele><time>2026-05-02T10:02:40.001Z</time></trkpt><trkpt lat="44.31306780298384" lon="9.468642730081852"><ele>430.0</ele><time>2026-05-02T10:02:46.001Z</time></trkpt><trkpt lat="44.31301114463988" lon="9.468593078224815"><ele>433.2</ele><time>2026-05-02T10:02:48.001Z</time></trkpt><trkpt lat="44.31293922877294" lon="9.468590213727941"><ele>436.4</ele><time>2026-05-02T10:02:50.001Z</time></trkpt><trkpt lat="44.312917792541356" lon="9.468725769760267"><ele>439.6</ele><time>2026-05-02T10:02:52.001Z</time></trkpt><trkpt lat="44.31289767264304" lon="9.468848710789647"><ele>442.8</ele><time>2026-05-02T10:02:54.001Z</time></trkpt><trkpt lat="44.31291004980583" lon="9.469003280626659"><ele>446.0</ele><time>2026-05-02T10:02:56.001Z</time></trkpt><trkpt lat="44.312941536374964" lon="9.469144923305832"><ele>448.49999999999994</ele><time>2026-05-02T10:02:58.001Z</time></trkpt><trkpt lat="44.312978247938105" lon="9.469238570677678"><ele>451.0</ele><time>2026-05-02T10:03:00.001Z</time></trkpt><trkpt lat="44.31301088605274" lon="9.469325329943103"><ele>453.5</ele><time>2026-05-02T10:03:02.001Z</time></trkpt><trkpt lat="44.31306125340456" lon="9.46938584661574"><ele>456.0</ele><time>2026-05-02T10:03:04.001Z</time></trkpt><trkpt lat="44.31303974860885" lon="9.4694846681968"><ele>458.49999999999994</ele><time>2026-05-02T10:03:08.001Z</time></trkpt><trkpt lat="44.312952796820994" lon="9.469455850783822"><ele>461.0</ele><time>2026-05-02T10:03:10.001Z</time></trkpt><trkpt lat="44.312868040488645" lon="9.469444566529708"><ele>461.0</ele><time>2026-05-02T10:03:12.001Z</time></trkpt><trkpt lat="44.31276398827508" lon="9.469378258901159"><ele>461.0</ele><time>2026-05-02T10:03:14.001Z</time></trkpt><trkpt lat="44.312705012434094" lon="9.46930108023836"><ele>461.0</ele><time>2026-05-02T10:03:17.001Z</time></trkpt><trkpt lat="44.31268583911385" lon="9.469185675311941"><ele>461.0</ele><time>2026-05-02T10:03:19.001Z</time></trkpt><trkpt lat="44.312589518320046" lon="9.46908111930789"><ele>461.0</ele><time>2026-05-02T10:03:21.001Z</time></trkpt><trkpt lat="44.312515253786046" lon="9.469090511802305"><ele>461.0</ele><time>2026-05-02T10:03:38.001Z</time></trkpt><trkpt lat="44.312593171213585" lon="9.469098927316047"><ele>461.0</ele><time>2026-05-02T10:03:58.001Z</time></trkpt><trkpt lat="44.31266644967804" lon="9.46916020462703"><ele>461.0</ele><time>2026-05-02T10:04:00.001Z</time></trkpt><trkpt lat="44.31271832551136" lon="9.46937445279964"><ele>461.0</ele><time>2026-05-02T10:04:03.001Z</time></trkpt><trkpt lat="44.31278431750905" lon="9.469408036881683"><ele>461.0</ele><time>2026-05-02T10:04:05.001Z</time></trkpt><trkpt lat="44.31287071318699" lon="9.469433341259629"><ele>461.0</ele><time>2026-05-02T10:04:08.001Z</time></trkpt><trkpt lat="44.3129395277046" lon="9.469460087248962"><ele>461.00000000000006</ele><time>2026-05-02T10:04:12.001Z</time></trkpt><trkpt lat="44.31300905069393" lon="9.469470848724436"><ele>461.0</ele><time>2026-05-02T10:05:05.001Z</time></trkpt><trkpt lat="44.313078045480786" lon="9.469467230670316"><ele>461.0</ele><time>2026-05-02T10:05:08.001Z</time></trkpt><trkpt lat="44.313124586055224" lon="9.469398250117804"><ele>461.00000000000006</ele><time>2026-05-02T10:05:11.001Z</time></trkpt><trkpt lat="44.313080580954946" lon="9.469332840723553"><ele>461.0</ele><time>2026-05-02T10:05:14.001Z</time></trkpt><trkpt lat="44.31301638049527" lon="9.469292996578671"><ele>461.0</ele><time>2026-05-02T10:05:19.001Z</time></trkpt><trkpt lat="44.312986424843224" lon="9.469194610861162"><ele>461.0</ele><time>2026-05-02T10:05:24.001Z</time></trkpt><trkpt lat="44.31296177381369" lon="9.469096901731387"><ele>461.00000000000006</ele><time>2026-05-02T10:05:26.001Z</time></trkpt><trkpt lat="44.312942048183444" lon="9.468987145928452"><ele>461.0</ele><time>2026-05-02T10:05:28.001Z</time></trkpt><trkpt lat="44.31293688784049" lon="9.468891834731275"><ele>461.0</ele><time>2026-05-02T10:05:30.001Z</time></trkpt><trkpt lat="44.31291935731371" lon="9.46879602901759"><ele>461.00000000000006</ele><time>2026-05-02T10:05:34.001Z</time></trkpt><trkpt lat="44.31294599468158" lon="9.468682585309697"><ele>461.0</ele><time>2026-05-02T10:05:37.001Z</time></trkpt><trkpt lat="44.31298841199632" lon="9.468614273205375"><ele>461.0</ele><time>2026-05-02T10:05:41.001Z</time></trkpt><trkpt lat="44.31304350682204" lon="9.468657516709865"><ele>457.0</ele><time>2026-05-02T10:05:44.001Z</time></trkpt><trkpt lat="44.313085528107926" lon="9.468763560802723"><ele>453.0</ele><time>2026-05-02T10:05:47.001Z</time></trkpt><trkpt lat="44.3131614568511" lon="9.468806990340816"><ele>449.0</ele><time>2026-05-02T10:05:52.001Z</time></trkpt><trkpt lat="44.313326343028045" lon="9.468772786403086"><ele>445.0</ele><time>2026-05-02T10:05:58.001Z</time></trkpt><trkpt lat="44.31343060151473" lon="9.468847713103413"><ele>445.0</ele><time>2026-05-02T10:06:00.001Z</time></trkpt><trkpt lat="44.31340509557797" lon="9.469122487854037"><ele>445.0</ele><time>2026-05-02T10:06:01.001Z</time></trkpt><trkpt lat="44.313414399040916" lon="9.46930516422453"><ele>445.0</ele><time>2026-05-02T10:06:03.001Z</time></trkpt><trkpt lat="44.31340743113238" lon="9.469397628983783"><ele>445.0</ele><time>2026-05-02T10:06:04.001Z</time></trkpt><trkpt lat="44.31337603242529" lon="9.469481885258618"><ele>445.0</ele><time>2026-05-02T10:06:05.001Z</time></trkpt><trkpt lat="44.31333533277938" lon="9.469566373069657"><ele>445.0</ele><time>2026-05-02T10:06:06.001Z</time></trkpt><trkpt lat="44.31330551215215" lon="9.469646922103795"><ele>445.0</ele><time>2026-05-02T10:06:07.001Z</time></trkpt><trkpt lat="44.313258081083234" lon="9.469803641956288"><ele>445.0</ele><time>2026-05-02T10:06:09.001Z</time></trkpt><trkpt lat="44.31323399172779" lon="9.469942087671932"><ele>445.0</ele><time>2026-05-02T10:06:11.001Z</time></trkpt><trkpt lat="44.3133131601359" lon="9.470057089438574"><ele>446.0</ele><time>2026-05-02T10:06:13.001Z</time></trkpt><trkpt lat="44.313373616883446" lon="9.470117843698274"><ele>447.0</ele><time>2026-05-02T10:06:14.001Z</time></trkpt><trkpt lat="44.3134506404086" lon="9.470219299942942"><ele>448.0</ele><time>2026-05-02T10:06:16.001Z</time></trkpt><trkpt lat="44.31353757461634" lon="9.470207933192095"><ele>449.0</ele><time>2026-05-02T10:06:18Z</time></trkpt><trkpt lat="44.31361289422194" lon="9.470104790031435"><ele>450.0</ele><time>2026-05-02T10:06:20Z</time></trkpt><trkpt lat="44.31370352435051" lon="9.47007563136312"><ele>450.0</ele><time>2026-05-02T10:06:22Z</time></trkpt><trkpt lat="44.31377086577695" lon="9.470148955045474"><ele>450.0</ele><time>2026-05-02T10:06:24Z</time></trkpt><trkpt lat="44.31385707912109" lon="9.470232707270084"><ele>450.0</ele><time>2026-05-02T10:06:26Z</time></trkpt><trkpt lat="44.31396165614077" lon="9.470301834611739"><ele>450.0</ele><time>2026-05-02T10:06:28Z</time></trkpt><trkpt lat="44.31405281520745" lon="9.470412456132351"><ele>450.0</ele><time>2026-05-02T10:06:30Z</time></trkpt><trkpt lat="44.31413646473446" lon="9.470496825216179"><ele>452.6</ele><time>2026-05-02T10:06:32Z</time></trkpt><trkpt lat="44.3142211725598" lon="9.470513749402434"><ele>455.2</ele><time>2026-05-02T10:06:34Z</time></trkpt><trkpt lat="44.31430545169972" lon="9.470518730890337"><ele>457.79999999999995</ele><time>2026-05-02T10:06:36Z</time></trkpt><trkpt lat="44.31440754432202" lon="9.470588845072811"><ele>460.4</ele><time>2026-05-02T10:06:38Z</time></trkpt><trkpt lat="44.31451924466673" lon="9.470630623754612"><ele>463.0</ele><time>2026-05-02T10:06:40Z</time></trkpt><trkpt lat="44.3145963896913" lon="9.470630524850861"><ele>463.0</ele><time>2026-05-02T10:06:42Z</time></trkpt><trkpt lat="44.31466151575993" lon="9.47060372884923"><ele>462.99999999999994</ele><time>2026-05-02T10:06:44Z</time></trkpt><trkpt lat="44.314743849886256" lon="9.47057782675851"><ele>462.99999999999994</ele><time>2026-05-02T10:06:46Z</time></trkpt><trkpt lat="44.31484658416779" lon="9.470574686945374"><ele>463.0</ele><time>2026-05-02T10:06:48Z</time></trkpt><trkpt lat="44.31494143792186" lon="9.470620811221512"><ele>463.0</ele><time>2026-05-02T10:06:50Z</time></trkpt><trkpt lat="44.315020229814074" lon="9.470701331432714"><ele>463.2</ele><time>2026-05-02T10:06:52Z</time></trkpt><trkpt lat="44.31510514081459" lon="9.470769520373564"><ele>463.4</ele><time>2026-05-02T10:06:54Z</time></trkpt><trkpt lat="44.315185496862405" lon="9.470859324977503"><ele>463.59999999999997</ele><time>2026-05-02T10:06:56Z</time></trkpt><trkpt lat="44.31526357579047" lon="9.470893538003383"><ele>463.79999999999995</ele><time>2026-05-02T10:06:58Z</time></trkpt><trkpt lat="44.31523124259872" lon="9.47103344825706"><ele>464.0</ele><time>2026-05-02T10:07:01Z</time></trkpt><trkpt lat="44.31517133043458" lon="9.471085508342794"><ele>463.99999999999994</ele><time>2026-05-02T10:07:02Z</time></trkpt><trkpt lat="44.315102329218135" lon="9.471173008443934"><ele>464.0</ele><time>2026-05-02T10:07:04Z</time></trkpt><trkpt lat="44.315158227735104" lon="9.471262262738199"><ele>464.0</ele><time>2026-05-02T10:07:07.001Z</time></trkpt><trkpt lat="44.3152374305153" lon="9.47122915978025"><ele>464.0</ele><time>2026-05-02T10:07:09.001Z</time></trkpt><trkpt lat="44.31528680885835" lon="9.471164822399757"><ele>463.99999999999994</ele><time>2026-05-02T10:07:10.001Z</time></trkpt><trkpt lat="44.315364589065396" lon="9.471074748275297"><ele>464.0</ele><time>2026-05-02T10:07:12.001Z</time></trkpt><trkpt lat="44.31546109434332" lon="9.471023864695404"><ele>466.4</ele><time>2026-05-02T10:07:14.001Z</time></trkpt><trkpt lat="44.31558502851232" lon="9.470971736094675"><ele>468.79999999999995</ele><time>2026-05-02T10:07:16.001Z</time></trkpt><trkpt lat="44.315695658590855" lon="9.470936093227335"><ele>471.20000000000005</ele><time>2026-05-02T10:07:18.001Z</time></trkpt><trkpt lat="44.31581432746856" lon="9.470876643498443"><ele>473.6</ele><time>2026-05-02T10:07:20.001Z</time></trkpt><trkpt lat="44.31588181523633" lon="9.470842668021467"><ele>476.0</ele><time>2026-05-02T10:07:21.001Z</time></trkpt><trkpt lat="44.315951855366215" lon="9.470788125789118"><ele>476.0</ele><time>2026-05-02T10:07:22.001Z</time></trkpt><trkpt lat="44.31605652910607" lon="9.4707769104521"><ele>476.0</ele><time>2026-05-02T10:07:24.001Z</time></trkpt><trkpt lat="44.31609848825455" lon="9.470954035647662"><ele>476.0</ele><time>2026-05-02T10:07:26.001Z</time></trkpt><trkpt lat="44.31611215484017" lon="9.471057342417957"><ele>476.0</ele><time>2026-05-02T10:07:27.001Z</time></trkpt><trkpt lat="44.31615382862039" lon="9.471181297941724"><ele>476.0</ele><time>2026-05-02T10:07:29.001Z</time></trkpt><trkpt lat="44.31614860225619" lon="9.471273958288906"><ele>480.4</ele><time>2026-05-02T10:07:32.001Z</time></trkpt><trkpt lat="44.31605635793511" lon="9.471337479448698"><ele>484.8</ele><time>2026-05-02T10:07:35.001Z</time></trkpt><trkpt lat="44.3159249079106" lon="9.471325623428234"><ele>489.19999999999993</ele><time>2026-05-02T10:07:37.001Z</time></trkpt><trkpt lat="44.31583171110308" lon="9.471346236189126"><ele>493.59999999999997</ele><time>2026-05-02T10:07:38.001Z</time></trkpt><trkpt lat="44.31574369678562" lon="9.471399920038008"><ele>498.0</ele><time>2026-05-02T10:07:39.001Z</time></trkpt><trkpt lat="44.315672194978376" lon="9.471460183540609"><ele>498.0</ele><time>2026-05-02T10:07:40.001Z</time></trkpt><trkpt lat="44.315617588882795" lon="9.471603885493607"><ele>497.99999999999994</ele><time>2026-05-02T10:07:42.001Z</time></trkpt><trkpt lat="44.31560342254699" lon="9.471695364434527"><ele>497.99999999999994</ele><time>2026-05-02T10:07:43.001Z</time></trkpt><trkpt lat="44.31557370309519" lon="9.471852613731338"><ele>498.0</ele><time>2026-05-02T10:07:45.001Z</time></trkpt><trkpt lat="44.31554328267998" lon="9.471974695092186"><ele>498.0</ele><time>2026-05-02T10:07:47.001Z</time></trkpt><trkpt lat="44.315502993682934" lon="9.472046792630108"><ele>500.1666666666667</ele><time>2026-05-02T10:07:49.001Z</time></trkpt><trkpt lat="44.31547453257445" lon="9.472151877176213"><ele>502.33333333333337</ele><time>2026-05-02T10:08:25Z</time></trkpt><trkpt lat="44.31538106355556" lon="9.472233326840945"><ele>504.5</ele><time>2026-05-02T10:08:28Z</time></trkpt><trkpt lat="44.31528527897883" lon="9.472327529136955"><ele>506.6666666666667</ele><time>2026-05-02T10:08:30Z</time></trkpt><trkpt lat="44.315226978248106" lon="9.472371794779695"><ele>508.83333333333337</ele><time>2026-05-02T10:08:31Z</time></trkpt><trkpt lat="44.31516894279127" lon="9.472407699595323"><ele>511.0</ele><time>2026-05-02T10:08:32Z</time></trkpt><trkpt lat="44.315104999846426" lon="9.472477371366704"><ele>511.00000000000006</ele><time>2026-05-02T10:08:34Z</time></trkpt><trkpt lat="44.3151767696895" lon="9.472524864008864"><ele>511.0</ele><time>2026-05-02T10:08:45Z</time></trkpt><trkpt lat="44.31524596254274" lon="9.472482906016996"><ele>511.0</ele><time>2026-05-02T10:08:46Z</time></trkpt><trkpt lat="44.31531415796906" lon="9.472452256455803"><ele>511.0</ele><time>2026-05-02T10:08:47Z</time></trkpt><trkpt lat="44.31539176770823" lon="9.472430649635974"><ele>511.00000000000006</ele><time>2026-05-02T10:08:48Z</time></trkpt><trkpt lat="44.31547903142898" lon="9.472401829739372"><ele>511.0</ele><time>2026-05-02T10:08:49Z</time></trkpt><trkpt lat="44.31557112220296" lon="9.472380676223555"><ele>513.8333333333334</ele><time>2026-05-02T10:08:50Z</time></trkpt><trkpt lat="44.31566537397887" lon="9.47234012441278"><ele>516.6666666666667</ele><time>2026-05-02T10:08:51Z</time></trkpt><trkpt lat="44.31573903818275" lon="9.472282099469922"><ele>519.5</ele><time>2026-05-02T10:08:52Z</time></trkpt><trkpt lat="44.315806261972284" lon="9.472205280163504"><ele>522.3333333333334</ele><time>2026-05-02T10:08:53Z</time></trkpt><trkpt lat="44.31586563182958" lon="9.47215854216376"><ele>525.1666666666666</ele><time>2026-05-02T10:08:54Z</time></trkpt><trkpt lat="44.315973948149825" lon="9.472192894544756"><ele>528.0</ele><time>2026-05-02T10:08:56Z</time></trkpt><trkpt lat="44.316037782040596" lon="9.472266740852428"><ele>528.0</ele><time>2026-05-02T10:08:57Z</time></trkpt><trkpt lat="44.31608861213997" lon="9.472355431914055"><ele>528.0</ele><time>2026-05-02T10:08:58Z</time></trkpt><trkpt lat="44.31615549241947" lon="9.472432770574283"><ele>528.0</ele><time>2026-05-02T10:08:59Z</time></trkpt><trkpt lat="44.31622210188031" lon="9.472499270741695"><ele>528.0</ele><time>2026-05-02T10:09:00Z</time></trkpt><trkpt lat="44.31628416574122" lon="9.472526402617637"><ele>528.0</ele><time>2026-05-02T10:09:01Z</time></trkpt><trkpt lat="44.31637188874192" lon="9.472531043555165"><ele>528.0</ele><time>2026-05-02T10:09:02Z</time></trkpt><trkpt lat="44.31646659015281" lon="9.472530384292302"><ele>528.1666666666666</ele><time>2026-05-02T10:09:03Z</time></trkpt><trkpt lat="44.316566791225675" lon="9.472516472971122"><ele>528.3333333333334</ele><time>2026-05-02T10:09:04Z</time></trkpt><trkpt lat="44.31665949859206" lon="9.472506775315322"><ele>528.5</ele><time>2026-05-02T10:09:05Z</time></trkpt><trkpt lat="44.316748630056665" lon="9.47250179871649"><ele>528.6666666666667</ele><time>2026-05-02T10:09:06Z</time></trkpt><trkpt lat="44.31681963904501" lon="9.472521841802935"><ele>528.8333333333334</ele><time>2026-05-02T10:09:07Z</time></trkpt><trkpt lat="44.316895456341165" lon="9.472548274249665"><ele>529.0</ele><time>2026-05-02T10:09:08Z</time></trkpt><trkpt lat="44.31696841391311" lon="9.472544738612354"><ele>529.0</ele><time>2026-05-02T10:09:09Z</time></trkpt><trkpt lat="44.31703450970173" lon="9.47253489406701"><ele>529.0</ele><time>2026-05-02T10:09:10Z</time></trkpt><trkpt lat="44.31713811542447" lon="9.472555312229332"><ele>529.0</ele><time>2026-05-02T10:09:12Z</time></trkpt><trkpt lat="44.31719600774177" lon="9.472696401579947"><ele>529.0</ele><time>2026-05-02T10:09:14Z</time></trkpt><trkpt lat="44.31723633214112" lon="9.472777836072533"><ele>529.0</ele><time>2026-05-02T10:09:15Z</time></trkpt><trkpt lat="44.317275816117274" lon="9.472862059296789"><ele>529.0</ele><time>2026-05-02T10:09:16Z</time></trkpt><trkpt lat="44.31732783727424" lon="9.472946923555563"><ele>534.1666666666667</ele><time>2026-05-02T10:09:17Z</time></trkpt><trkpt lat="44.317432810461334" lon="9.473035705118582"><ele>539.3333333333334</ele><time>2026-05-02T10:09:19.001Z</time></trkpt><trkpt lat="44.317546098344344" lon="9.473034623463318"><ele>544.5</ele><time>2026-05-02T10:09:21.001Z</time></trkpt><trkpt lat="44.317613834271064" lon="9.473060857488212"><ele>549.6666666666666</ele><time>2026-05-02T10:09:22.001Z</time></trkpt><trkpt lat="44.31768371157508" lon="9.473073653690017"><ele>554.8333333333333</ele><time>2026-05-02T10:09:23.001Z</time></trkpt><trkpt lat="44.317748011246444" lon="9.473055299779375"><ele>560.0</ele><time>2026-05-02T10:09:24.001Z</time></trkpt><trkpt lat="44.31780776232182" lon="9.473022337638731"><ele>560.0</ele><time>2026-05-02T10:09:25.001Z</time></trkpt><trkpt lat="44.31787294924192" lon="9.47297243907512"><ele>560.0</ele><time>2026-05-02T10:09:26.001Z</time></trkpt><trkpt lat="44.317932356130015" lon="9.472934025160681"><ele>560.0</ele><time>2026-05-02T10:09:27.001Z</time></trkpt><trkpt lat="44.317998032294796" lon="9.472904113426003"><ele>560.0</ele><time>2026-05-02T10:09:28.001Z</time></trkpt><trkpt lat="44.31806622836284" lon="9.472901712676785"><ele>560.0</ele><time>2026-05-02T10:09:29.001Z</time></trkpt><trkpt lat="44.31814997288653" lon="9.472922093199493"><ele>560.0</ele><time>2026-05-02T10:09:30.001Z</time></trkpt><trkpt lat="44.318218067215994" lon="9.47289159861539"><ele>560.0</ele><time>2026-05-02T10:09:31.001Z</time></trkpt><trkpt lat="44.318305267417955" lon="9.47288135625773"><ele>560.3333333333333</ele><time>2026-05-02T10:09:32.001Z</time></trkpt><trkpt lat="44.31838324720415" lon="9.472833489451707"><ele>560.6666666666666</ele><time>2026-05-02T10:09:33.001Z</time></trkpt><trkpt lat="44.31846498393273" lon="9.47278264101195"><ele>561.0</ele><time>2026-05-02T10:09:34.001Z</time></trkpt><trkpt lat="44.3185465246424" lon="9.472752430629328"><ele>561.3333333333334</ele><time>2026-05-02T10:09:35.001Z</time></trkpt><trkpt lat="44.31862637011692" lon="9.472732994320426"><ele>561.6666666666667</ele><time>2026-05-02T10:09:36.001Z</time></trkpt><trkpt lat="44.31871051949903" lon="9.472735844404937"><ele>562.0</ele><time>2026-05-02T10:09:38.001Z</time></trkpt><trkpt lat="44.318617522095174" lon="9.472884731750424"><ele>562.0</ele><time>2026-05-02T10:09:43.001Z</time></trkpt><trkpt lat="44.31854118827914" lon="9.472924097383393"><ele>562.0</ele><time>2026-05-02T10:09:44.001Z</time></trkpt><trkpt lat="44.31844492803533" lon="9.473005109204971"><ele>562.0</ele><time>2026-05-02T10:09:45.001Z</time></trkpt><trkpt lat="44.318374343677476" lon="9.473061950209772"><ele>562.0</ele><time>2026-05-02T10:09:46.001Z</time></trkpt><trkpt lat="44.31828294515306" lon="9.473129905573563"><ele>562.0</ele><time>2026-05-02T10:09:48.001Z</time></trkpt><trkpt lat="44.31837865259488" lon="9.47324962397152"><ele>565.8000000000001</ele><time>2026-05-02T10:09:54.001Z</time></trkpt><trkpt lat="44.31847136200886" lon="9.47319574760522"><ele>569.6</ele><time>2026-05-02T10:09:56.001Z</time></trkpt><trkpt lat="44.318528909189936" lon="9.473155530777634"><ele>573.4000000000001</ele><time>2026-05-02T10:09:58.001Z</time></trkpt><trkpt lat="44.3186071445016" lon="9.473087521305631"><ele>577.2</ele><time>2026-05-02T10:10:06.001Z</time></trkpt><trkpt lat="44.31873258815036" lon="9.473059455892567"><ele>581.0</ele><time>2026-05-02T10:10:08.001Z</time></trkpt><trkpt lat="44.31880701873042" lon="9.473048258091431"><ele>581.0</ele><time>2026-05-02T10:10:09.001Z</time></trkpt><trkpt lat="44.3188746251616" lon="9.473034040459858"><ele>581.0</ele><time>2026-05-02T10:10:10.001Z</time></trkpt><trkpt lat="44.31894989730824" lon="9.473055160623874"><ele>581.0</ele><time>2026-05-02T10:10:11.001Z</time></trkpt><trkpt lat="44.319013271050714" lon="9.473069431230265"><ele>581.0</ele><time>2026-05-02T10:10:12.001Z</time></trkpt><trkpt lat="44.318971810935004" lon="9.473211157917039"><ele>581.0</ele><time>2026-05-02T10:10:23.001Z</time></trkpt><trkpt lat="44.3188891923456" lon="9.473203848398875"><ele>581.0</ele><time>2026-05-02T10:10:26.001Z</time></trkpt><trkpt lat="44.3188232931541" lon="9.473226078372683"><ele>581.0</ele><time>2026-05-02T10:10:28.001Z</time></trkpt><trkpt lat="44.31872968556003" lon="9.473306347952779"><ele>581.0</ele><time>2026-05-02T10:10:30Z</time></trkpt><trkpt lat="44.31867204207903" lon="9.47335029464602"><ele>581.0</ele><time>2026-05-02T10:10:31Z</time></trkpt><trkpt lat="44.31861327443449" lon="9.473423406814714"><ele>581.0</ele><time>2026-05-02T10:10:33Z</time></trkpt><trkpt lat="44.31865151502036" lon="9.473351910694626"><ele>581.0</ele><time>2026-05-02T10:11:37.001Z</time></trkpt><trkpt lat="44.31883742493733" lon="9.473431416910918"><ele>586.0</ele><time>2026-05-02T10:12:04.001Z</time></trkpt><trkpt lat="44.31892538342356" lon="9.47339544450473"><ele>591.0</ele><time>2026-05-02T10:12:05.001Z</time></trkpt><trkpt lat="44.319040055904296" lon="9.473455353388712"><ele>596.0</ele><time>2026-05-02T10:12:07.001Z</time></trkpt><trkpt lat="44.319154888313165" lon="9.473500590676373"><ele>601.0</ele><time>2026-05-02T10:12:09.001Z</time></trkpt><trkpt lat="44.31924685802399" lon="9.473522906252462"><ele>606.0</ele><time>2026-05-02T10:12:11.001Z</time></trkpt><trkpt lat="44.3193369735556" lon="9.473491732572175"><ele>606.0</ele><time>2026-05-02T10:12:14.001Z</time></trkpt><trkpt lat="44.319407099205925" lon="9.473464756302107"><ele>606.0</ele><time>2026-05-02T10:12:16.001Z</time></trkpt><trkpt lat="44.31949454858709" lon="9.473490110127264"><ele>606.0</ele><time>2026-05-02T10:12:18.001Z</time></trkpt><trkpt lat="44.31957422069704" lon="9.47351489257421"><ele>606.0</ele><time>2026-05-02T10:12:20.001Z</time></trkpt><trkpt lat="44.31967732114384" lon="9.473548130744188"><ele>606.0</ele><time>2026-05-02T10:12:22.001Z</time></trkpt><trkpt lat="44.319738703424946" lon="9.47357043785656"><ele>606.0</ele><time>2026-05-02T10:12:23.001Z</time></trkpt><trkpt lat="44.319807003543865" lon="9.473593462505438"><ele>609.1666666666666</ele><time>2026-05-02T10:12:24.001Z</time></trkpt><trkpt lat="44.3198928311723" lon="9.473613300664356"><ele>612.3333333333334</ele><time>2026-05-02T10:12:25.001Z</time></trkpt><trkpt lat="44.32001130969399" lon="9.473619040413562"><ele>615.5</ele><time>2026-05-02T10:12:27.001Z</time></trkpt><trkpt lat="44.32007790730797" lon="9.47360753711278"><ele>618.6666666666667</ele><time>2026-05-02T10:12:33.001Z</time></trkpt><trkpt lat="44.32016630872338" lon="9.473562903900211"><ele>621.8333333333334</ele><time>2026-05-02T10:12:35Z</time></trkpt><trkpt lat="44.32021328717871" lon="9.473479694549285"><ele>625.0</ele><time>2026-05-02T10:12:36Z</time></trkpt><trkpt lat="44.320269285661226" lon="9.47342558281813"><ele>625.0</ele><time>2026-05-02T10:12:37Z</time></trkpt><trkpt lat="44.3203824858611" lon="9.473407079830181"><ele>625.0</ele><time>2026-05-02T10:12:39Z</time></trkpt><trkpt lat="44.320447937014926" lon="9.473397106762205"><ele>625.0</ele><time>2026-05-02T10:12:40Z</time></trkpt><trkpt lat="44.32051578062725" lon="9.473377618370717"><ele>625.0</ele><time>2026-05-02T10:12:41Z</time></trkpt><trkpt lat="44.32065297531635" lon="9.473319386314635"><ele>625.0</ele><time>2026-05-02T10:12:43Z</time></trkpt><trkpt lat="44.32074784342478" lon="9.473281528775354"><ele>629.0</ele><time>2026-05-02T10:12:44Z</time></trkpt><trkpt lat="44.32083813894435" lon="9.473257663947933"><ele>633.0</ele><time>2026-05-02T10:12:45Z</time></trkpt><trkpt lat="44.320902910765284" lon="9.473260061433725"><ele>637.0</ele><time>2026-05-02T10:12:46Z</time></trkpt><trkpt lat="44.32094652378213" lon="9.47332745218459"><ele>641.0</ele><time>2026-05-02T10:12:50Z</time></trkpt><trkpt lat="44.320881291860516" lon="9.473358406551359"><ele>645.0</ele><time>2026-05-02T10:12:52Z</time></trkpt><trkpt lat="44.32078712312561" lon="9.473422439121538"><ele>649.0</ele><time>2026-05-02T10:12:54Z</time></trkpt><trkpt lat="44.32073452024575" lon="9.473479110237076"><ele>649.0</ele><time>2026-05-02T10:12:55Z</time></trkpt><trkpt lat="44.32066480371584" lon="9.473533369038476"><ele>649.0</ele><time>2026-05-02T10:12:56Z</time></trkpt><trkpt lat="44.32059372670517" lon="9.473584945058205"><ele>649.0</ele><time>2026-05-02T10:12:57Z</time></trkpt><trkpt lat="44.32051595657601" lon="9.473642069838961"><ele>649.0</ele><time>2026-05-02T10:12:58Z</time></trkpt><trkpt lat="44.32044322914818" lon="9.473695490580583"><ele>649.0</ele><time>2026-05-02T10:12:59Z</time></trkpt><trkpt lat="44.32038822021349" lon="9.473765417812864"><ele>649.0</ele><time>2026-05-02T10:13:00Z</time></trkpt><trkpt lat="44.3203119303219" lon="9.473848618963519"><ele>650.6666666666667</ele><time>2026-05-02T10:13:01Z</time></trkpt><trkpt lat="44.32022969311736" lon="9.47396971274511"><ele>652.3333333333334</ele><time>2026-05-02T10:13:02Z</time></trkpt><trkpt lat="44.32015610143551" lon="9.474053221347392"><ele>654.0</ele><time>2026-05-02T10:13:03Z</time></trkpt><trkpt lat="44.32011146170918" lon="9.474135698474587"><ele>655.6666666666666</ele><time>2026-05-02T10:13:04Z</time></trkpt><trkpt lat="44.32004189345634" lon="9.474174615850584"><ele>657.3333333333333</ele><time>2026-05-02T10:13:05Z</time></trkpt><trkpt lat="44.31997837404138" lon="9.474185588699832"><ele>659.0</ele><time>2026-05-02T10:13:06Z</time></trkpt><trkpt lat="44.3198612425449" lon="9.474137299663118"><ele>659.0</ele><time>2026-05-02T10:13:08Z</time></trkpt><trkpt lat="44.3197790223261" lon="9.474143608391206"><ele>659.0</ele><time>2026-05-02T10:13:09Z</time></trkpt><trkpt lat="44.31967980683342" lon="9.474165716157016"><ele>659.0</ele><time>2026-05-02T10:13:11Z</time></trkpt><trkpt lat="44.319606670199875" lon="9.474248340223044"><ele>659.0</ele><time>2026-05-02T10:13:13Z</time></trkpt><trkpt lat="44.31957209031932" lon="9.474331312650152"><ele>659.0</ele><time>2026-05-02T10:13:14Z</time></trkpt><trkpt lat="44.319557060134265" lon="9.474444460000592"><ele>659.0</ele><time>2026-05-02T10:13:15Z</time></trkpt><trkpt lat="44.319531904064384" lon="9.474557669258568"><ele>663.4000000000001</ele><time>2026-05-02T10:13:16Z</time></trkpt><trkpt lat="44.31951566887365" lon="9.47469613108574"><ele>667.8</ele><time>2026-05-02T10:13:17Z</time></trkpt><trkpt lat="44.31947518589459" lon="9.474815421564902"><ele>672.2</ele><time>2026-05-02T10:13:18Z</time></trkpt><trkpt lat="44.31939819214481" lon="9.474910049216978"><ele>676.5999999999999</ele><time>2026-05-02T10:13:20Z</time></trkpt><trkpt lat="44.31930105360298" lon="9.474977714484927"><ele>681.0</ele><time>2026-05-02T10:13:22Z</time></trkpt><trkpt lat="44.31923029424828" lon="9.47501128414332"><ele>681.0</ele><time>2026-05-02T10:13:23Z</time></trkpt><trkpt lat="44.31908937450467" lon="9.475047022510038"><ele>681.0</ele><time>2026-05-02T10:13:25Z</time></trkpt><trkpt lat="44.31902074620978" lon="9.47506022963521"><ele>681.0</ele><time>2026-05-02T10:13:26Z</time></trkpt><trkpt lat="44.31890848235356" lon="9.475062348302822"><ele>681.0</ele><time>2026-05-02T10:13:28Z</time></trkpt><trkpt lat="44.318812410012356" lon="9.4750013072311"><ele>681.0</ele><time>2026-05-02T10:13:30Z</time></trkpt><trkpt lat="44.318765584327444" lon="9.47491889724064"><ele>680.8333333333334</ele><time>2026-05-02T10:13:31.001Z</time></trkpt><trkpt lat="44.31870794177263" lon="9.47487344140385"><ele>680.6666666666666</ele><time>2026-05-02T10:13:32.001Z</time></trkpt><trkpt lat="44.31862548266704" lon="9.47487941262754"><ele>680.5</ele><time>2026-05-02T10:13:33.001Z</time></trkpt><trkpt lat="44.31853344395417" lon="9.47491791591999"><ele>680.3333333333333</ele><time>2026-05-02T10:13:34.001Z</time></trkpt><trkpt lat="44.31844600996642" lon="9.475017973373568"><ele>680.1666666666666</ele><time>2026-05-02T10:13:35.001Z</time></trkpt><trkpt lat="44.318381735755075" lon="9.475058875366297"><ele>680.0</ele><time>2026-05-02T10:13:36.001Z</time></trkpt><trkpt lat="44.31830303799783" lon="9.475104234521542"><ele>680.0</ele><time>2026-05-02T10:13:37.001Z</time></trkpt><trkpt lat="44.31821109463696" lon="9.475160117805578"><ele>680.0</ele><time>2026-05-02T10:13:38.001Z</time></trkpt><trkpt lat="44.31812949283078" lon="9.475218623027084"><ele>680.0</ele><time>2026-05-02T10:13:39.001Z</time></trkpt><trkpt lat="44.31805510707416" lon="9.475283626368071"><ele>680.0</ele><time>2026-05-02T10:13:40.001Z</time></trkpt><trkpt lat="44.31799815555497" lon="9.475363203976"><ele>680.0</ele><time>2026-05-02T10:13:41.001Z</time></trkpt><trkpt lat="44.317952925874785" lon="9.47543894755572"><ele>680.0</ele><time>2026-05-02T10:13:42.001Z</time></trkpt><trkpt lat="44.31792941292322" lon="9.475521514701695"><ele>683.3333333333333</ele><time>2026-05-02T10:13:43.001Z</time></trkpt><trkpt lat="44.31790879322334" lon="9.475631794561941"><ele>686.6666666666666</ele><time>2026-05-02T10:13:44.001Z</time></trkpt><trkpt lat="44.3178726220185" lon="9.475739870767029"><ele>690.0</ele><time>2026-05-02T10:13:45.001Z</time></trkpt><trkpt lat="44.317813369727816" lon="9.475823183509995"><ele>693.3333333333334</ele><time>2026-05-02T10:13:46.001Z</time></trkpt><trkpt lat="44.31772112291873" lon="9.475927199865223"><ele>696.6666666666667</ele><time>2026-05-02T10:13:48.001Z</time></trkpt><trkpt lat="44.317661614460974" lon="9.475985019950528"><ele>700.0</ele><time>2026-05-02T10:13:49.001Z</time></trkpt><trkpt lat="44.31758859999223" lon="9.47596182916596"><ele>700.0</ele><time>2026-05-02T10:13:50.001Z</time></trkpt><trkpt lat="44.31751680059743" lon="9.476002580955546"><ele>700.0</ele><time>2026-05-02T10:13:51.001Z</time></trkpt><trkpt lat="44.317490930419105" lon="9.476123409632699"><ele>700.0</ele><time>2026-05-02T10:13:52.001Z</time></trkpt><trkpt lat="44.31745938228869" lon="9.476215701490819"><ele>700.0</ele><time>2026-05-02T10:13:53.001Z</time></trkpt><trkpt lat="44.31742225742435" lon="9.476327250621107"><ele>700.0</ele><time>2026-05-02T10:13:54.001Z</time></trkpt><trkpt lat="44.31738098475295" lon="9.476393737240006"><ele>700.0</ele><time>2026-05-02T10:13:55.001Z</time></trkpt><trkpt lat="44.31733988085596" lon="9.476460680470094"><ele>700.8</ele><time>2026-05-02T10:13:56.001Z</time></trkpt><trkpt lat="44.31727598558939" lon="9.47644479737742"><ele>701.6</ele><time>2026-05-02T10:13:58.001Z</time></trkpt><trkpt lat="44.31720580828602" lon="9.47638107297212"><ele>702.4000000000001</ele><time>2026-05-02T10:14:00.001Z</time></trkpt><trkpt lat="44.31708243183617" lon="9.476295027620296"><ele>703.2</ele><time>2026-05-02T10:14:02.001Z</time></trkpt><trkpt lat="44.31699397013533" lon="9.476235757999534"><ele>704.0</ele><time>2026-05-02T10:14:03.001Z</time></trkpt><trkpt lat="44.31691541631756" lon="9.47620530965721"><ele>704.0</ele><time>2026-05-02T10:14:04.001Z</time></trkpt><trkpt lat="44.31684034292239" lon="9.476237639563646"><ele>704.0</ele><time>2026-05-02T10:14:05.001Z</time></trkpt><trkpt lat="44.316789264597865" lon="9.476385161528016"><ele>704.0</ele><time>2026-05-02T10:14:06.001Z</time></trkpt><trkpt lat="44.31672292697428" lon="9.476448751149219"><ele>704.0</ele><time>2026-05-02T10:14:07.001Z</time></trkpt><trkpt lat="44.31664040630982" lon="9.476475340852433"><ele>704.0</ele><time>2026-05-02T10:14:08.001Z</time></trkpt><trkpt lat="44.31653702008174" lon="9.47646025387241"><ele>703.3333333333333</ele><time>2026-05-02T10:14:09.001Z</time></trkpt><trkpt lat="44.31646085396756" lon="9.476382457064538"><ele>702.6666666666666</ele><time>2026-05-02T10:14:10.001Z</time></trkpt><trkpt lat="44.316396340558256" lon="9.476325217757871"><ele>702.0</ele><time>2026-05-02T10:14:11.001Z</time></trkpt><trkpt lat="44.316351309460096" lon="9.476252678556131"><ele>701.3333333333334</ele><time>2026-05-02T10:14:12.001Z</time></trkpt><trkpt lat="44.31628067590183" lon="9.476176067285241"><ele>700.6666666666667</ele><time>2026-05-02T10:14:13.001Z</time></trkpt><trkpt lat="44.31622277379711" lon="9.47613175934149"><ele>700.0</ele><time>2026-05-02T10:14:14.001Z</time></trkpt><trkpt lat="44.316124638942476" lon="9.476215185922243"><ele>704.8333333333334</ele><time>2026-05-02T10:14:16.001Z</time></trkpt><trkpt lat="44.3161287643227" lon="9.476312659208855"><ele>709.6666666666667</ele><time>2026-05-02T10:14:17.001Z</time></trkpt><trkpt lat="44.31607010838731" lon="9.476462131547269"><ele>714.5</ele><time>2026-05-02T10:14:19.001Z</time></trkpt><trkpt lat="44.31604695123711" lon="9.476577419716753"><ele>719.3333333333334</ele><time>2026-05-02T10:14:20.001Z</time></trkpt><trkpt lat="44.31602030063217" lon="9.476689464448388"><ele>724.1666666666666</ele><time>2026-05-02T10:14:21.001Z</time></trkpt><trkpt lat="44.31598179330879" lon="9.47676683835955"><ele>729.0</ele><time>2026-05-02T10:14:22.001Z</time></trkpt><trkpt lat="44.31594108436701" lon="9.476881255581212"><ele>729.0</ele><time>2026-05-02T10:14:23.001Z</time></trkpt><trkpt lat="44.315906381699925" lon="9.477009702906328"><ele>729.0</ele><time>2026-05-02T10:14:24.001Z</time></trkpt><trkpt lat="44.31590383340919" lon="9.477110999829698"><ele>729.0</ele><time>2026-05-02T10:14:25.001Z</time></trkpt><trkpt lat="44.31588557225006" lon="9.477201338872051"><ele>729.0</ele><time>2026-05-02T10:14:27.001Z</time></trkpt><trkpt lat="44.31599726928463" lon="9.477175549360954"><ele>729.0</ele><time>2026-05-02T10:14:30.001Z</time></trkpt><trkpt lat="44.31604373811056" lon="9.477092614934921"><ele>729.0</ele><time>2026-05-02T10:14:31.001Z</time></trkpt><trkpt lat="44.3161395992149" lon="9.477006001070011"><ele>729.0</ele><time>2026-05-02T10:14:33.001Z</time></trkpt><trkpt lat="44.31620635305007" lon="9.476953426910192"><ele>729.0</ele><time>2026-05-02T10:14:34.001Z</time></trkpt><trkpt lat="44.31629660479456" lon="9.476916767146154"><ele>729.0</ele><time>2026-05-02T10:14:35.001Z</time></trkpt><trkpt lat="44.31637797579304" lon="9.476936923568848"><ele>729.0</ele><time>2026-05-02T10:14:36.001Z</time></trkpt><trkpt lat="44.31646373223385" lon="9.476973035329326"><ele>729.0</ele><time>2026-05-02T10:14:37.001Z</time></trkpt><trkpt lat="44.31654867809957" lon="9.477007593220831"><ele>729.0</ele><time>2026-05-02T10:14:38.001Z</time></trkpt><trkpt lat="44.31662128603806" lon="9.477022437110078"><ele>731.8333333333334</ele><time>2026-05-02T10:14:39.001Z</time></trkpt><trkpt lat="44.31668769683044" lon="9.477046823518112"><ele>734.6666666666666</ele><time>2026-05-02T10:14:40.001Z</time></trkpt><trkpt lat="44.31676206121833" lon="9.477069587953476"><ele>737.5</ele><time>2026-05-02T10:14:41Z</time></trkpt><trkpt lat="44.316864276005894" lon="9.477119559446413"><ele>740.3333333333333</ele><time>2026-05-02T10:14:42Z</time></trkpt><trkpt lat="44.316949048889256" lon="9.477167415783375"><ele>743.1666666666666</ele><time>2026-05-02T10:14:43Z</time></trkpt><trkpt lat="44.31702975808836" lon="9.477226800342686"><ele>746.0</ele><time>2026-05-02T10:14:45Z</time></trkpt><trkpt lat="44.317052455047225" lon="9.477318869402609"><ele>752.4</ele><time>2026-05-02T10:14:48Z</time></trkpt><trkpt lat="44.316953721549424" lon="9.477259830800644"><ele>758.8</ele><time>2026-05-02T10:14:50Z</time></trkpt><trkpt lat="44.316879651580436" lon="9.47725499559354"><ele>765.1999999999999</ele><time>2026-05-02T10:14:51Z</time></trkpt><trkpt lat="44.31680286439553" lon="9.47724432091503"><ele>771.5999999999999</ele><time>2026-05-02T10:14:52Z</time></trkpt><trkpt lat="44.316713330720916" lon="9.47726797481035"><ele>778.0</ele><time>2026-05-02T10:14:53Z</time></trkpt><trkpt lat="44.31662023611672" lon="9.477322499197339"><ele>778.0</ele><time>2026-05-02T10:14:54Z</time></trkpt><trkpt lat="44.316528106478515" lon="9.477386769085388"><ele>778.0</ele><time>2026-05-02T10:14:55Z</time></trkpt><trkpt lat="44.316435217604706" lon="9.477447272776224"><ele>778.0</ele><time>2026-05-02T10:14:56Z</time></trkpt><trkpt lat="44.31634399159279" lon="9.4775333286288"><ele>778.0</ele><time>2026-05-02T10:14:57Z</time></trkpt><trkpt lat="44.31625943764553" lon="9.477649390608736"><ele>778.0</ele><time>2026-05-02T10:14:58Z</time></trkpt><trkpt lat="44.31616728807922" lon="9.47779915844887"><ele>780.75</ele><time>2026-05-02T10:14:59Z</time></trkpt><trkpt lat="44.316070613643944" lon="9.477960114585136"><ele>783.5</ele><time>2026-05-02T10:15:00Z</time></trkpt><trkpt lat="44.31598011644429" lon="9.478113955432631"><ele>786.25</ele><time>2026-05-02T10:15:01Z</time></trkpt><trkpt lat="44.31589500150274" lon="9.478256299618277"><ele>789.0</ele><time>2026-05-02T10:15:02Z</time></trkpt><trkpt lat="44.315797283425105" lon="9.47839571584458"><ele>789.0</ele><time>2026-05-02T10:15:03Z</time></trkpt><trkpt lat="44.3157087769171" lon="9.47852211797608"><ele>789.0</ele><time>2026-05-02T10:15:04Z</time></trkpt><trkpt lat="44.31563956628068" lon="9.4786278420315"><ele>789.0</ele><time>2026-05-02T10:15:05Z</time></trkpt><trkpt lat="44.31559145840769" lon="9.478719731388642"><ele>789.0</ele><time>2026-05-02T10:15:06Z</time></trkpt><trkpt lat="44.31550669392123" lon="9.478848598694617"><ele>789.0</ele><time>2026-05-02T10:15:08Z</time></trkpt><trkpt lat="44.315422661875466" lon="9.478900849415078"><ele>790.8333333333334</ele><time>2026-05-02T10:15:09Z</time></trkpt><trkpt lat="44.315348388650534" lon="9.478942338267126"><ele>792.6666666666667</ele><time>2026-05-02T10:15:10Z</time></trkpt><trkpt lat="44.31527102238335" lon="9.479064585092113"><ele>794.5</ele><time>2026-05-02T10:15:12Z</time></trkpt><trkpt lat="44.315242009132504" lon="9.479162728195766"><ele>796.3333333333334</ele><time>2026-05-02T10:15:13Z</time></trkpt><trkpt lat="44.31526171923866" lon="9.479263815398728"><ele>798.1666666666667</ele><time>2026-05-02T10:15:15Z</time></trkpt><trkpt lat="44.31530055420272" lon="9.479151122325323"><ele>800.0</ele><time>2026-05-02T10:15:18Z</time></trkpt><trkpt lat="44.31538586994828" lon="9.479131272773618"><ele>800.0</ele><time>2026-05-02T10:15:20Z</time></trkpt><trkpt lat="44.31545982732134" lon="9.479101598169787"><ele>800.0</ele><time>2026-05-02T10:15:21Z</time></trkpt><trkpt lat="44.31554077212312" lon="9.479058083750875"><ele>800.0</ele><time>2026-05-02T10:15:22Z</time></trkpt><trkpt lat="44.315615058892305" lon="9.479047666987825"><ele>800.0</ele><time>2026-05-02T10:15:23Z</time></trkpt><trkpt lat="44.31573412120278" lon="9.478963294952038"><ele>800.0</ele><time>2026-05-02T10:15:25Z</time></trkpt><trkpt lat="44.3158155747108" lon="9.478945538350084"><ele>798.1666666666667</ele><time>2026-05-02T10:15:26Z</time></trkpt><trkpt lat="44.3158949418905" lon="9.478909051761251"><ele>796.3333333333334</ele><time>2026-05-02T10:15:27Z</time></trkpt><trkpt lat="44.315977277001444" lon="9.478871200762779"><ele>794.5</ele><time>2026-05-02T10:15:28Z</time></trkpt><trkpt lat="44.31606555269263" lon="9.478806689404246"><ele>792.6666666666667</ele><time>2026-05-02T10:15:29Z</time></trkpt><trkpt lat="44.316133475321834" lon="9.478768446368319"><ele>790.8333333333334</ele><time>2026-05-02T10:15:30Z</time></trkpt><trkpt lat="44.31621617437382" lon="9.478731361114582"><ele>789.0</ele><time>2026-05-02T10:15:31Z</time></trkpt><trkpt lat="44.31629759726852" lon="9.478703026403416"><ele>789.0</ele><time>2026-05-02T10:15:32Z</time></trkpt><trkpt lat="44.31636149583597" lon="9.478645703243453"><ele>789.0</ele><time>2026-05-02T10:15:33Z</time></trkpt><trkpt lat="44.31642626332346" lon="9.478646921163026"><ele>789.0</ele><time>2026-05-02T10:15:34Z</time></trkpt><trkpt lat="44.316490187906815" lon="9.47863257028208"><ele>789.0</ele><time>2026-05-02T10:17:37Z</time></trkpt><trkpt lat="44.316460143907165" lon="9.478739108451155"><ele>789.0</ele><time>2026-05-02T10:20:08Z</time></trkpt><trkpt lat="44.316368952507425" lon="9.478795572563255"><ele>789.0</ele><time>2026-05-02T10:20:10Z</time></trkpt><trkpt lat="44.316284177176314" lon="9.47887387325283"><ele>794.6666666666666</ele><time>2026-05-02T10:20:12Z</time></trkpt><trkpt lat="44.316192238974274" lon="9.478987501248897"><ele>800.3333333333333</ele><time>2026-05-02T10:20:14Z</time></trkpt><trkpt lat="44.316139698549435" lon="9.47906041487966"><ele>806.0</ele><time>2026-05-02T10:20:15Z</time></trkpt><trkpt lat="44.31608466924653" lon="9.479133088178935"><ele>811.6666666666666</ele><time>2026-05-02T10:20:16Z</time></trkpt><trkpt lat="44.31603905338562" lon="9.479216470820248"><ele>817.3333333333333</ele><time>2026-05-02T10:20:17Z</time></trkpt><trkpt lat="44.31599606528975" lon="9.479307595954866"><ele>823.0</ele><time>2026-05-02T10:20:18Z</time></trkpt><trkpt lat="44.31594759733538" lon="9.479401187573576"><ele>822.9999999999999</ele><time>2026-05-02T10:20:19Z</time></trkpt><trkpt lat="44.31587448820013" lon="9.479469039278477"><ele>823.0</ele><time>2026-05-02T10:20:20Z</time></trkpt><trkpt lat="44.31583389480204" lon="9.479537525547764"><ele>823.0</ele><time>2026-05-02T10:20:21Z</time></trkpt><trkpt lat="44.31579892658419" lon="9.479612360149481"><ele>823.0</ele><time>2026-05-02T10:20:22Z</time></trkpt><trkpt lat="44.31578394451147" lon="9.479728941131016"><ele>822.9999999999999</ele><time>2026-05-02T10:20:24Z</time></trkpt><trkpt lat="44.315887828152746" lon="9.479815918922313"><ele>823.0</ele><time>2026-05-02T10:20:26Z</time></trkpt><trkpt lat="44.315971678059725" lon="9.479855502752036"><ele>825.5</ele><time>2026-05-02T10:20:28Z</time></trkpt><trkpt lat="44.31607334604682" lon="9.479921393397834"><ele>828.0</ele><time>2026-05-02T10:20:30Z</time></trkpt><trkpt lat="44.316184213339966" lon="9.47998776174934"><ele>830.5</ele><time>2026-05-02T10:20:32Z</time></trkpt><trkpt lat="44.316282000102255" lon="9.480130428487504"><ele>833.0</ele><time>2026-05-02T10:20:34Z</time></trkpt><trkpt lat="44.316326874321234" lon="9.480226060534271"><ele>833.0</ele><time>2026-05-02T10:20:35Z</time></trkpt><trkpt lat="44.31638089272622" lon="9.48031159055811"><ele>833.0</ele><time>2026-05-02T10:20:36Z</time></trkpt><trkpt lat="44.31642647780527" lon="9.480387938690239"><ele>833.0</ele><time>2026-05-02T10:20:37Z</time></trkpt><trkpt lat="44.31647879170708" lon="9.480437112987744"><ele>833.0</ele><time>2026-05-02T10:20:38Z</time></trkpt><trkpt lat="44.316543492224916" lon="9.480448076366674"><ele>833.0</ele><time>2026-05-02T10:20:39Z</time></trkpt><trkpt lat="44.316615091370494" lon="9.48042335056285"><ele>833.0</ele><time>2026-05-02T10:20:40Z</time></trkpt><trkpt lat="44.31669023328434" lon="9.4804454812849"><ele>833.0</ele><time>2026-05-02T10:20:41Z</time></trkpt><trkpt lat="44.31680049459464" lon="9.480495044260792"><ele>835.5999999999999</ele><time>2026-05-02T10:20:43Z</time></trkpt><trkpt lat="44.31691090158692" lon="9.480562638140148"><ele>838.1999999999999</ele><time>2026-05-02T10:20:45.001Z</time></trkpt><trkpt lat="44.31698357918425" lon="9.480588028759417"><ele>840.8</ele><time>2026-05-02T10:20:46.001Z</time></trkpt><trkpt lat="44.31705736556253" lon="9.480631302476732"><ele>843.4</ele><time>2026-05-02T10:20:47.001Z</time></trkpt><trkpt lat="44.31717044785493" lon="9.480673959711549"><ele>846.0</ele><time>2026-05-02T10:20:49.001Z</time></trkpt><trkpt lat="44.317282535506095" lon="9.480761973777694"><ele>851.0</ele><time>2026-05-02T10:20:51.001Z</time></trkpt><trkpt lat="44.31735465855484" lon="9.480775956851534"><ele>856.0</ele><time>2026-05-02T10:20:52.001Z</time></trkpt><trkpt lat="44.31742510728962" lon="9.480781922141494"><ele>860.9999999999999</ele><time>2026-05-02T10:20:53.001Z</time></trkpt><trkpt lat="44.31753346496143" lon="9.480771862529807"><ele>866.0</ele><time>2026-05-02T10:20:55.001Z</time></trkpt><trkpt lat="44.3176379263427" lon="9.480785216009693"><ele>871.0</ele><time>2026-05-02T10:20:57.001Z</time></trkpt><trkpt lat="44.31769345016791" lon="9.480911877475473"><ele>870.9999999999999</ele><time>2026-05-02T10:20:58.999Z</time></trkpt><trkpt lat="44.31775078585311" lon="9.481002986100066"><ele>871.0</ele><time>2026-05-02T10:21:00.999Z</time></trkpt><trkpt lat="44.31783356716853" lon="9.481084758169967"><ele>871.0</ele><time>2026-05-02T10:21:02.999Z</time></trkpt><trkpt lat="44.31789620295265" lon="9.481108226229715"><ele>871.0</ele><time>2026-05-02T10:21:03.999Z</time></trkpt><trkpt lat="44.31798064914448" lon="9.481133012934995"><ele>870.9999999999999</ele><time>2026-05-02T10:21:04.999Z</time></trkpt><trkpt lat="44.31806640726185" lon="9.481149371478775"><ele>871.0</ele><time>2026-05-02T10:21:05.999Z</time></trkpt><trkpt lat="44.31816156275148" lon="9.48113858271645"><ele>874.1666666666666</ele><time>2026-05-02T10:21:06.999Z</time></trkpt><trkpt lat="44.31825551596775" lon="9.481154293484307"><ele>877.3333333333333</ele><time>2026-05-02T10:21:07.999Z</time></trkpt><trkpt lat="44.31834590747185" lon="9.481165208308509"><ele>880.5</ele><time>2026-05-02T10:21:09Z</time></trkpt><trkpt lat="44.31842197134455" lon="9.481181410704707"><ele>883.6666666666667</ele><time>2026-05-02T10:21:10Z</time></trkpt><trkpt lat="44.31849000817696" lon="9.481197690027292"><ele>886.8333333333334</ele><time>2026-05-02T10:21:11Z</time></trkpt><trkpt lat="44.31856516193564" lon="9.481189085604642"><ele>890.0</ele><time>2026-05-02T10:21:12Z</time></trkpt><trkpt lat="44.318645886188946" lon="9.481174748931233"><ele>890.0000000000001</ele><time>2026-05-02T10:21:13Z</time></trkpt><trkpt lat="44.31871701879167" lon="9.481143882885121"><ele>890.0</ele><time>2026-05-02T10:21:14Z</time></trkpt><trkpt lat="44.31878584467397" lon="9.481123618496214"><ele>890.0</ele><time>2026-05-02T10:21:15Z</time></trkpt><trkpt lat="44.318883028242034" lon="9.481121816039673"><ele>890.0</ele><time>2026-05-02T10:21:17Z</time></trkpt><trkpt lat="44.318987084955396" lon="9.481138906858101"><ele>890.0000000000001</ele><time>2026-05-02T10:21:19Z</time></trkpt><trkpt lat="44.31907723828499" lon="9.481172079042205"><ele>890.0</ele><time>2026-05-02T10:21:21Z</time></trkpt><trkpt lat="44.31916131707464" lon="9.481198352984427"><ele>892.2</ele><time>2026-05-02T10:21:23Z</time></trkpt><trkpt lat="44.31922686285505" lon="9.481212363624484"><ele>894.4</ele><time>2026-05-02T10:21:26Z</time></trkpt><trkpt lat="44.31934289373941" lon="9.481212117606441"><ele>896.5999999999999</ele><time>2026-05-02T10:21:29Z</time></trkpt><trkpt lat="44.31945543815635" lon="9.481212940023209"><ele>898.8</ele><time>2026-05-02T10:21:31Z</time></trkpt><trkpt lat="44.319558356553635" lon="9.481223029036187"><ele>901.0</ele><time>2026-05-02T10:21:33Z</time></trkpt><trkpt lat="44.31962417846158" lon="9.481225680255521"><ele>900.9999999999999</ele><time>2026-05-02T10:21:35Z</time></trkpt><trkpt lat="44.31968686999532" lon="9.481238697131095"><ele>901.0</ele><time>2026-05-02T10:21:37Z</time></trkpt><trkpt lat="44.31976719695576" lon="9.481270269082954"><ele>901.0</ele><time>2026-05-02T10:21:40Z</time></trkpt><trkpt lat="44.319856810160005" lon="9.481286697113363"><ele>901.0</ele><time>2026-05-02T10:21:43Z</time></trkpt><trkpt lat="44.31993879797425" lon="9.481239599473756"><ele>900.9999999999999</ele><time>2026-05-02T10:21:46Z</time></trkpt><trkpt lat="44.32001245008033" lon="9.481245345835477"><ele>901.0</ele><time>2026-05-02T10:21:48Z</time></trkpt><trkpt lat="44.32008103002413" lon="9.481257049013056"><ele>901.4999999999999</ele><time>2026-05-02T10:21:51Z</time></trkpt><trkpt lat="44.32014779279578" lon="9.481268019486173"><ele>902.0</ele><time>2026-05-02T10:21:53Z</time></trkpt><trkpt lat="44.320221569427346" lon="9.48126255809421"><ele>902.5</ele><time>2026-05-02T10:21:55Z</time></trkpt><trkpt lat="44.32028885478699" lon="9.48125015585879"><ele>903.0</ele><time>2026-05-02T10:23:27.999Z</time></trkpt><trkpt lat="44.320377093153866" lon="9.481231563145554"><ele>903.4999999999999</ele><time>2026-05-02T10:23:29.999Z</time></trkpt><trkpt lat="44.32045850621211" lon="9.481191825556811"><ele>904.0</ele><time>2026-05-02T10:23:31.999Z</time></trkpt><trkpt lat="44.32053465268083" lon="9.481183457245281"><ele>904.0</ele><time>2026-05-02T10:23:32.999Z</time></trkpt><trkpt lat="44.32065058870051" lon="9.481166029142072"><ele>904.0000000000001</ele><time>2026-05-02T10:23:35Z</time></trkpt><trkpt lat="44.32071448503866" lon="9.481184780764693"><ele>904.0000000000001</ele><time>2026-05-02T10:23:36Z</time></trkpt><trkpt lat="44.32083638144653" lon="9.481191243796275"><ele>904.0</ele><time>2026-05-02T10:23:38Z</time></trkpt><trkpt lat="44.32090545996313" lon="9.481197144418196"><ele>904.0</ele><time>2026-05-02T10:23:39Z</time></trkpt><trkpt lat="44.32103341156963" lon="9.481207321232572"><ele>904.0</ele><time>2026-05-02T10:23:41Z</time></trkpt><trkpt lat="44.3211067937049" lon="9.48122366842286"><ele>904.0000000000001</ele><time>2026-05-02T10:23:42Z</time></trkpt><trkpt lat="44.32116978656969" lon="9.481242289579763"><ele>904.0000000000001</ele><time>2026-05-02T10:23:43Z</time></trkpt><trkpt lat="44.32127231153236" lon="9.481286209108896"><ele>904.0</ele><time>2026-05-02T10:23:45Z</time></trkpt><trkpt lat="44.32138050457047" lon="9.481298302455823"><ele>904.0</ele><time>2026-05-02T10:23:47Z</time></trkpt><trkpt lat="44.32149399326469" lon="9.481346348948351"><ele>899.1666666666666</ele><time>2026-05-02T10:23:49Z</time></trkpt><trkpt lat="44.32156936211174" lon="9.481384887647483"><ele>894.3333333333333</ele><time>2026-05-02T10:23:51Z</time></trkpt><trkpt lat="44.32159238896108" lon="9.481468265525475"><ele>889.5</ele><time>2026-05-02T10:23:54Z</time></trkpt><trkpt lat="44.32150517794672" lon="9.48154332842699"><ele>884.6666666666667</ele><time>2026-05-02T10:23:57Z</time></trkpt><trkpt lat="44.321417224326005" lon="9.481637986547687"><ele>879.8333333333334</ele><time>2026-05-02T10:23:59Z</time></trkpt><trkpt lat="44.32135999882026" lon="9.481736589062303"><ele>875.0</ele><time>2026-05-02T10:24:01Z</time></trkpt><trkpt lat="44.32138559513997" lon="9.481851206437938"><ele>874.6</ele><time>2026-05-02T10:24:03Z</time></trkpt><trkpt lat="44.32145345644115" lon="9.481956714124511"><ele>874.2</ele><time>2026-05-02T10:24:05Z</time></trkpt><trkpt lat="44.32151663111841" lon="9.4820872321739"><ele>873.8</ele><time>2026-05-02T10:24:07Z</time></trkpt><trkpt lat="44.32156846156281" lon="9.482192664583845"><ele>873.4</ele><time>2026-05-02T10:24:09Z</time></trkpt><trkpt lat="44.32161860012493" lon="9.482283958340796"><ele>873.0</ele><time>2026-05-02T10:24:11Z</time></trkpt><trkpt lat="44.32164965754373" lon="9.482418045053599"><ele>871.0</ele><time>2026-05-02T10:24:13Z</time></trkpt><trkpt lat="44.32166179776149" lon="9.482505259965347"><ele>869.0</ele><time>2026-05-02T10:24:14Z</time></trkpt><trkpt lat="44.3216823491699" lon="9.482683193211017"><ele>867.0</ele><time>2026-05-02T10:24:16Z</time></trkpt><trkpt lat="44.321726901408" lon="9.482809793614685"><ele>865.0</ele><time>2026-05-02T10:24:18Z</time></trkpt><trkpt lat="44.32183388189116" lon="9.482832239651515"><ele>863.0</ele><time>2026-05-02T10:24:20Z</time></trkpt><trkpt lat="44.32194029395356" lon="9.482864253994764"><ele>861.5999999999999</ele><time>2026-05-02T10:24:22Z</time></trkpt><trkpt lat="44.32194851025509" lon="9.482999020429808"><ele>860.1999999999999</ele><time>2026-05-02T10:24:24Z</time></trkpt><trkpt lat="44.321896447205255" lon="9.483101932100363"><ele>858.8</ele><time>2026-05-02T10:24:25Z</time></trkpt><trkpt lat="44.32186587986956" lon="9.483244870848191"><ele>857.4</ele><time>2026-05-02T10:24:26Z</time></trkpt><trkpt lat="44.321835890236834" lon="9.483370711663415"><ele>856.0</ele><time>2026-05-02T10:24:27Z</time></trkpt><trkpt lat="44.32182012078974" lon="9.48348643964595"><ele>856.0</ele><time>2026-05-02T10:24:28Z</time></trkpt><trkpt lat="44.321822918090895" lon="9.483601080951285"><ele>855.9999999999999</ele><time>2026-05-02T10:24:29Z</time></trkpt><trkpt lat="44.32184515130084" lon="9.483732629252275"><ele>855.9999999999999</ele><time>2026-05-02T10:24:30Z</time></trkpt><trkpt lat="44.32187640662094" lon="9.483904681365102"><ele>856.0</ele><time>2026-05-02T10:24:31Z</time></trkpt><trkpt lat="44.32190180852519" lon="9.484034879277187"><ele>856.0</ele><time>2026-05-02T10:24:32Z</time></trkpt><trkpt lat="44.32190568460679" lon="9.48414650891621"><ele>855.0</ele><time>2026-05-02T10:24:33Z</time></trkpt><trkpt lat="44.32193147084071" lon="9.484258217816494"><ele>853.9999999999999</ele><time>2026-05-02T10:24:34Z</time></trkpt><trkpt lat="44.3219236432861" lon="9.484376690022838"><ele>853.0</ele><time>2026-05-02T10:24:35Z</time></trkpt><trkpt lat="44.321947514250276" lon="9.48457356451608"><ele>852.0</ele><time>2026-05-02T10:24:37Z</time></trkpt><trkpt lat="44.321971078740816" lon="9.484758178211127"><ele>851.0</ele><time>2026-05-02T10:24:39Z</time></trkpt><trkpt lat="44.32199993366639" lon="9.484862423197503"><ele>849.3333333333334</ele><time>2026-05-02T10:24:40Z</time></trkpt><trkpt lat="44.32202931330827" lon="9.48498332705215"><ele>847.6666666666667</ele><time>2026-05-02T10:24:41Z</time></trkpt><trkpt lat="44.32205180656603" lon="9.48509232332627"><ele>846.0</ele><time>2026-05-02T10:24:42Z</time></trkpt><trkpt lat="44.32205445039616" lon="9.48519602562271"><ele>844.3333333333333</ele><time>2026-05-02T10:24:43Z</time></trkpt><trkpt lat="44.322069672781986" lon="9.485299852020125"><ele>842.6666666666666</ele><time>2026-05-02T10:24:44Z</time></trkpt><trkpt lat="44.32207877771723" lon="9.485403868222178"><ele>841.0</ele><time>2026-05-02T10:24:45Z</time></trkpt><trkpt lat="44.322080374031806" lon="9.485506699096412"><ele>840.3333333333333</ele><time>2026-05-02T10:24:46Z</time></trkpt><trkpt lat="44.32207063511364" lon="9.485626662562721"><ele>839.6666666666666</ele><time>2026-05-02T10:24:47Z</time></trkpt><trkpt lat="44.322058081428224" lon="9.485725010220147"><ele>839.0</ele><time>2026-05-02T10:24:48Z</time></trkpt><trkpt lat="44.32205627435186" lon="9.485822593886477"><ele>838.3333333333333</ele><time>2026-05-02T10:24:49Z</time></trkpt><trkpt lat="44.32204538468513" lon="9.485931123414456"><ele>837.6666666666666</ele><time>2026-05-02T10:24:50Z</time></trkpt><trkpt lat="44.322022658946274" lon="9.486032910951879"><ele>837.0</ele><time>2026-05-02T10:24:51Z</time></trkpt><trkpt lat="44.32200672307892" lon="9.486153927968738"><ele>838.1666666666666</ele><time>2026-05-02T10:24:53Z</time></trkpt><trkpt lat="44.321992429092816" lon="9.486280631295601"><ele>839.3333333333333</ele><time>2026-05-02T10:24:55Z</time></trkpt><trkpt lat="44.321973326168575" lon="9.48636576630214"><ele>840.5</ele><time>2026-05-02T10:24:57Z</time></trkpt><trkpt lat="44.321965201228416" lon="9.48648177316515"><ele>841.6666666666666</ele><time>2026-05-02T10:25:11.999Z</time></trkpt><trkpt lat="44.32194222571823" lon="9.4865706573758"><ele>842.8333333333333</ele><time>2026-05-02T10:25:12.999Z</time></trkpt><trkpt lat="44.321909163816905" lon="9.486764662113142"><ele>844.0</ele><time>2026-05-02T10:25:14.999Z</time></trkpt><trkpt lat="44.32188427776605" lon="9.486879532664918"><ele>843.9999999999999</ele><time>2026-05-02T10:25:15.999Z</time></trkpt><trkpt lat="44.32184538762102" lon="9.487001954919966"><ele>844.0</ele><time>2026-05-02T10:25:16.999Z</time></trkpt><trkpt lat="44.32179585477363" lon="9.487113314804981"><ele>844.0</ele><time>2026-05-02T10:25:17.999Z</time></trkpt><trkpt lat="44.321738075422836" lon="9.48719224329513"><ele>844.0</ele><time>2026-05-02T10:25:18.999Z</time></trkpt><trkpt lat="44.32166752959704" lon="9.487256839206083"><ele>843.9999999999999</ele><time>2026-05-02T10:25:19.999Z</time></trkpt><trkpt lat="44.32159029378748" lon="9.487316513929906"><ele>844.0</ele><time>2026-05-02T10:25:20.999Z</time></trkpt><trkpt lat="44.32153115314549" lon="9.487384437047305"><ele>843.1666666666666</ele><time>2026-05-02T10:25:21.999Z</time></trkpt><trkpt lat="44.32146955933279" lon="9.487411621020597"><ele>842.3333333333333</ele><time>2026-05-02T10:25:22.999Z</time></trkpt><trkpt lat="44.321407627857994" lon="9.487461660657978"><ele>841.5</ele><time>2026-05-02T10:25:23.999Z</time></trkpt><trkpt lat="44.32134745978183" lon="9.48753179759474"><ele>840.6666666666667</ele><time>2026-05-02T10:25:24.999Z</time></trkpt><trkpt lat="44.321274980037586" lon="9.487589048665514"><ele>839.8333333333334</ele><time>2026-05-02T10:25:25.999Z</time></trkpt><trkpt lat="44.32120662835723" lon="9.487642712321472"><ele>839.0</ele><time>2026-05-02T10:25:26.999Z</time></trkpt><trkpt lat="44.32114103193773" lon="9.487689586982247"><ele>839.0</ele><time>2026-05-02T10:25:27.999Z</time></trkpt><trkpt lat="44.321084540393024" lon="9.487749088998417"><ele>839.0</ele><time>2026-05-02T10:25:28.999Z</time></trkpt><trkpt lat="44.32100428226669" lon="9.487809605611922"><ele>839.0</ele><time>2026-05-02T10:25:30.999Z</time></trkpt><trkpt lat="44.32088882476586" lon="9.487910077375354"><ele>839.0</ele><time>2026-05-02T10:25:32.999Z</time></trkpt><trkpt lat="44.32082487796077" lon="9.487980647223306"><ele>839.0</ele><time>2026-05-02T10:25:33.999Z</time></trkpt><trkpt lat="44.32073940444101" lon="9.488082866261317"><ele>840.8000000000001</ele><time>2026-05-02T10:25:35.999Z</time></trkpt><trkpt lat="44.320659802690265" lon="9.488167051325052"><ele>842.6</ele><time>2026-05-02T10:25:37.999Z</time></trkpt><trkpt lat="44.32058004626116" lon="9.488279950415158"><ele>844.4</ele><time>2026-05-02T10:25:39.999Z</time></trkpt><trkpt lat="44.320592516590736" lon="9.48841202433606"><ele>846.2</ele><time>2026-05-02T10:25:42Z</time></trkpt><trkpt lat="44.32064880602128" lon="9.488556605281882"><ele>848.0</ele><time>2026-05-02T10:25:44Z</time></trkpt><trkpt lat="44.32067750570216" lon="9.488651913177138"><ele>847.2</ele><time>2026-05-02T10:25:45Z</time></trkpt><trkpt lat="44.32070805224256" lon="9.48876922256131"><ele>846.4</ele><time>2026-05-02T10:25:46Z</time></trkpt><trkpt lat="44.32075401917662" lon="9.48887446099534"><ele>845.6</ele><time>2026-05-02T10:25:47Z</time></trkpt><trkpt lat="44.32080104495007" lon="9.488977014042403"><ele>844.8000000000001</ele><time>2026-05-02T10:25:48Z</time></trkpt><trkpt lat="44.320848542342624" lon="9.489084808465794"><ele>844.0</ele><time>2026-05-02T10:25:49Z</time></trkpt><trkpt lat="44.32093231570205" lon="9.48926754438758"><ele>843.9999999999999</ele><time>2026-05-02T10:25:51Z</time></trkpt><trkpt lat="44.32095326522485" lon="9.489370617165552"><ele>844.0</ele><time>2026-05-02T10:25:52Z</time></trkpt><trkpt lat="44.321006317538945" lon="9.489478434071149"><ele>844.0</ele><time>2026-05-02T10:25:53Z</time></trkpt><trkpt lat="44.32104126735444" lon="9.489592577238277"><ele>844.0</ele><time>2026-05-02T10:25:54Z</time></trkpt><trkpt lat="44.32108359747036" lon="9.489695207561505"><ele>843.9999999999999</ele><time>2026-05-02T10:25:55Z</time></trkpt><trkpt lat="44.321136713215346" lon="9.489814702428395"><ele>844.0</ele><time>2026-05-02T10:25:56Z</time></trkpt><trkpt lat="44.32117375463547" lon="9.489926505119623"><ele>842.3333333333333</ele><time>2026-05-02T10:25:57Z</time></trkpt><trkpt lat="44.321175568300546" lon="9.490050896352013"><ele>840.6666666666666</ele><time>2026-05-02T10:25:58Z</time></trkpt><trkpt lat="44.321184703744095" lon="9.490172070581572"><ele>839.0</ele><time>2026-05-02T10:25:59Z</time></trkpt><trkpt lat="44.32117766288091" lon="9.490293458401165"><ele>837.3333333333333</ele><time>2026-05-02T10:26:00Z</time></trkpt><trkpt lat="44.32116642832263" lon="9.490420025484715"><ele>835.6666666666666</ele><time>2026-05-02T10:26:01Z</time></trkpt><trkpt lat="44.32115764253281" lon="9.490539548075075"><ele>834.0</ele><time>2026-05-02T10:26:02Z</time></trkpt><trkpt lat="44.321154749817474" lon="9.490646693323276"><ele>833.0</ele><time>2026-05-02T10:26:03Z</time></trkpt><trkpt lat="44.321175817139085" lon="9.49074179683559"><ele>832.0</ele><time>2026-05-02T10:26:04Z</time></trkpt><trkpt lat="44.32121850443448" lon="9.490824571093105"><ele>831.0</ele><time>2026-05-02T10:26:05Z</time></trkpt><trkpt lat="44.32124180164383" lon="9.49092517704756"><ele>830.0</ele><time>2026-05-02T10:26:06Z</time></trkpt><trkpt lat="44.32126570166633" lon="9.491036763063732"><ele>829.0</ele><time>2026-05-02T10:26:07Z</time></trkpt><trkpt lat="44.321308755588845" lon="9.491141698718637"><ele>828.0</ele><time>2026-05-02T10:26:08Z</time></trkpt><trkpt lat="44.32135893584778" lon="9.491254656970533"><ele>834.5999999999999</ele><time>2026-05-02T10:26:09Z</time></trkpt><trkpt lat="44.321408971419075" lon="9.491372121457555"><ele>841.1999999999999</ele><time>2026-05-02T10:26:10Z</time></trkpt><trkpt lat="44.3214678431571" lon="9.491499065259267"><ele>847.8</ele><time>2026-05-02T10:26:11Z</time></trkpt><trkpt lat="44.32151300510504" lon="9.491621318974909"><ele>854.4</ele><time>2026-05-02T10:26:12Z</time></trkpt><trkpt lat="44.32156524720494" lon="9.491753758112893"><ele>861.0</ele><time>2026-05-02T10:26:13Z</time></trkpt><trkpt lat="44.32159080133422" lon="9.491883927771328"><ele>861.0</ele><time>2026-05-02T10:26:14Z</time></trkpt><trkpt lat="44.32164262065409" lon="9.49201856133334"><ele>861.0</ele><time>2026-05-02T10:26:15Z</time></trkpt><trkpt lat="44.32166808180664" lon="9.49211545095084"><ele>861.0</ele><time>2026-05-02T10:26:16Z</time></trkpt><trkpt lat="44.32170470204476" lon="9.492213426315752"><ele>861.0</ele><time>2026-05-02T10:26:17Z</time></trkpt><trkpt lat="44.32174330724868" lon="9.492310932480326"><ele>861.0</ele><time>2026-05-02T10:26:18Z</time></trkpt><trkpt lat="44.32178270710276" lon="9.492414397638296"><ele>861.0</ele><time>2026-05-02T10:26:19Z</time></trkpt><trkpt lat="44.32183008287192" lon="9.492508818491325"><ele>859.3333333333334</ele><time>2026-05-02T10:26:20Z</time></trkpt><trkpt lat="44.321885235699234" lon="9.492597793553081"><ele>857.6666666666667</ele><time>2026-05-02T10:26:21Z</time></trkpt><trkpt lat="44.32192399377194" lon="9.492690744160292"><ele>856.0</ele><time>2026-05-02T10:26:22Z</time></trkpt><trkpt lat="44.32197134456937" lon="9.492774256617702"><ele>854.3333333333334</ele><time>2026-05-02T10:26:23Z</time></trkpt><trkpt lat="44.32202459177686" lon="9.492891464993352"><ele>852.6666666666667</ele><time>2026-05-02T10:26:24Z</time></trkpt><trkpt lat="44.322082359292686" lon="9.492967641660696"><ele>851.0</ele><time>2026-05-02T10:26:25Z</time></trkpt><trkpt lat="44.32212986705177" lon="9.493061808658563"><ele>851.0000000000001</ele><time>2026-05-02T10:26:26Z</time></trkpt><trkpt lat="44.322159951795825" lon="9.493185140349574"><ele>851.0</ele><time>2026-05-02T10:26:27Z</time></trkpt><trkpt lat="44.32216829051954" lon="9.493303447293659"><ele>851.0</ele><time>2026-05-02T10:26:28Z</time></trkpt><trkpt lat="44.32215855242366" lon="9.493398155992795"><ele>851.0</ele><time>2026-05-02T10:26:29Z</time></trkpt><trkpt lat="44.32214689002246" lon="9.493488156901183"><ele>851.0000000000001</ele><time>2026-05-02T10:26:30Z</time></trkpt><trkpt lat="44.32214000254128" lon="9.493597715871317"><ele>851.0</ele><time>2026-05-02T10:26:31Z</time></trkpt><trkpt lat="44.322134669336805" lon="9.493689503807428"><ele>849.6666666666667</ele><time>2026-05-02T10:26:32Z</time></trkpt><trkpt lat="44.32216491241965" lon="9.49386644230044"><ele>848.3333333333334</ele><time>2026-05-02T10:26:34Z</time></trkpt><trkpt lat="44.32222208852763" lon="9.493926039277355"><ele>847.0</ele><time>2026-05-02T10:26:35Z</time></trkpt><trkpt lat="44.32227525997951" lon="9.493989258874151"><ele>845.6666666666667</ele><time>2026-05-02T10:26:36Z</time></trkpt><trkpt lat="44.32233251521653" lon="9.49406569997674"><ele>844.3333333333334</ele><time>2026-05-02T10:26:37Z</time></trkpt><trkpt lat="44.32233967095209" lon="9.494183179391964"><ele>843.0</ele><time>2026-05-02T10:26:38Z</time></trkpt><trkpt lat="44.32238613905209" lon="9.494246836329763"><ele>846.8333333333334</ele><time>2026-05-02T10:26:39Z</time></trkpt><trkpt lat="44.32244257816366" lon="9.494296195263523"><ele>850.6666666666667</ele><time>2026-05-02T10:26:40Z</time></trkpt><trkpt lat="44.32251492313629" lon="9.494359634547427"><ele>854.5</ele><time>2026-05-02T10:26:41Z</time></trkpt><trkpt lat="44.32258032935563" lon="9.494397226662597"><ele>858.3333333333334</ele><time>2026-05-02T10:26:42Z</time></trkpt><trkpt lat="44.322655714520806" lon="9.494409314294241"><ele>862.1666666666667</ele><time>2026-05-02T10:26:43Z</time></trkpt><trkpt lat="44.32273669224769" lon="9.494360357130164"><ele>866.0</ele><time>2026-05-02T10:26:44Z</time></trkpt><trkpt lat="44.322826282927444" lon="9.49439726514068"><ele>866.0000000000001</ele><time>2026-05-02T10:26:46Z</time></trkpt><trkpt lat="44.32277963469923" lon="9.49455768315539"><ele>866.0</ele><time>2026-05-02T10:26:48Z</time></trkpt><trkpt lat="44.32278455335993" lon="9.494653940562138"><ele>866.0</ele><time>2026-05-02T10:26:49Z</time></trkpt><trkpt lat="44.322812192086566" lon="9.494741570994487"><ele>866.0</ele><time>2026-05-02T10:26:50Z</time></trkpt><trkpt lat="44.322845751219425" lon="9.494834647230277"><ele>866.0000000000001</ele><time>2026-05-02T10:26:52Z</time></trkpt><trkpt lat="44.322896215342034" lon="9.49490359981638"><ele>866.0</ele><time>2026-05-02T10:26:53Z</time></trkpt><trkpt lat="44.32294995620839" lon="9.494953162157897"><ele>864.8571428571428</ele><time>2026-05-02T10:26:54Z</time></trkpt><trkpt lat="44.322986926273956" lon="9.495029744397046"><ele>863.7142857142857</ele><time>2026-05-02T10:26:55Z</time></trkpt><trkpt lat="44.32300496957671" lon="9.495120054220013"><ele>862.5714285714286</ele><time>2026-05-02T10:26:56Z</time></trkpt><trkpt lat="44.322967905193934" lon="9.495204502572847"><ele>861.4285714285713</ele><time>2026-05-02T10:26:57Z</time></trkpt><trkpt lat="44.322976843823206" lon="9.495298049098258"><ele>860.2857142857143</ele><time>2026-05-02T10:26:58Z</time></trkpt><trkpt lat="44.32300052551637" lon="9.495406370691423"><ele>859.1428571428571</ele><time>2026-05-02T10:26:59Z</time></trkpt><trkpt lat="44.323025269571" lon="9.495519709577666"><ele>858.0</ele><time>2026-05-02T10:27:00Z</time></trkpt><trkpt lat="44.32305716610085" lon="9.495604666561519"><ele>858.0</ele><time>2026-05-02T10:27:01Z</time></trkpt><trkpt lat="44.32308670912386" lon="9.495687457153222"><ele>858.0</ele><time>2026-05-02T10:27:02Z</time></trkpt><trkpt lat="44.32307693241479" lon="9.495778764092682"><ele>858.0</ele><time>2026-05-02T10:27:03Z</time></trkpt><trkpt lat="44.323006784970936" lon="9.49595362561244"><ele>858.0</ele><time>2026-05-02T10:27:05Z</time></trkpt><trkpt lat="44.322973638571234" lon="9.496059153679223"><ele>858.0</ele><time>2026-05-02T10:27:06Z</time></trkpt><trkpt lat="44.32295467328299" lon="9.496176423629974"><ele>858.0</ele><time>2026-05-02T10:27:07Z</time></trkpt><trkpt lat="44.32292085727311" lon="9.496280580178725"><ele>860.4</ele><time>2026-05-02T10:27:08Z</time></trkpt><trkpt lat="44.32290513640764" lon="9.496403005651528"><ele>862.8</ele><time>2026-05-02T10:27:09Z</time></trkpt><trkpt lat="44.322867420279884" lon="9.496522965324443"><ele>865.2</ele><time>2026-05-02T10:27:10Z</time></trkpt><trkpt lat="44.322855862120186" lon="9.496666856668263"><ele>867.6</ele><time>2026-05-02T10:27:11Z</time></trkpt><trkpt lat="44.322831836872304" lon="9.496846224383086"><ele>870.0</ele><time>2026-05-02T10:27:13Z</time></trkpt><trkpt lat="44.32279837663094" lon="9.497052301549337"><ele>872.0</ele><time>2026-05-02T10:27:15Z</time></trkpt><trkpt lat="44.322771052133476" lon="9.497172138505544"><ele>874.0</ele><time>2026-05-02T10:27:15.999Z</time></trkpt><trkpt lat="44.322744488579424" lon="9.497323809168781"><ele>876.0</ele><time>2026-05-02T10:27:16.999Z</time></trkpt><trkpt lat="44.32273304830951" lon="9.497499614322056"><ele>878.0</ele><time>2026-05-02T10:27:17.999Z</time></trkpt><trkpt lat="44.32270858515314" lon="9.49768283898514"><ele>878.0</ele><time>2026-05-02T10:27:18.999Z</time></trkpt><trkpt lat="44.322694568556564" lon="9.49783227287156"><ele>878.0</ele><time>2026-05-02T10:27:19.999Z</time></trkpt><trkpt lat="44.32270443149405" lon="9.497947245774062"><ele>878.0</ele><time>2026-05-02T10:27:20.999Z</time></trkpt><trkpt lat="44.32271267717616" lon="9.498061234272075"><ele>878.0</ele><time>2026-05-02T10:27:21.999Z</time></trkpt><trkpt lat="44.3227389431541" lon="9.498174290162542"><ele>878.0</ele><time>2026-05-02T10:27:22.999Z</time></trkpt><trkpt lat="44.32277793001546" lon="9.498297856183738"><ele>877.8333333333334</ele><time>2026-05-02T10:27:23.999Z</time></trkpt><trkpt lat="44.32280310784625" lon="9.498420783182153"><ele>877.6666666666667</ele><time>2026-05-02T10:27:24.999Z</time></trkpt><trkpt lat="44.32278843341157" lon="9.498551669833834"><ele>877.5</ele><time>2026-05-02T10:27:25.999Z</time></trkpt><trkpt lat="44.32277571759973" lon="9.498667991485679"><ele>877.3333333333333</ele><time>2026-05-02T10:27:26.999Z</time></trkpt><trkpt lat="44.32276108819998" lon="9.498763783004781"><ele>877.1666666666666</ele><time>2026-05-02T10:27:27.999Z</time></trkpt><trkpt lat="44.322743042492434" lon="9.49888483524538"><ele>877.0</ele><time>2026-05-02T10:27:28.999Z</time></trkpt><trkpt lat="44.32273165379399" lon="9.499037041220983"><ele>877.4000000000001</ele><time>2026-05-02T10:27:29.999Z</time></trkpt><trkpt lat="44.32268437619355" lon="9.499171378366269"><ele>877.8000000000001</ele><time>2026-05-02T10:27:30.999Z</time></trkpt><trkpt lat="44.32265955234365" lon="9.4993228930863"><ele>878.2</ele><time>2026-05-02T10:27:31.999Z</time></trkpt><trkpt lat="44.322632777067064" lon="9.49948321132565"><ele>878.6</ele><time>2026-05-02T10:27:32.999Z</time></trkpt><trkpt lat="44.3226112069695" lon="9.499630020174413"><ele>879.0</ele><time>2026-05-02T10:27:33.999Z</time></trkpt><trkpt lat="44.32256961536856" lon="9.49976150685828"><ele>880.2</ele><time>2026-05-02T10:27:34.999Z</time></trkpt><trkpt lat="44.32256238540461" lon="9.499888654272791"><ele>881.4000000000001</ele><time>2026-05-02T10:27:35.999Z</time></trkpt><trkpt lat="44.32253764755137" lon="9.500013141151364"><ele>882.6</ele><time>2026-05-02T10:27:36.999Z</time></trkpt><trkpt lat="44.32251765622291" lon="9.500136798991807"><ele>883.8</ele><time>2026-05-02T10:27:37.999Z</time></trkpt><trkpt lat="44.32248631931871" lon="9.500269905289867"><ele>885.0</ele><time>2026-05-02T10:27:39Z</time></trkpt><trkpt lat="44.322463742224876" lon="9.500392041926531"><ele>886.3333333333334</ele><time>2026-05-02T10:27:40Z</time></trkpt><trkpt lat="44.3224389022284" lon="9.500500582863335"><ele>887.6666666666667</ele><time>2026-05-02T10:27:41Z</time></trkpt><trkpt lat="44.32240297682991" lon="9.50061128740695"><ele>889.0</ele><time>2026-05-02T10:27:42Z</time></trkpt><trkpt lat="44.322362406642505" lon="9.500716385000048"><ele>890.3333333333334</ele><time>2026-05-02T10:27:43Z</time></trkpt><trkpt lat="44.3223314975242" lon="9.50081567435704"><ele>891.6666666666667</ele><time>2026-05-02T10:27:44Z</time></trkpt><trkpt lat="44.322313349700295" lon="9.500930720783362"><ele>893.0</ele><time>2026-05-02T10:27:45Z</time></trkpt><trkpt lat="44.32229051015757" lon="9.501063944408822"><ele>893.0</ele><time>2026-05-02T10:27:46Z</time></trkpt><trkpt lat="44.32228160119074" lon="9.501217954194086"><ele>893.0</ele><time>2026-05-02T10:27:47Z</time></trkpt><trkpt lat="44.32228495536724" lon="9.501381331718683"><ele>893.0</ele><time>2026-05-02T10:27:48Z</time></trkpt><trkpt lat="44.32230206324228" lon="9.501528979067738"><ele>893.0</ele><time>2026-05-02T10:27:49Z</time></trkpt><trkpt lat="44.32232601797731" lon="9.501641594965063"><ele>893.0</ele><time>2026-05-02T10:27:50Z</time></trkpt><trkpt lat="44.322373050472656" lon="9.50173534545543"><ele>892.5</ele><time>2026-05-02T10:27:51Z</time></trkpt><trkpt lat="44.32244586036539" lon="9.501815015755257"><ele>892.0</ele><time>2026-05-02T10:27:52Z</time></trkpt><trkpt lat="44.322549310398614" lon="9.501882836315675"><ele>891.5</ele><time>2026-05-02T10:27:53Z</time></trkpt><trkpt lat="44.32266782911559" lon="9.50194250054451"><ele>891.0</ele><time>2026-05-02T10:27:54Z</time></trkpt><trkpt lat="44.32278468675756" lon="9.501987518310045"><ele>891.0</ele><time>2026-05-02T10:27:55Z</time></trkpt><trkpt lat="44.32291471501639" lon="9.502063659843156"><ele>891.0</ele><time>2026-05-02T10:27:56Z</time></trkpt><trkpt lat="44.323019558506346" lon="9.50216514356153"><ele>891.0</ele><time>2026-05-02T10:27:57Z</time></trkpt><trkpt lat="44.32311304785043" lon="9.502203981758417"><ele>891.0</ele><time>2026-05-02T10:27:58Z</time></trkpt><trkpt lat="44.32320042144742" lon="9.502239253890043"><ele>892.8</ele><time>2026-05-02T10:27:59Z</time></trkpt><trkpt lat="44.32331752802977" lon="9.502248160041498"><ele>894.5999999999999</ele><time>2026-05-02T10:28:00Z</time></trkpt><trkpt lat="44.323416532902264" lon="9.502270541134791"><ele>896.4</ele><time>2026-05-02T10:28:01Z</time></trkpt><trkpt lat="44.323486996645954" lon="9.502288608999834"><ele>898.2</ele><time>2026-05-02T10:28:02Z</time></trkpt><trkpt lat="44.32354053373798" lon="9.502335861666783"><ele>900.0</ele><time>2026-05-02T10:28:03Z</time></trkpt><trkpt lat="44.323527733779756" lon="9.502523343381528"><ele>900.0000000000001</ele><time>2026-05-02T10:28:05Z</time></trkpt><trkpt lat="44.32355410024906" lon="9.502639506433663"><ele>900.0</ele><time>2026-05-02T10:28:07Z</time></trkpt><trkpt lat="44.3235989719834" lon="9.50272621316357"><ele>900.0000000000001</ele><time>2026-05-02T10:28:55Z</time></trkpt><trkpt lat="44.32364780743031" lon="9.502807194504072"><ele>900.0000000000001</ele><time>2026-05-02T10:28:57Z</time></trkpt><trkpt lat="44.32367370300885" lon="9.502894313425976"><ele>900.0</ele><time>2026-05-02T10:31:23.001Z</time></trkpt><trkpt lat="44.32363496552257" lon="9.502808043789056"><ele>900.0000000000001</ele><time>2026-05-02T10:32:28.001Z</time></trkpt><trkpt lat="44.3236129727869" lon="9.502720977303182"><ele>900.0000000000001</ele><time>2026-05-02T10:32:33.001Z</time></trkpt><trkpt lat="44.32357863426259" lon="9.502637302902436"><ele>900.0</ele><time>2026-05-02T10:32:39.001Z</time></trkpt><trkpt lat="44.32353216532737" lon="9.502543440475907"><ele>900.0</ele><time>2026-05-02T10:33:59.001Z</time></trkpt></trkseg></trk></gpx>